Time,TemperatureF,DewpointF,PressureIn,WindDirection,WindDirectionDegrees,WindSpeedMPH,WindSpeedGustMPH,Humidity,HourlyPrecipIn,Conditions,Clouds,dailyrainin,SoftwareType,DateUTC
2013-01-13 00:00:00,32.9,29.5,29.99,NNW,332,5.0,10.0,87,0.00,,---,0.18,VWS V14.00,2013-01-13 06:00:00,
2013-01-13 00:01:00,32.9,29.5,30.00,NNW,332,2.0,6.0,87,0.00,,---,0.00,VWS V14.00,2013-01-13 06:01:00,
2013-01-13 00:02:00,32.9,29.5,30.00,NNW,332,4.0,4.0,87,0.00,,---,0.00,VWS V14.00,2013-01-13 06:02:00,
2013-01-13 00:03:00,32.9,29.5,30.00,NNW,329,8.0,10.0,87,0.00,,---,0.00,VWS V14.00,2013-01-13 06:03:00,
2013-01-13 00:04:00,32.9,29.5,30.00,NNW,329,10.0,13.0,87,0.00,,---,0.00,VWS V14.00,2013-01-13 06:04:00,
2013-01-13 00:05:00,32.9,29.5,30.00,NNW,327,7.0,11.0,87,0.00,,---,0.00,VWS V14.00,2013-01-13 06:05:00,
2013-01-13 00:06:00,33.1,29.7,30.00,NNW,328,5.0,11.0,87,0.00,,---,0.00,VWS V14.00,2013-01-13 06:06:00,
2013-01-13 00:07:00,33.1,29.7,30.00,NNW,328,3.0,9.0,87,0.00,,---,0.00,VWS V14.00,2013-01-13 06:07:00,
2013-01-13 00:08:00,33.1,29.7,30.00,NNW,335,10.0,10.0,87,0.00,,---,0.00,VWS V14.00,2013-01-13 06:08:00,
2013-01-13 00:09:00,33.1,29.7,30.00,NNW,335,10.0,13.0,87,0.00,,---,0.00,VWS V14.00,2013-01-13 06:09:00,
2013-01-13 00:10:00,33.1,29.7,30.00,NNW,333,6.0,10.0,87,0.00,,---,0.00,VWS V14.00,2013-01-13 06:10:00,
2013-01-13 00:11:00,33.1,29.7,30.00,NNW,333,4.0,9.0,87,0.00,,---,0.00,VWS V14.00,2013-01-13 06:11:00,
2013-01-13 00:12:00,33.1,29.7,30.00,NNW,332,9.0,11.0,87,0.00,,---,0.00,VWS V14.00,2013-01-13 06:12:00,
2013-01-13 00:13:00,33.1,29.4,30.00,NNW,334,12.0,12.0,86,0.00,,---,0.00,VWS V14.00,2013-01-13 06:13:00,
2013-01-13 00:14:00,33.1,29.4,30.00,NNW,331,8.0,10.0,86,0.00,,---,0.00,VWS V14.00,2013-01-13 06:14:00,
2013-01-13 00:15:00,32.9,29.2,30.00,NNW,344,6.0,13.0,86,0.00,,---,0.00,VWS V14.00,2013-01-13 06:15:00,
2013-01-13 00:16:00,32.9,29.2,30.00,North,351,4.0,9.0,86,0.00,,---,0.00,VWS V14.00,2013-01-13 06:16:00,
2013-01-13 00:17:00,32.9,29.2,30.00,North,351,3.0,6.0,86,0.00,,---,0.00,VWS V14.00,2013-01-13 06:17:00,
2013-01-13 00:18:00,32.9,29.2,30.00,North,355,5.0,8.0,86,0.00,,---,0.00,VWS V14.00,2013-01-13 06:18:00,
2013-01-13 00:19:00,32.9,29.2,30.00,North,355,8.0,10.0,86,0.00,,---,0.00,VWS V14.00,2013-01-13 06:19:00,
2013-01-13 00:20:00,32.9,29.2,30.00,North,351,3.0,8.0,86,0.00,,---,0.00,VWS V14.00,2013-01-13 06:20:00,
2013-01-13 00:21:00,32.9,29.2,30.00,NW,323,10.0,14.0,86,0.00,,---,0.00,VWS V14.00,2013-01-13 06:21:00,
2013-01-13 00:22:00,32.9,29.2,30.00,NNW,327,7.0,13.0,86,0.00,,---,0.00,VWS V14.00,2013-01-13 06:22:00,
2013-01-13 00:23:00,32.9,29.2,30.01,NNW,327,4.0,4.0,86,0.00,,---,0.00,VWS V14.00,2013-01-13 06:23:00,
2013-01-13 00:24:00,32.9,29.2,30.01,NNW,327,4.0,6.0,86,0.00,,---,0.00,VWS V14.00,2013-01-13 06:24:00,
2013-01-13 00:25:00,32.9,29.2,30.02,NNW,327,5.0,5.0,86,0.00,,---,0.00,VWS V14.00,2013-01-13 06:25:00,
2013-01-13 00:26:00,32.9,29.2,30.02,NNW,327,4.0,5.0,86,0.00,,---,0.00,VWS V14.00,2013-01-13 06:26:00,
2013-01-13 00:27:00,32.9,29.2,30.02,NNW,327,3.0,10.0,86,0.00,,---,0.00,VWS V14.00,2013-01-13 06:27:00,
2013-01-13 00:28:00,33.1,29.4,30.01,NNW,327,10.0,10.0,86,0.00,,---,0.00,VWS V14.00,2013-01-13 06:28:00,
2013-01-13 00:29:00,33.1,29.4,30.01,NNW,327,7.0,9.0,86,0.00,,---,0.00,VWS V14.00,2013-01-13 06:29:00,
2013-01-13 00:30:00,33.1,29.4,30.01,NNW,327,3.0,11.0,86,0.00,,---,0.00,VWS V14.00,2013-01-13 06:30:00,
2013-01-13 00:31:00,33.1,29.4,30.01,NNW,327,3.0,11.0,86,0.00,,---,0.00,VWS V14.00,2013-01-13 06:31:00,
2013-01-13 00:32:00,32.9,29.2,30.01,NNW,338,8.0,11.0,86,0.00,,---,0.00,VWS V14.00,2013-01-13 06:32:00,
2013-01-13 00:33:00,32.9,29.2,30.02,NNW,338,7.0,7.0,86,0.00,,---,0.00,VWS V14.00,2013-01-13 06:33:00,
2013-01-13 00:34:00,32.9,29.2,30.02,NNW,338,6.0,8.0,86,0.00,,---,0.00,VWS V14.00,2013-01-13 06:34:00,
2013-01-13 00:35:00,32.9,29.2,30.02,NNW,333,6.0,9.0,86,0.00,,---,0.00,VWS V14.00,2013-01-13 06:35:00,
2013-01-13 00:36:00,32.9,29.2,30.02,NNW,332,5.0,12.0,86,0.00,,---,0.00,VWS V14.00,2013-01-13 06:36:00,
2013-01-13 00:37:00,32.9,29.2,30.02,NNW,329,10.0,10.0,86,0.00,,---,0.00,VWS V14.00,2013-01-13 06:37:00,
2013-01-13 00:38:00,32.9,29.2,30.01,NNW,337,9.0,11.0,86,0.00,,---,0.00,VWS V14.00,2013-01-13 06:38:00,
2013-01-13 00:39:00,32.9,29.2,30.01,NNW,337,11.0,12.0,86,0.00,,---,0.00,VWS V14.00,2013-01-13 06:39:00,
2013-01-13 00:40:00,32.9,28.9,30.01,NNW,338,5.0,11.0,85,0.00,,---,0.00,VWS V14.00,2013-01-13 06:40:00,
2013-01-13 00:41:00,32.9,28.9,30.01,NNW,338,7.0,7.0,85,0.00,,---,0.00,VWS V14.00,2013-01-13 06:41:00,
2013-01-13 00:42:00,32.9,29.2,30.02,NNW,339,12.0,12.0,86,0.00,,---,0.00,VWS V14.00,2013-01-13 06:42:00,
2013-01-13 00:43:00,32.8,28.8,30.03,NNW,333,5.0,5.0,85,0.00,,---,0.00,VWS V14.00,2013-01-13 06:43:00,
2013-01-13 00:44:00,32.8,28.8,30.03,NNW,333,5.0,10.0,85,0.00,,---,0.00,VWS V14.00,2013-01-13 06:44:00,
2013-01-13 00:45:00,32.8,28.8,30.03,NW,311,9.0,9.0,85,0.00,,---,0.00,VWS V14.00,2013-01-13 06:45:00,
2013-01-13 00:46:00,32.8,28.8,30.03,NW,321,10.0,10.0,85,0.00,,---,0.00,VWS V14.00,2013-01-13 06:46:00,
2013-01-13 00:47:00,32.8,28.8,30.03,NNW,327,9.0,10.0,85,0.00,,---,0.00,VWS V14.00,2013-01-13 06:47:00,
2013-01-13 00:48:00,32.8,28.8,30.03,NNW,334,7.0,10.0,85,0.00,,---,0.00,VWS V14.00,2013-01-13 06:48:00,
2013-01-13 00:49:00,32.8,28.8,30.03,NNW,335,5.0,13.0,85,0.00,,---,0.00,VWS V14.00,2013-01-13 06:49:00,
2013-01-13 00:50:00,32.8,29.1,30.03,NW,324,10.0,13.0,86,0.00,,---,0.00,VWS V14.00,2013-01-13 06:50:00,
2013-01-13 00:51:00,32.8,29.1,30.04,NW,325,11.0,14.0,86,0.00,,---,0.00,VWS V14.00,2013-01-13 06:51:00,
2013-01-13 00:52:00,32.7,28.7,30.04,NW,319,9.0,12.0,85,0.00,,---,0.00,VWS V14.00,2013-01-13 06:52:00,
2013-01-13 00:53:00,32.5,28.5,30.04,NW,320,9.0,10.0,85,0.00,,---,0.00,VWS V14.00,2013-01-13 06:53:00,
2013-01-13 00:54:00,32.5,28.5,30.04,NW,320,10.0,13.0,85,0.00,,---,0.00,VWS V14.00,2013-01-13 06:54:00,
2013-01-13 00:55:00,32.5,28.5,30.03,NNW,333,8.0,12.0,85,0.00,,---,0.00,VWS V14.00,2013-01-13 06:55:00,
2013-01-13 00:56:00,32.5,28.5,30.02,NNW,338,15.0,15.0,85,0.00,,---,0.00,VWS V14.00,2013-01-13 06:56:00,
2013-01-13 00:57:00,32.5,28.8,30.02,NNW,327,13.0,16.0,86,0.00,,---,0.00,VWS V14.00,2013-01-13 06:57:00,
2013-01-13 00:58:00,32.4,28.4,30.01,NNW,342,11.0,12.0,85,0.00,,---,0.00,VWS V14.00,2013-01-13 06:58:00,
2013-01-13 00:59:00,32.4,28.4,30.01,NNW,333,11.0,16.0,85,0.00,,---,0.00,VWS V14.00,2013-01-13 06:59:00,
2013-01-13 01:00:00,32.2,28.2,30.01,NNW,336,10.0,15.0,85,0.00,,---,0.00,VWS V14.00,2013-01-13 07:00:00,
2013-01-13 01:01:00,32.2,28.5,30.01,NW,311,11.0,12.0,86,0.00,,---,0.00,VWS V14.00,2013-01-13 07:01:00,
2013-01-13 01:02:00,32.2,29.0,30.01,NW,319,12.0,14.0,88,0.00,,---,0.00,VWS V14.00,2013-01-13 07:02:00,
2013-01-13 01:03:00,32.2,28.5,30.00,NNW,337,6.0,6.0,86,0.01,,---,0.01,VWS V14.00,2013-01-13 07:03:00,
2013-01-13 01:04:00,32.2,28.5,30.00,NNW,337,5.0,11.0,86,0.01,,---,0.01,VWS V14.00,2013-01-13 07:04:00,
2013-01-13 01:05:00,32.1,28.4,30.00,NNW,338,12.0,16.0,86,0.01,,---,0.01,VWS V14.00,2013-01-13 07:05:00,
2013-01-13 01:06:00,32.1,28.4,30.01,North,355,6.0,12.0,86,0.01,,---,0.01,VWS V14.00,2013-01-13 07:06:00,
2013-01-13 01:07:00,32.1,28.4,30.01,NNW,330,6.0,9.0,86,0.01,,---,0.01,VWS V14.00,2013-01-13 07:07:00,
2013-01-13 01:08:00,32.1,28.4,30.02,NNW,328,7.0,7.0,86,0.01,,---,0.01,VWS V14.00,2013-01-13 07:08:00,
2013-01-13 01:09:00,32.1,28.4,30.02,NNW,328,3.0,11.0,86,0.01,,---,0.01,VWS V14.00,2013-01-13 07:09:00,
2013-01-13 01:10:00,32.1,28.4,30.02,NNW,331,5.0,11.0,86,0.01,,---,0.01,VWS V14.00,2013-01-13 07:10:00,
2013-01-13 01:11:00,32.1,28.4,30.02,NNW,330,8.0,9.0,86,0.01,,---,0.01,VWS V14.00,2013-01-13 07:11:00,
2013-01-13 01:12:00,32.1,28.4,30.02,NNW,331,10.0,13.0,86,0.01,,---,0.01,VWS V14.00,2013-01-13 07:12:00,
2013-01-13 01:13:00,31.9,27.9,30.02,NW,322,11.0,11.0,85,0.01,,---,0.01,VWS V14.00,2013-01-13 07:13:00,
2013-01-13 01:14:00,31.9,27.9,30.02,NW,322,11.0,16.0,85,0.01,,---,0.01,VWS V14.00,2013-01-13 07:14:00,
2013-01-13 01:15:00,31.8,28.7,30.02,NNW,341,11.0,17.0,88,0.01,,---,0.01,VWS V14.00,2013-01-13 07:15:00,
2013-01-13 01:16:00,31.6,27.9,30.03,NW,323,13.0,13.0,86,0.01,,---,0.01,VWS V14.00,2013-01-13 07:16:00,
2013-01-13 01:17:00,31.5,27.8,30.04,NW,322,16.0,16.0,86,0.01,,---,0.01,VWS V14.00,2013-01-13 07:17:00,
2013-01-13 01:18:00,31.3,27.3,30.04,NW,326,6.0,10.0,85,0.01,,---,0.01,VWS V14.00,2013-01-13 07:18:00,
2013-01-13 01:19:00,31.3,27.3,30.04,NNW,327,10.0,13.0,85,0.01,,---,0.01,VWS V14.00,2013-01-13 07:19:00,
2013-01-13 01:20:00,31.2,27.5,30.04,NW,325,9.0,11.0,86,0.01,,---,0.01,VWS V14.00,2013-01-13 07:20:00,
2013-01-13 01:21:00,31.2,27.5,30.04,NNW,334,12.0,15.0,86,0.01,,---,0.01,VWS V14.00,2013-01-13 07:21:00,
2013-01-13 01:22:00,31.2,27.5,30.04,NNW,333,9.0,12.0,86,0.01,,---,0.01,VWS V14.00,2013-01-13 07:22:00,
2013-01-13 01:23:00,31.0,27.3,30.04,NNW,329,13.0,15.0,86,0.01,,---,0.01,VWS V14.00,2013-01-13 07:23:00,
2013-01-13 01:24:00,31.0,27.3,30.04,NNW,328,15.0,15.0,86,0.01,,---,0.01,VWS V14.00,2013-01-13 07:24:00,
2013-01-13 01:25:00,30.9,27.2,30.04,NW,321,10.0,15.0,86,0.01,,---,0.01,VWS V14.00,2013-01-13 07:25:00,
2013-01-13 01:26:00,30.9,27.2,30.03,NNW,330,14.0,14.0,86,0.01,,---,0.01,VWS V14.00,2013-01-13 07:26:00,
2013-01-13 01:27:00,30.7,27.0,30.03,NW,312,16.0,17.0,86,0.01,,---,0.01,VWS V14.00,2013-01-13 07:27:00,
2013-01-13 01:28:00,30.6,26.9,30.04,NNW,333,13.0,17.0,86,0.01,,---,0.01,VWS V14.00,2013-01-13 07:28:00,
2013-01-13 01:29:00,30.6,26.9,30.04,NNW,333,13.0,17.0,86,0.01,,---,0.01,VWS V14.00,2013-01-13 07:29:00,
2013-01-13 01:30:00,30.6,26.9,30.04,NW,313,6.0,13.0,86,0.01,,---,0.01,VWS V14.00,2013-01-13 07:30:00,
2013-01-13 01:31:00,30.4,26.7,30.04,NW,323,12.0,14.0,86,0.01,,---,0.01,VWS V14.00,2013-01-13 07:31:00,
2013-01-13 01:32:00,30.4,26.7,30.04,NNW,348,17.0,21.0,86,0.01,,---,0.01,VWS V14.00,2013-01-13 07:32:00,
2013-01-13 01:33:00,30.3,26.6,30.04,NW,323,7.0,10.0,86,0.01,,---,0.01,VWS V14.00,2013-01-13 07:33:00,
2013-01-13 01:34:00,30.3,26.6,30.04,NW,323,10.0,15.0,86,0.01,,---,0.01,VWS V14.00,2013-01-13 07:34:00,
2013-01-13 01:35:00,30.3,26.6,30.05,NNW,328,11.0,12.0,86,0.01,,---,0.01,VWS V14.00,2013-01-13 07:35:00,
2013-01-13 01:36:00,30.3,26.6,30.05,NW,314,11.0,13.0,86,0.01,,---,0.01,VWS V14.00,2013-01-13 07:36:00,
2013-01-13 01:37:00,30.3,26.6,30.06,NW,311,14.0,15.0,86,0.01,,---,0.01,VWS V14.00,2013-01-13 07:37:00,
2013-01-13 01:38:00,30.3,26.6,30.05,NNW,342,11.0,12.0,86,0.01,,---,0.01,VWS V14.00,2013-01-13 07:38:00,
2013-01-13 01:39:00,30.3,26.6,30.05,NNW,342,12.0,15.0,86,0.01,,---,0.01,VWS V14.00,2013-01-13 07:39:00,
2013-01-13 01:40:00,30.1,26.4,30.05,NNW,340,15.0,18.0,86,0.01,,---,0.01,VWS V14.00,2013-01-13 07:40:00,
2013-01-13 01:41:00,30.1,26.4,30.05,NNW,340,10.0,20.0,86,0.01,,---,0.01,VWS V14.00,2013-01-13 07:41:00,
2013-01-13 01:42:00,30.1,26.4,30.04,NW,319,9.0,13.0,86,0.01,,---,0.01,VWS V14.00,2013-01-13 07:42:00,
2013-01-13 01:43:00,30.1,26.7,30.04,NW,320,9.0,10.0,87,0.01,,---,0.01,VWS V14.00,2013-01-13 07:43:00,
2013-01-13 01:44:00,30.1,26.7,30.04,NW,318,10.0,12.0,87,0.01,,---,0.01,VWS V14.00,2013-01-13 07:44:00,
2013-01-13 01:45:00,30.1,26.7,30.04,NNW,344,5.0,11.0,87,0.01,,---,0.01,VWS V14.00,2013-01-13 07:45:00,
2013-01-13 01:46:00,30.1,26.7,30.04,NNW,340,14.0,14.0,87,0.01,,---,0.01,VWS V14.00,2013-01-13 07:46:00,
2013-01-13 01:47:00,30.1,26.7,30.04,NNW,333,10.0,16.0,87,0.01,,---,0.01,VWS V14.00,2013-01-13 07:47:00,
2013-01-13 01:48:00,30.1,26.4,30.05,NW,317,9.0,10.0,86,0.01,,---,0.01,VWS V14.00,2013-01-13 07:48:00,
2013-01-13 01:49:00,30.1,26.4,30.05,NW,317,11.0,13.0,86,0.01,,---,0.01,VWS V14.00,2013-01-13 07:49:00,
2013-01-13 01:50:00,30.1,26.4,30.06,NW,317,14.0,14.0,86,0.01,,---,0.01,VWS V14.00,2013-01-13 07:50:00,
2013-01-13 01:51:00,30.1,26.7,30.06,NNW,329,13.0,16.0,87,0.01,,---,0.01,VWS V14.00,2013-01-13 07:51:00,
2013-01-13 01:52:00,30.0,26.3,30.05,NNW,331,12.0,15.0,86,0.01,,---,0.01,VWS V14.00,2013-01-13 07:52:00,
2013-01-13 01:53:00,30.0,26.6,30.06,NNW,333,10.0,10.0,87,0.01,,---,0.01,VWS V14.00,2013-01-13 07:53:00,
2013-01-13 01:54:00,30.0,26.6,30.06,NNW,333,10.0,14.0,87,0.01,,---,0.01,VWS V14.00,2013-01-13 07:54:00,
2013-01-13 01:55:00,30.0,26.6,30.06,NNW,327,12.0,13.0,87,0.01,,---,0.01,VWS V14.00,2013-01-13 07:55:00,
2013-01-13 01:56:00,29.8,26.4,30.06,NW,319,10.0,16.0,87,0.01,,---,0.01,VWS V14.00,2013-01-13 07:56:00,
2013-01-13 01:57:00,29.8,26.4,30.06,NNW,327,14.0,16.0,87,0.01,,---,0.01,VWS V14.00,2013-01-13 07:57:00,
2013-01-13 01:58:00,29.5,25.8,30.06,NNW,328,15.0,15.0,86,0.01,,---,0.01,VWS V14.00,2013-01-13 07:58:00,
2013-01-13 01:59:00,29.5,25.8,30.06,NW,315,14.0,19.0,86,0.01,,---,0.01,VWS V14.00,2013-01-13 07:59:00,
2013-01-13 02:00:00,29.5,26.1,30.06,NW,313,13.0,15.0,87,0.01,,---,0.01,VWS V14.00,2013-01-13 08:00:00,
2013-01-13 02:01:00,29.4,26.0,30.07,NW,315,14.0,15.0,87,0.01,,---,0.01,VWS V14.00,2013-01-13 08:01:00,
2013-01-13 02:02:00,29.3,25.9,30.08,NW,318,13.0,15.0,87,0.01,,---,0.01,VWS V14.00,2013-01-13 08:02:00,
2013-01-13 02:03:00,29.3,25.9,30.08,NW,326,14.0,15.0,87,0.00,,---,0.01,VWS V14.00,2013-01-13 08:03:00,
2013-01-13 02:04:00,29.3,25.9,30.08,NW,326,14.0,14.0,87,0.00,,---,0.01,VWS V14.00,2013-01-13 08:04:00,
2013-01-13 02:05:00,29.1,25.7,30.08,NW,321,7.0,15.0,87,0.00,,---,0.01,VWS V14.00,2013-01-13 08:05:00,
2013-01-13 02:06:00,29.1,25.7,30.08,NW,306,12.0,14.0,87,0.00,,---,0.01,VWS V14.00,2013-01-13 08:06:00,
2013-01-13 02:07:00,29.1,25.7,30.08,NW,316,10.0,15.0,87,0.00,,---,0.01,VWS V14.00,2013-01-13 08:07:00,
2013-01-13 02:08:00,29.0,25.6,30.08,NNW,329,14.0,17.0,87,0.00,,---,0.01,VWS V14.00,2013-01-13 08:08:00,
2013-01-13 02:09:00,29.0,25.6,30.08,NW,324,17.0,17.0,87,0.00,,---,0.01,VWS V14.00,2013-01-13 08:09:00,
2013-01-13 02:10:00,29.0,25.6,30.08,NW,319,9.0,17.0,87,0.00,,---,0.01,VWS V14.00,2013-01-13 08:10:00,
2013-01-13 02:11:00,29.0,25.6,30.08,NNW,333,11.0,14.0,87,0.00,,---,0.01,VWS V14.00,2013-01-13 08:11:00,
2013-01-13 02:12:00,29.0,25.9,30.08,NNW,327,12.0,15.0,88,0.00,,---,0.01,VWS V14.00,2013-01-13 08:12:00,
2013-01-13 02:13:00,29.0,25.9,30.07,NW,323,12.0,12.0,88,0.00,,---,0.01,VWS V14.00,2013-01-13 08:13:00,
2013-01-13 02:14:00,29.0,25.9,30.07,NW,323,12.0,15.0,88,0.00,,---,0.01,VWS V14.00,2013-01-13 08:14:00,
2013-01-13 02:15:00,28.8,25.4,30.07,NW,322,10.0,12.0,87,0.00,,---,0.01,VWS V14.00,2013-01-13 08:15:00,
2013-01-13 02:16:00,28.8,25.4,30.06,NW,325,10.0,13.0,87,0.00,,---,0.01,VWS V14.00,2013-01-13 08:16:00,
2013-01-13 02:17:00,28.8,25.7,30.06,NNW,334,14.0,14.0,88,0.00,,---,0.01,VWS V14.00,2013-01-13 08:17:00,
2013-01-13 02:18:00,28.8,25.4,30.07,NNW,340,9.0,10.0,87,0.00,,---,0.01,VWS V14.00,2013-01-13 08:18:00,
2013-01-13 02:19:00,28.8,25.4,30.07,NNW,340,10.0,16.0,87,0.00,,---,0.01,VWS V14.00,2013-01-13 08:19:00,
2013-01-13 02:20:00,28.8,25.4,30.06,North,349,12.0,15.0,87,0.00,,---,0.01,VWS V14.00,2013-01-13 08:20:00,
2013-01-13 02:21:00,28.7,25.3,30.06,NW,320,7.0,12.0,87,0.00,,---,0.01,VWS V14.00,2013-01-13 08:21:00,
2013-01-13 02:22:00,28.7,25.3,30.06,NW,323,10.0,12.0,87,0.00,,---,0.01,VWS V14.00,2013-01-13 08:22:00,
2013-01-13 02:23:00,28.7,25.3,30.06,NW,322,10.0,10.0,87,0.00,,---,0.01,VWS V14.00,2013-01-13 08:23:00,
2013-01-13 02:24:00,28.7,25.3,30.06,NW,323,10.0,16.0,87,0.00,,---,0.01,VWS V14.00,2013-01-13 08:24:00,
2013-01-13 02:25:00,28.7,25.3,30.07,NNW,337,9.0,15.0,87,0.00,,---,0.01,VWS V14.00,2013-01-13 08:25:00,
2013-01-13 02:26:00,28.7,25.3,30.07,NW,325,11.0,15.0,87,0.00,,---,0.01,VWS V14.00,2013-01-13 08:26:00,
2013-01-13 02:27:00,28.7,25.3,30.07,NNW,336,15.0,15.0,87,0.00,,---,0.01,VWS V14.00,2013-01-13 08:27:00,
2013-01-13 02:28:00,28.5,25.1,30.07,NW,314,14.0,15.0,87,0.00,,---,0.01,VWS V14.00,2013-01-13 08:28:00,
2013-01-13 02:29:00,28.5,25.1,30.07,NW,314,14.0,15.0,87,0.00,,---,0.01,VWS V14.00,2013-01-13 08:29:00,
2013-01-13 02:30:00,28.5,25.1,30.07,NNW,347,11.0,14.0,87,0.00,,---,0.01,VWS V14.00,2013-01-13 08:30:00,
2013-01-13 02:31:00,28.5,25.1,30.06,NNW,336,9.0,12.0,87,0.00,,---,0.01,VWS V14.00,2013-01-13 08:31:00,
2013-01-13 02:32:00,28.5,25.1,30.06,NNW,327,12.0,12.0,87,0.00,,---,0.01,VWS V14.00,2013-01-13 08:32:00,
2013-01-13 02:33:00,28.5,25.1,30.06,NW,325,5.0,10.0,87,0.00,,---,0.01,VWS V14.00,2013-01-13 08:33:00,
2013-01-13 02:34:00,28.5,25.1,30.06,NW,325,5.0,10.0,87,0.00,,---,0.01,VWS V14.00,2013-01-13 08:34:00,
2013-01-13 02:35:00,28.5,25.1,30.06,NNW,331,6.0,10.0,87,0.00,,---,0.01,VWS V14.00,2013-01-13 08:35:00,
2013-01-13 02:36:00,28.5,25.1,30.06,North,350,11.0,11.0,87,0.00,,---,0.01,VWS V14.00,2013-01-13 08:36:00,
2013-01-13 02:37:00,28.5,25.1,30.06,North,350,6.0,11.0,87,0.00,,---,0.01,VWS V14.00,2013-01-13 08:37:00,
2013-01-13 02:38:00,28.5,25.1,30.05,North,349,5.0,6.0,87,0.00,,---,0.01,VWS V14.00,2013-01-13 08:38:00,
2013-01-13 02:39:00,28.5,25.1,30.05,North,349,5.0,6.0,87,0.00,,---,0.01,VWS V14.00,2013-01-13 08:39:00,
2013-01-13 02:40:00,28.5,25.1,30.05,North,350,10.0,10.0,87,0.00,,---,0.01,VWS V14.00,2013-01-13 08:40:00,
2013-01-13 02:41:00,28.5,25.4,30.06,North,349,6.0,10.0,88,0.00,,---,0.01,VWS V14.00,2013-01-13 08:41:00,
2013-01-13 02:42:00,28.5,25.4,30.06,NNW,342,4.0,10.0,88,0.00,,---,0.01,VWS V14.00,2013-01-13 08:42:00,
2013-01-13 02:43:00,28.5,25.1,30.05,NNW,345,4.0,12.0,87,0.00,,---,0.01,VWS V14.00,2013-01-13 08:43:00,
2013-01-13 02:44:00,28.5,25.1,30.05,NNW,345,4.0,12.0,87,0.00,,---,0.01,VWS V14.00,2013-01-13 08:44:00,
2013-01-13 02:45:00,28.5,25.1,30.05,NNW,343,5.0,7.0,87,0.00,,---,0.01,VWS V14.00,2013-01-13 08:45:00,
2013-01-13 02:46:00,28.5,25.1,30.06,NNW,337,7.0,8.0,87,0.00,,---,0.01,VWS V14.00,2013-01-13 08:46:00,
2013-01-13 02:47:00,28.5,25.1,30.06,NNW,332,9.0,12.0,87,0.00,,---,0.01,VWS V14.00,2013-01-13 08:47:00,
2013-01-13 02:48:00,28.5,25.1,30.06,NNW,339,9.0,13.0,87,0.00,,---,0.01,VWS V14.00,2013-01-13 08:48:00,
2013-01-13 02:49:00,28.5,25.1,30.06,NNW,339,9.0,13.0,87,0.00,,---,0.01,VWS V14.00,2013-01-13 08:49:00,
2013-01-13 02:50:00,28.5,25.1,30.06,NW,318,10.0,12.0,87,0.00,,---,0.01,VWS V14.00,2013-01-13 08:50:00,
2013-01-13 02:51:00,28.5,25.1,30.06,NW,317,6.0,11.0,87,0.00,,---,0.01,VWS V14.00,2013-01-13 08:51:00,
2013-01-13 02:52:00,28.5,25.1,30.06,NNW,331,6.0,13.0,87,0.00,,---,0.01,VWS V14.00,2013-01-13 08:52:00,
2013-01-13 02:53:00,28.5,24.9,30.06,NNW,337,14.0,16.0,86,0.00,,---,0.01,VWS V14.00,2013-01-13 08:53:00,
2013-01-13 02:54:00,28.5,24.9,30.06,NNW,337,14.0,16.0,86,0.00,,---,0.01,VWS V14.00,2013-01-13 08:54:00,
2013-01-13 02:55:00,28.5,24.9,30.06,North,349,14.0,15.0,86,0.00,,---,0.01,VWS V14.00,2013-01-13 08:55:00,
2013-01-13 02:56:00,28.4,25.3,30.05,NNW,338,11.0,13.0,88,0.00,,---,0.01,VWS V14.00,2013-01-13 08:56:00,
2013-01-13 02:57:00,28.5,25.1,30.05,NNW,342,14.0,14.0,87,0.00,,---,0.01,VWS V14.00,2013-01-13 08:57:00,
2013-01-13 02:58:00,28.5,25.1,30.05,NNW,333,7.0,7.0,87,0.00,,---,0.01,VWS V14.00,2013-01-13 08:58:00,
2013-01-13 02:59:00,28.5,25.1,30.05,NNW,333,6.0,10.0,87,0.00,,---,0.01,VWS V14.00,2013-01-13 08:59:00,
2013-01-13 03:00:00,28.5,25.1,30.05,NNW,333,7.0,7.0,87,0.00,,---,0.01,VWS V14.00,2013-01-13 09:00:00,
2013-01-13 03:01:00,28.5,25.1,30.05,NNW,340,11.0,11.0,87,0.00,,---,0.01,VWS V14.00,2013-01-13 09:01:00,
2013-01-13 03:02:00,28.5,25.1,30.05,NNW,341,11.0,12.0,87,0.00,,---,0.01,VWS V14.00,2013-01-13 09:02:00,
2013-01-13 03:03:00,28.5,25.1,30.06,NW,320,13.0,14.0,87,0.00,,---,0.01,VWS V14.00,2013-01-13 09:03:00,
2013-01-13 03:04:00,28.5,25.1,30.06,NW,321,7.0,16.0,87,0.00,,---,0.01,VWS V14.00,2013-01-13 09:04:00,
2013-01-13 03:05:00,28.5,25.1,30.06,NW,323,10.0,14.0,87,0.00,,---,0.01,VWS V14.00,2013-01-13 09:05:00,
2013-01-13 03:06:00,28.4,25.0,30.06,NW,316,14.0,15.0,87,0.00,,---,0.01,VWS V14.00,2013-01-13 09:06:00,
2013-01-13 03:07:00,28.4,25.0,30.07,NW,321,6.0,10.0,87,0.00,,---,0.01,VWS V14.00,2013-01-13 09:07:00,
2013-01-13 03:08:00,28.4,25.0,30.07,NW,320,11.0,13.0,87,0.00,,---,0.01,VWS V14.00,2013-01-13 09:08:00,
2013-01-13 03:09:00,28.4,25.0,30.07,NW,321,7.0,12.0,87,0.00,,---,0.01,VWS V14.00,2013-01-13 09:09:00,
2013-01-13 03:10:00,28.4,25.0,30.07,NW,321,6.0,10.0,87,0.00,,---,0.01,VWS V14.00,2013-01-13 09:10:00,
2013-01-13 03:11:00,28.5,25.1,30.08,NNW,327,10.0,14.0,87,0.00,,---,0.01,VWS V14.00,2013-01-13 09:11:00,
2013-01-13 03:12:00,28.4,25.0,30.08,NNW,328,12.0,14.0,87,0.00,,---,0.01,VWS V14.00,2013-01-13 09:12:00,
2013-01-13 03:13:00,28.4,25.0,30.08,NNW,343,12.0,13.0,87,0.00,,---,0.01,VWS V14.00,2013-01-13 09:13:00,
2013-01-13 03:14:00,28.4,25.0,30.08,NNW,333,7.0,15.0,87,0.00,,---,0.01,VWS V14.00,2013-01-13 09:14:00,
2013-01-13 03:15:00,28.4,25.0,30.08,NNW,336,13.0,14.0,87,0.00,,---,0.01,VWS V14.00,2013-01-13 09:15:00,
2013-01-13 03:16:00,28.4,25.0,30.08,NNW,338,9.0,15.0,87,0.00,,---,0.01,VWS V14.00,2013-01-13 09:16:00,
2013-01-13 03:17:00,28.4,25.0,30.07,NNW,334,9.0,9.0,87,0.00,,---,0.01,VWS V14.00,2013-01-13 09:17:00,
2013-01-13 03:18:00,28.4,25.0,30.08,NNW,341,6.0,9.0,87,0.00,,---,0.01,VWS V14.00,2013-01-13 09:18:00,
2013-01-13 03:19:00,28.4,25.0,30.07,NNW,333,6.0,8.0,87,0.00,,---,0.01,VWS V14.00,2013-01-13 09:19:00,
2013-01-13 03:20:00,28.4,25.0,30.06,NNW,336,7.0,9.0,87,0.00,,---,0.01,VWS V14.00,2013-01-13 09:20:00,
2013-01-13 03:21:00,28.4,25.0,30.06,NNW,336,4.0,7.0,87,0.00,,---,0.01,VWS V14.00,2013-01-13 09:21:00,
2013-01-13 03:22:00,28.2,24.8,30.05,NNW,337,12.0,12.0,87,0.00,,---,0.01,VWS V14.00,2013-01-13 09:22:00,
2013-01-13 03:23:00,28.4,25.0,30.05,NNW,336,11.0,11.0,87,0.00,,---,0.01,VWS V14.00,2013-01-13 09:23:00,
2013-01-13 03:24:00,28.2,24.8,30.05,NNW,337,7.0,11.0,87,0.00,,---,0.01,VWS V14.00,2013-01-13 09:24:00,
2013-01-13 03:25:00,28.2,24.6,30.05,NNW,338,7.0,12.0,86,0.00,,---,0.01,VWS V14.00,2013-01-13 09:25:00,
2013-01-13 03:26:00,28.2,24.8,30.05,NNW,336,6.0,10.0,87,0.00,,---,0.01,VWS V14.00,2013-01-13 09:26:00,
2013-01-13 03:27:00,28.2,24.8,30.06,NNW,340,5.0,11.0,87,0.00,,---,0.01,VWS V14.00,2013-01-13 09:27:00,
2013-01-13 03:28:00,28.2,24.8,30.06,NW,325,9.0,13.0,87,0.00,,---,0.01,VWS V14.00,2013-01-13 09:28:00,
2013-01-13 03:29:00,28.2,24.8,30.06,NNW,342,11.0,12.0,87,0.00,,---,0.01,VWS V14.00,2013-01-13 09:29:00,
2013-01-13 03:30:00,28.2,24.8,30.06,NNW,335,8.0,11.0,87,0.00,,---,0.01,VWS V14.00,2013-01-13 09:30:00,
2013-01-13 03:31:00,28.2,24.8,30.07,WNW,294,9.0,10.0,87,0.00,,---,0.01,VWS V14.00,2013-01-13 09:31:00,
2013-01-13 03:32:00,28.1,24.5,30.08,NNW,332,13.0,13.0,86,0.00,,---,0.01,VWS V14.00,2013-01-13 09:32:00,
2013-01-13 03:33:00,28.2,24.8,30.07,North,355,12.0,16.0,87,0.00,,---,0.01,VWS V14.00,2013-01-13 09:33:00,
2013-01-13 03:34:00,28.1,24.5,30.08,NNW,347,12.0,14.0,86,0.00,,---,0.01,VWS V14.00,2013-01-13 09:34:00,
2013-01-13 03:35:00,28.1,24.5,30.07,NNW,345,11.0,13.0,86,0.00,,---,0.01,VWS V14.00,2013-01-13 09:35:00,
2013-01-13 03:36:00,28.1,24.5,30.07,North,9,10.0,12.0,86,0.00,,---,0.01,VWS V14.00,2013-01-13 09:36:00,
2013-01-13 03:37:00,28.1,24.7,30.08,NNW,337,8.0,8.0,87,0.00,,---,0.01,VWS V14.00,2013-01-13 09:37:00,
2013-01-13 03:38:00,28.1,24.5,30.07,NNW,347,10.0,12.0,86,0.00,,---,0.01,VWS V14.00,2013-01-13 09:38:00,
2013-01-13 03:39:00,28.1,24.7,30.08,NNW,336,6.0,12.0,87,0.00,,---,0.01,VWS V14.00,2013-01-13 09:39:00,
2013-01-13 03:40:00,28.1,24.7,30.08,NNW,338,9.0,10.0,87,0.00,,---,0.01,VWS V14.00,2013-01-13 09:40:00,
2013-01-13 03:41:00,28.1,24.7,30.08,NNW,331,5.0,9.0,87,0.00,,---,0.01,VWS V14.00,2013-01-13 09:41:00,
2013-01-13 03:42:00,28.1,24.5,30.08,NW,315,8.0,9.0,86,0.00,,---,0.01,VWS V14.00,2013-01-13 09:42:00,
2013-01-13 03:43:00,28.1,24.5,30.08,NW,317,11.0,11.0,86,0.00,,---,0.01,VWS V14.00,2013-01-13 09:43:00,
2013-01-13 03:44:00,28.1,24.5,30.08,NW,314,9.0,11.0,86,0.00,,---,0.01,VWS V14.00,2013-01-13 09:44:00,
2013-01-13 03:45:00,28.1,24.5,30.08,NW,315,5.0,10.0,86,0.00,,---,0.01,VWS V14.00,2013-01-13 09:45:00,
2013-01-13 03:46:00,28.1,24.5,30.09,NW,317,9.0,10.0,86,0.00,,---,0.01,VWS V14.00,2013-01-13 09:46:00,
2013-01-13 03:47:00,28.1,24.7,30.08,NW,319,7.0,13.0,87,0.00,,---,0.01,VWS V14.00,2013-01-13 09:47:00,
2013-01-13 03:48:00,28.1,24.7,30.08,NNW,331,11.0,14.0,87,0.00,,---,0.01,VWS V14.00,2013-01-13 09:48:00,
2013-01-13 03:49:00,28.1,24.7,30.08,NW,320,13.0,13.0,87,0.00,,---,0.01,VWS V14.00,2013-01-13 09:49:00,
2013-01-13 03:50:00,28.1,24.5,30.08,NW,321,11.0,13.0,86,0.00,,---,0.01,VWS V14.00,2013-01-13 09:50:00,
2013-01-13 03:51:00,28.1,24.5,30.08,NW,325,9.0,12.0,86,0.00,,---,0.01,VWS V14.00,2013-01-13 09:51:00,
2013-01-13 03:52:00,27.9,24.3,30.07,NNW,331,11.0,11.0,86,0.00,,---,0.01,VWS V14.00,2013-01-13 09:52:00,
2013-01-13 03:53:00,27.9,24.3,30.07,NNW,347,14.0,14.0,86,0.00,,---,0.01,VWS V14.00,2013-01-13 09:53:00,
2013-01-13 03:54:00,27.9,24.3,30.07,NNW,330,11.0,14.0,86,0.00,,---,0.01,VWS V14.00,2013-01-13 09:54:00,
2013-01-13 03:55:00,27.9,24.5,30.07,NNW,331,14.0,14.0,87,0.00,,---,0.01,VWS V14.00,2013-01-13 09:55:00,
2013-01-13 03:56:00,27.9,24.3,30.06,NNW,336,11.0,15.0,86,0.00,,---,0.01,VWS V14.00,2013-01-13 09:56:00,
2013-01-13 03:57:00,27.9,24.3,30.07,NNW,342,10.0,12.0,86,0.00,,---,0.01,VWS V14.00,2013-01-13 09:57:00,
2013-01-13 03:58:00,27.9,24.5,30.06,NNW,342,16.0,16.0,87,0.00,,---,0.01,VWS V14.00,2013-01-13 09:58:00,
2013-01-13 03:59:00,27.9,24.3,30.07,NNW,342,9.0,16.0,86,0.00,,---,0.01,VWS V14.00,2013-01-13 09:59:00,
2013-01-13 04:00:00,27.9,24.3,30.07,NW,316,13.0,13.0,86,0.00,,---,0.01,VWS V14.00,2013-01-13 10:00:00,
2013-01-13 04:01:00,27.8,24.2,30.10,NW,322,5.0,14.0,86,0.00,,---,0.01,VWS V14.00,2013-01-13 10:01:00,
2013-01-13 04:02:00,27.8,24.2,30.11,NNW,332,10.0,12.0,86,0.00,,---,0.01,VWS V14.00,2013-01-13 10:02:00,
2013-01-13 04:03:00,27.8,24.2,30.11,NW,316,14.0,15.0,86,0.00,,---,0.01,VWS V14.00,2013-01-13 10:03:00,
2013-01-13 04:04:00,27.8,24.2,30.11,NW,322,12.0,15.0,86,0.00,,---,0.01,VWS V14.00,2013-01-13 10:04:00,
2013-01-13 04:05:00,27.8,24.2,30.11,NNW,331,10.0,12.0,86,0.00,,---,0.01,VWS V14.00,2013-01-13 10:05:00,
2013-01-13 04:06:00,27.8,24.2,30.10,NNW,329,10.0,13.0,86,0.00,,---,0.01,VWS V14.00,2013-01-13 10:06:00,
2013-01-13 04:07:00,27.8,24.2,30.11,NNW,342,12.0,13.0,86,0.00,,---,0.01,VWS V14.00,2013-01-13 10:07:00,
2013-01-13 04:08:00,27.8,24.2,30.11,NW,318,11.0,12.0,86,0.00,,---,0.01,VWS V14.00,2013-01-13 10:08:00,
2013-01-13 04:09:00,27.8,24.2,30.11,NNW,347,13.0,14.0,86,0.00,,---,0.01,VWS V14.00,2013-01-13 10:09:00,
2013-01-13 04:10:00,27.8,24.2,30.10,NNW,339,12.0,14.0,86,0.00,,---,0.01,VWS V14.00,2013-01-13 10:10:00,
2013-01-13 04:11:00,27.8,24.2,30.10,NNW,346,12.0,15.0,86,0.00,,---,0.01,VWS V14.00,2013-01-13 10:11:00,
2013-01-13 04:12:00,27.8,24.4,30.10,North,349,5.0,12.0,87,0.00,,---,0.01,VWS V14.00,2013-01-13 10:12:00,
2013-01-13 04:13:00,27.8,24.2,30.10,NNW,341,6.0,10.0,86,0.00,,---,0.01,VWS V14.00,2013-01-13 10:13:00,
2013-01-13 04:14:00,27.8,24.4,30.10,NNW,342,12.0,12.0,87,0.00,,---,0.01,VWS V14.00,2013-01-13 10:14:00,
2013-01-13 04:15:00,27.8,24.2,30.10,North,349,11.0,12.0,86,0.00,,---,0.01,VWS V14.00,2013-01-13 10:15:00,
2013-01-13 04:16:00,27.8,24.2,30.09,NNW,348,4.0,12.0,86,0.00,,---,0.01,VWS V14.00,2013-01-13 10:16:00,
2013-01-13 04:17:00,27.9,24.3,30.10,NW,326,10.0,11.0,86,0.00,,---,0.01,VWS V14.00,2013-01-13 10:17:00,
2013-01-13 04:18:00,27.9,24.3,30.09,NNW,327,12.0,12.0,86,0.00,,---,0.01,VWS V14.00,2013-01-13 10:18:00,
2013-01-13 04:19:00,27.9,24.3,30.10,NW,326,10.0,14.0,86,0.00,,---,0.01,VWS V14.00,2013-01-13 10:19:00,
2013-01-13 04:20:00,27.8,24.2,30.10,NW,326,10.0,12.0,86,0.00,,---,0.01,VWS V14.00,2013-01-13 10:20:00,
2013-01-13 04:21:00,27.8,24.2,30.10,NW,325,7.0,13.0,86,0.00,,---,0.01,VWS V14.00,2013-01-13 10:21:00,
2013-01-13 04:22:00,27.6,24.0,30.11,NNW,333,6.0,13.0,86,0.00,,---,0.01,VWS V14.00,2013-01-13 10:22:00,
2013-01-13 04:23:00,27.8,24.2,30.11,WNW,301,14.0,14.0,86,0.00,,---,0.01,VWS V14.00,2013-01-13 10:23:00,
2013-01-13 04:24:00,27.6,24.0,30.11,NNW,329,10.0,14.0,86,0.00,,---,0.01,VWS V14.00,2013-01-13 10:24:00,
2013-01-13 04:25:00,27.6,24.0,30.11,NNW,333,12.0,13.0,86,0.00,,---,0.01,VWS V14.00,2013-01-13 10:25:00,
2013-01-13 04:26:00,27.5,23.9,30.11,NW,316,14.0,14.0,86,0.00,,---,0.01,VWS V14.00,2013-01-13 10:26:00,
2013-01-13 04:27:00,27.3,23.7,30.10,NW,318,9.0,12.0,86,0.00,,---,0.01,VWS V14.00,2013-01-13 10:27:00,
2013-01-13 04:28:00,27.3,23.7,30.10,NNW,329,8.0,13.0,86,0.00,,---,0.01,VWS V14.00,2013-01-13 10:28:00,
2013-01-13 04:29:00,27.3,23.7,30.10,NW,317,10.0,13.0,86,0.00,,---,0.01,VWS V14.00,2013-01-13 10:29:00,
2013-01-13 04:30:00,27.3,23.7,30.10,NW,323,9.0,12.0,86,0.00,,---,0.01,VWS V14.00,2013-01-13 10:30:00,
2013-01-13 04:31:00,27.2,23.6,30.11,NW,318,6.0,13.0,86,0.00,,---,0.01,VWS V14.00,2013-01-13 10:31:00,
2013-01-13 04:32:00,27.2,23.6,30.12,NNW,327,12.0,12.0,86,0.00,,---,0.01,VWS V14.00,2013-01-13 10:32:00,
2013-01-13 04:33:00,27.2,23.6,30.12,NW,325,10.0,16.0,86,0.00,,---,0.01,VWS V14.00,2013-01-13 10:33:00,
2013-01-13 04:34:00,27.2,23.6,30.12,NW,320,6.0,12.0,86,0.00,,---,0.01,VWS V14.00,2013-01-13 10:34:00,
2013-01-13 04:35:00,27.2,23.6,30.13,NW,324,9.0,14.0,86,0.00,,---,0.01,VWS V14.00,2013-01-13 10:35:00,
2013-01-13 04:36:00,27.0,23.4,30.13,NW,324,12.0,12.0,86,0.00,,---,0.01,VWS V14.00,2013-01-13 10:36:00,
2013-01-13 04:37:00,26.9,23.3,30.14,NW,323,13.0,15.0,86,0.00,,---,0.01,VWS V14.00,2013-01-13 10:37:00,
2013-01-13 04:38:00,27.0,23.4,30.14,WNW,300,9.0,13.0,86,0.00,,---,0.01,VWS V14.00,2013-01-13 10:38:00,
2013-01-13 04:39:00,26.9,23.3,30.14,NW,317,15.0,16.0,86,0.00,,---,0.01,VWS V14.00,2013-01-13 10:39:00,
2013-01-13 04:40:00,26.9,23.3,30.13,NW,325,12.0,15.0,86,0.00,,---,0.01,VWS V14.00,2013-01-13 10:40:00,
2013-01-13 04:41:00,26.9,23.3,30.13,NNW,328,11.0,13.0,86,0.00,,---,0.01,VWS V14.00,2013-01-13 10:41:00,
2013-01-13 04:42:00,26.9,23.3,30.12,NW,324,11.0,13.0,86,0.00,,---,0.01,VWS V14.00,2013-01-13 10:42:00,
2013-01-13 04:43:00,26.9,23.3,30.13,NNW,331,10.0,14.0,86,0.00,,---,0.01,VWS V14.00,2013-01-13 10:43:00,
2013-01-13 04:44:00,26.9,23.3,30.12,NNW,336,11.0,13.0,86,0.00,,---,0.01,VWS V14.00,2013-01-13 10:44:00,
2013-01-13 04:45:00,26.9,23.3,30.12,NW,319,11.0,16.0,86,0.00,,---,0.01,VWS V14.00,2013-01-13 10:45:00,
2013-01-13 04:46:00,26.9,23.3,30.11,NW,319,15.0,15.0,86,0.00,,---,0.01,VWS V14.00,2013-01-13 10:46:00,
2013-01-13 04:47:00,26.7,23.1,30.10,NW,323,12.0,14.0,86,0.00,,---,0.01,VWS V14.00,2013-01-13 10:47:00,
2013-01-13 04:48:00,26.7,23.1,30.11,North,360,7.0,13.0,86,0.00,,---,0.01,VWS V14.00,2013-01-13 10:48:00,
2013-01-13 04:49:00,26.7,23.1,30.10,NW,306,10.0,11.0,86,0.00,,---,0.01,VWS V14.00,2013-01-13 10:49:00,
2013-01-13 04:50:00,26.7,23.1,30.10,NNW,331,12.0,14.0,86,0.00,,---,0.01,VWS V14.00,2013-01-13 10:50:00,
2013-01-13 04:51:00,26.7,23.1,30.10,NW,324,11.0,16.0,86,0.00,,---,0.01,VWS V14.00,2013-01-13 10:51:00,
2013-01-13 04:52:00,26.4,22.5,30.09,NW,317,14.0,14.0,85,0.00,,---,0.01,VWS V14.00,2013-01-13 10:52:00,
2013-01-13 04:53:00,26.6,23.0,30.09,NW,313,12.0,14.0,86,0.00,,---,0.01,VWS V14.00,2013-01-13 10:53:00,
2013-01-13 04:54:00,26.4,22.5,30.09,NW,324,10.0,17.0,85,0.00,,---,0.01,VWS V14.00,2013-01-13 10:54:00,
2013-01-13 04:55:00,26.4,22.5,30.10,NW,314,11.0,14.0,85,0.00,,---,0.01,VWS V14.00,2013-01-13 10:55:00,
2013-01-13 04:56:00,26.4,22.5,30.11,NW,317,11.0,12.0,85,0.00,,---,0.01,VWS V14.00,2013-01-13 10:56:00,
2013-01-13 04:57:00,26.6,23.0,30.13,NW,320,7.0,9.0,86,0.00,,---,0.01,VWS V14.00,2013-01-13 10:57:00,
2013-01-13 04:58:00,26.4,22.5,30.12,NW,323,11.0,16.0,85,0.00,,---,0.01,VWS V14.00,2013-01-13 10:58:00,
2013-01-13 04:59:00,26.4,22.8,30.12,NW,320,7.0,11.0,86,0.00,,---,0.01,VWS V14.00,2013-01-13 10:59:00,
2013-01-13 05:00:00,26.6,23.0,30.13,NW,321,10.0,11.0,86,0.00,,---,0.01,VWS V14.00,2013-01-13 11:00:00,
2013-01-13 05:01:00,26.6,23.0,30.13,NW,320,7.0,10.0,86,0.00,,---,0.01,VWS V14.00,2013-01-13 11:01:00,
2013-01-13 05:02:00,26.6,22.7,30.13,NW,306,13.0,13.0,85,0.00,,---,0.01,VWS V14.00,2013-01-13 11:02:00,
2013-01-13 05:03:00,26.6,23.0,30.13,NW,315,12.0,12.0,86,0.00,,---,0.01,VWS V14.00,2013-01-13 11:03:00,
2013-01-13 05:04:00,26.6,22.7,30.13,NW,311,11.0,14.0,85,0.00,,---,0.01,VWS V14.00,2013-01-13 11:04:00,
2013-01-13 05:05:00,26.4,22.5,30.12,NNW,330,11.0,14.0,85,0.00,,---,0.01,VWS V14.00,2013-01-13 11:05:00,
2013-01-13 05:06:00,26.4,22.5,30.12,NNW,329,10.0,14.0,85,0.00,,---,0.01,VWS V14.00,2013-01-13 11:06:00,
2013-01-13 05:07:00,26.3,22.1,30.13,NW,326,10.0,14.0,84,0.00,,---,0.01,VWS V14.00,2013-01-13 11:07:00,
2013-01-13 05:08:00,26.3,22.4,30.13,NNW,339,13.0,16.0,85,0.00,,---,0.01,VWS V14.00,2013-01-13 11:08:00,
2013-01-13 05:09:00,26.3,22.1,30.13,NNW,327,13.0,16.0,84,0.00,,---,0.01,VWS V14.00,2013-01-13 11:09:00,
2013-01-13 05:10:00,26.1,21.9,30.14,NW,322,14.0,15.0,84,0.00,,---,0.01,VWS V14.00,2013-01-13 11:10:00,
2013-01-13 05:11:00,26.1,21.9,30.15,NW,314,19.0,19.0,84,0.00,,---,0.01,VWS V14.00,2013-01-13 11:11:00,
2013-01-13 05:12:00,26.1,21.9,30.15,NW,319,13.0,16.0,84,0.00,,---,0.01,VWS V14.00,2013-01-13 11:12:00,
2013-01-13 05:13:00,26.0,21.8,30.15,NNW,329,11.0,17.0,84,0.00,,---,0.01,VWS V14.00,2013-01-13 11:13:00,
2013-01-13 05:14:00,26.1,21.9,30.15,NNW,328,14.0,16.0,84,0.00,,---,0.01,VWS V14.00,2013-01-13 11:14:00,
2013-01-13 05:15:00,26.1,21.9,30.15,NW,324,12.0,16.0,84,0.00,,---,0.01,VWS V14.00,2013-01-13 11:15:00,
2013-01-13 05:16:00,26.1,21.9,30.15,NNW,338,12.0,15.0,84,0.00,,---,0.01,VWS V14.00,2013-01-13 11:16:00,
2013-01-13 05:17:00,26.1,21.9,30.14,NNW,336,11.0,13.0,84,0.00,,---,0.01,VWS V14.00,2013-01-13 11:17:00,
2013-01-13 05:18:00,26.0,21.8,30.14,NW,324,12.0,15.0,84,0.00,,---,0.01,VWS V14.00,2013-01-13 11:18:00,
2013-01-13 05:19:00,26.1,21.9,30.14,NNW,329,13.0,13.0,84,0.00,,---,0.01,VWS V14.00,2013-01-13 11:19:00,
2013-01-13 05:20:00,26.1,21.9,30.14,NW,311,13.0,13.0,84,0.00,,---,0.01,VWS V14.00,2013-01-13 11:20:00,
2013-01-13 05:21:00,26.1,21.9,30.13,NNW,331,12.0,15.0,84,0.00,,---,0.01,VWS V14.00,2013-01-13 11:21:00,
2013-01-13 05:22:00,26.1,21.9,30.14,NNW,327,6.0,9.0,84,0.00,,---,0.01,VWS V14.00,2013-01-13 11:22:00,
2013-01-13 05:23:00,26.0,21.8,30.13,NNW,327,7.0,11.0,84,0.00,,---,0.01,VWS V14.00,2013-01-13 11:23:00,
2013-01-13 05:24:00,26.1,21.9,30.14,NNW,327,8.0,12.0,84,0.00,,---,0.01,VWS V14.00,2013-01-13 11:24:00,
2013-01-13 05:25:00,26.1,21.9,30.14,NW,320,10.0,12.0,84,0.00,,---,0.01,VWS V14.00,2013-01-13 11:25:00,
2013-01-13 05:26:00,26.0,21.8,30.14,NW,320,7.0,12.0,84,0.00,,---,0.01,VWS V14.00,2013-01-13 11:26:00,
2013-01-13 05:27:00,26.0,21.6,30.14,NW,320,7.0,7.0,83,0.00,,---,0.01,VWS V14.00,2013-01-13 11:27:00,
2013-01-13 05:28:00,26.0,21.8,30.13,NW,320,5.0,8.0,84,0.00,,---,0.01,VWS V14.00,2013-01-13 11:28:00,
2013-01-13 05:29:00,26.0,21.6,30.13,NW,320,5.0,10.0,83,0.00,,---,0.01,VWS V14.00,2013-01-13 11:29:00,
2013-01-13 05:30:00,26.0,21.8,30.14,NW,320,6.0,11.0,84,0.00,,---,0.01,VWS V14.00,2013-01-13 11:30:00,
2013-01-13 05:31:00,26.0,21.8,30.15,NW,314,12.0,12.0,84,0.00,,---,0.01,VWS V14.00,2013-01-13 11:31:00,
2013-01-13 05:32:00,25.7,21.3,30.15,NNW,327,10.0,12.0,83,0.00,,---,0.01,VWS V14.00,2013-01-13 11:32:00,
2013-01-13 05:33:00,25.8,21.4,30.15,NW,313,13.0,14.0,83,0.00,,---,0.01,VWS V14.00,2013-01-13 11:33:00,
2013-01-13 05:34:00,25.8,21.4,30.15,NNW,327,12.0,13.0,83,0.00,,---,0.01,VWS V14.00,2013-01-13 11:34:00,
2013-01-13 05:35:00,25.7,21.3,30.14,NW,325,9.0,12.0,83,0.00,,---,0.01,VWS V14.00,2013-01-13 11:35:00,
2013-01-13 05:36:00,25.8,21.6,30.15,NW,313,10.0,13.0,84,0.00,,---,0.01,VWS V14.00,2013-01-13 11:36:00,
2013-01-13 05:37:00,25.7,21.3,30.14,North,351,11.0,12.0,83,0.00,,---,0.01,VWS V14.00,2013-01-13 11:37:00,
2013-01-13 05:38:00,25.7,21.3,30.15,NNW,331,10.0,15.0,83,0.00,,---,0.01,VWS V14.00,2013-01-13 11:38:00,
2013-01-13 05:39:00,25.7,21.3,30.14,North,351,11.0,14.0,83,0.00,,---,0.01,VWS V14.00,2013-01-13 11:39:00,
2013-01-13 05:40:00,25.7,21.3,30.14,NW,313,13.0,13.0,83,0.00,,---,0.01,VWS V14.00,2013-01-13 11:40:00,
2013-01-13 05:41:00,25.7,21.3,30.14,NNW,327,10.0,13.0,83,0.00,,---,0.01,VWS V14.00,2013-01-13 11:41:00,
2013-01-13 05:42:00,25.6,21.2,30.13,North,350,11.0,11.0,83,0.00,,---,0.01,VWS V14.00,2013-01-13 11:42:00,
2013-01-13 05:43:00,25.6,21.2,30.13,NW,318,6.0,15.0,83,0.00,,---,0.01,VWS V14.00,2013-01-13 11:43:00,
2013-01-13 05:44:00,25.6,21.2,30.13,North,355,10.0,16.0,83,0.00,,---,0.01,VWS V14.00,2013-01-13 11:44:00,
2013-01-13 05:45:00,25.6,20.9,30.13,NNW,336,16.0,16.0,82,0.00,,---,0.01,VWS V14.00,2013-01-13 11:45:00,
2013-01-13 05:46:00,25.6,20.9,30.14,NNW,330,9.0,16.0,82,0.00,,---,0.01,VWS V14.00,2013-01-13 11:46:00,
2013-01-13 05:47:00,25.6,20.9,30.15,NNW,336,11.0,14.0,82,0.00,,---,0.01,VWS V14.00,2013-01-13 11:47:00,
2013-01-13 05:48:00,25.6,20.9,30.15,NNW,344,10.0,13.0,82,0.00,,---,0.01,VWS V14.00,2013-01-13 11:48:00,
2013-01-13 05:49:00,25.6,20.9,30.15,NNW,346,14.0,14.0,82,0.00,,---,0.01,VWS V14.00,2013-01-13 11:49:00,
2013-01-13 05:50:00,25.6,20.9,30.15,NW,317,12.0,14.0,82,0.00,,---,0.01,VWS V14.00,2013-01-13 11:50:00,
2013-01-13 05:51:00,25.6,20.9,30.15,NW,309,13.0,14.0,82,0.00,,---,0.01,VWS V14.00,2013-01-13 11:51:00,
2013-01-13 05:52:00,25.4,20.7,30.14,NW,323,9.0,9.0,82,0.00,,---,0.01,VWS V14.00,2013-01-13 11:52:00,
2013-01-13 05:53:00,25.4,20.7,30.14,NW,322,12.0,14.0,82,0.00,,---,0.01,VWS V14.00,2013-01-13 11:53:00,
2013-01-13 05:54:00,25.4,20.7,30.14,NNW,329,9.0,12.0,82,0.00,,---,0.01,VWS V14.00,2013-01-13 11:54:00,
2013-01-13 05:55:00,25.4,20.7,30.14,NW,323,10.0,11.0,82,0.00,,---,0.01,VWS V14.00,2013-01-13 11:55:00,
2013-01-13 05:56:00,25.6,21.2,30.14,NNW,347,9.0,13.0,83,0.00,,---,0.01,VWS V14.00,2013-01-13 11:56:00,
2013-01-13 05:57:00,25.6,20.9,30.13,NW,324,9.0,10.0,82,0.00,,---,0.01,VWS V14.00,2013-01-13 11:57:00,
2013-01-13 05:58:00,25.6,21.2,30.13,NNW,334,11.0,15.0,83,0.00,,---,0.01,VWS V14.00,2013-01-13 11:58:00,
2013-01-13 05:59:00,25.6,20.9,30.13,NNW,327,9.0,14.0,82,0.00,,---,0.01,VWS V14.00,2013-01-13 11:59:00,
2013-01-13 06:00:00,25.6,21.2,30.13,NW,323,9.0,11.0,83,0.00,,---,0.01,VWS V14.00,2013-01-13 12:00:00,
2013-01-13 06:01:00,25.6,21.2,30.13,NW,323,6.0,11.0,83,0.00,,---,0.01,VWS V14.00,2013-01-13 12:01:00,
2013-01-13 06:02:00,25.6,21.2,30.12,North,360,5.0,10.0,83,0.00,,---,0.01,VWS V14.00,2013-01-13 12:02:00,
2013-01-13 06:03:00,25.6,21.2,30.12,NNW,334,10.0,11.0,83,0.00,,---,0.01,VWS V14.00,2013-01-13 12:03:00,
2013-01-13 06:04:00,25.6,21.2,30.12,NNW,339,2.0,10.0,83,0.00,,---,0.01,VWS V14.00,2013-01-13 12:04:00,
2013-01-13 06:05:00,25.6,20.9,30.12,North,360,5.0,10.0,82,0.00,,---,0.01,VWS V14.00,2013-01-13 12:05:00,
2013-01-13 06:06:00,25.6,21.2,30.13,North,355,6.0,7.0,83,0.00,,---,0.01,VWS V14.00,2013-01-13 12:06:00,
2013-01-13 06:07:00,25.6,20.9,30.14,NNW,327,6.0,9.0,82,0.00,,---,0.01,VWS V14.00,2013-01-13 12:07:00,
2013-01-13 06:08:00,25.6,21.2,30.14,North,349,9.0,9.0,83,0.00,,---,0.01,VWS V14.00,2013-01-13 12:08:00,
2013-01-13 06:09:00,25.6,21.2,30.14,NW,326,9.0,10.0,83,0.00,,---,0.01,VWS V14.00,2013-01-13 12:09:00,
2013-01-13 06:10:00,25.6,20.9,30.15,NNW,327,10.0,10.0,82,0.00,,---,0.01,VWS V14.00,2013-01-13 12:10:00,
2013-01-13 06:11:00,25.6,20.9,30.15,NNW,340,6.0,11.0,82,0.00,,---,0.01,VWS V14.00,2013-01-13 12:11:00,
2013-01-13 06:12:00,25.6,20.9,30.16,NNW,329,9.0,9.0,82,0.00,,---,0.01,VWS V14.00,2013-01-13 12:12:00,
2013-01-13 06:13:00,25.6,20.9,30.16,NNW,336,8.0,9.0,82,0.00,,---,0.01,VWS V14.00,2013-01-13 12:13:00,
2013-01-13 06:14:00,25.6,20.9,30.16,NNW,329,6.0,10.0,82,0.00,,---,0.01,VWS V14.00,2013-01-13 12:14:00,
2013-01-13 06:15:00,25.6,20.9,30.16,NNW,329,6.0,9.0,82,0.00,,---,0.01,VWS V14.00,2013-01-13 12:15:00,
2013-01-13 06:16:00,25.6,20.9,30.15,NNW,329,5.0,9.0,82,0.00,,---,0.01,VWS V14.00,2013-01-13 12:16:00,
2013-01-13 06:17:00,25.6,20.9,30.15,NNW,336,6.0,10.0,82,0.00,,---,0.01,VWS V14.00,2013-01-13 12:17:00,
2013-01-13 06:18:00,25.6,20.9,30.14,NNW,338,11.0,13.0,82,0.00,,---,0.01,VWS V14.00,2013-01-13 12:18:00,
2013-01-13 06:19:00,25.6,20.9,30.15,NNW,332,7.0,11.0,82,0.00,,---,0.01,VWS V14.00,2013-01-13 12:19:00,
2013-01-13 06:20:00,25.6,20.9,30.15,NNW,336,7.0,10.0,82,0.00,,---,0.01,VWS V14.00,2013-01-13 12:20:00,
2013-01-13 06:21:00,25.6,20.9,30.15,NNW,330,9.0,13.0,82,0.00,,---,0.01,VWS V14.00,2013-01-13 12:21:00,
2013-01-13 06:22:00,25.4,20.7,30.16,NNW,327,8.0,12.0,82,0.00,,---,0.01,VWS V14.00,2013-01-13 12:22:00,
2013-01-13 06:23:00,25.6,20.9,30.16,NW,320,9.0,12.0,82,0.00,,---,0.01,VWS V14.00,2013-01-13 12:23:00,
2013-01-13 06:24:00,25.6,20.9,30.16,North,349,11.0,16.0,82,0.00,,---,0.01,VWS V14.00,2013-01-13 12:24:00,
2013-01-13 06:25:00,25.4,20.7,30.15,NW,320,10.0,12.0,82,0.00,,---,0.01,VWS V14.00,2013-01-13 12:25:00,
2013-01-13 06:26:00,25.6,20.9,30.15,NNW,348,11.0,14.0,82,0.00,,---,0.01,VWS V14.00,2013-01-13 12:26:00,
2013-01-13 06:27:00,25.6,21.2,30.14,NNW,331,11.0,11.0,83,0.00,,---,0.01,VWS V14.00,2013-01-13 12:27:00,
2013-01-13 06:28:00,25.6,21.2,30.15,NW,319,10.0,11.0,83,0.00,,---,0.01,VWS V14.00,2013-01-13 12:28:00,
2013-01-13 06:29:00,25.6,21.2,30.14,NW,322,10.0,12.0,83,0.00,,---,0.01,VWS V14.00,2013-01-13 12:29:00,
2013-01-13 06:30:00,25.6,20.9,30.14,North,350,9.0,13.0,82,0.00,,---,0.01,VWS V14.00,2013-01-13 12:30:00,
2013-01-13 06:31:00,25.6,20.6,30.14,NNW,346,7.0,9.0,81,0.00,,---,0.01,VWS V14.00,2013-01-13 12:31:00,
2013-01-13 06:32:00,25.4,20.7,30.16,NNW,327,1.0,9.0,82,0.00,,---,0.01,VWS V14.00,2013-01-13 12:32:00,
2013-01-13 06:33:00,25.4,20.7,30.15,NW,325,8.0,9.0,82,0.00,,---,0.01,VWS V14.00,2013-01-13 12:33:00,
2013-01-13 06:34:00,25.4,20.7,30.16,NNW,327,9.0,10.0,82,0.00,,---,0.01,VWS V14.00,2013-01-13 12:34:00,
2013-01-13 06:35:00,25.4,20.7,30.16,NNW,327,3.0,9.0,82,0.00,,---,0.01,VWS V14.00,2013-01-13 12:35:00,
2013-01-13 06:36:00,25.4,20.7,30.16,NW,321,5.0,10.0,82,0.00,,---,0.01,VWS V14.00,2013-01-13 12:36:00,
2013-01-13 06:37:00,25.6,20.9,30.15,NW,308,12.0,12.0,82,0.00,,---,0.01,VWS V14.00,2013-01-13 12:37:00,
2013-01-13 06:38:00,25.4,20.7,30.16,NW,321,4.0,9.0,82,0.00,,---,0.01,VWS V14.00,2013-01-13 12:38:00,
2013-01-13 06:39:00,25.6,20.9,30.15,NW,315,8.0,10.0,82,0.00,,---,0.01,VWS V14.00,2013-01-13 12:39:00,
2013-01-13 06:40:00,25.6,20.9,30.15,NW,322,8.0,12.0,82,0.00,,---,0.01,VWS V14.00,2013-01-13 12:40:00,
2013-01-13 06:41:00,25.6,20.9,30.15,NW,323,3.0,8.0,82,0.00,,---,0.01,VWS V14.00,2013-01-13 12:41:00,
2013-01-13 06:42:00,25.6,20.9,30.14,NNW,344,5.0,6.0,82,0.00,,---,0.01,VWS V14.00,2013-01-13 12:42:00,
2013-01-13 06:43:00,25.6,20.9,30.14,North,355,6.0,10.0,82,0.00,,---,0.01,VWS V14.00,2013-01-13 12:43:00,
2013-01-13 06:44:00,25.6,20.9,30.14,NNW,345,6.0,8.0,82,0.00,,---,0.01,VWS V14.00,2013-01-13 12:44:00,
2013-01-13 06:45:00,25.6,20.9,30.14,NNW,344,5.0,6.0,82,0.00,,---,0.01,VWS V14.00,2013-01-13 12:45:00,
2013-01-13 06:46:00,25.6,20.9,30.14,NNW,339,6.0,8.0,82,0.00,,---,0.01,VWS V14.00,2013-01-13 12:46:00,
2013-01-13 06:47:00,25.6,20.9,30.14,NW,325,9.0,10.0,82,0.00,,---,0.01,VWS V14.00,2013-01-13 12:47:00,
2013-01-13 06:48:00,25.6,20.9,30.14,NNW,331,1.0,9.0,82,0.00,,---,0.01,VWS V14.00,2013-01-13 12:48:00,
2013-01-13 06:49:00,25.6,20.9,30.14,NNW,331,10.0,11.0,82,0.00,,---,0.01,VWS V14.00,2013-01-13 12:49:00,
2013-01-13 06:50:00,25.6,20.9,30.14,NW,320,12.0,12.0,82,0.00,,---,0.01,VWS V14.00,2013-01-13 12:50:00,
2013-01-13 06:51:00,25.6,20.9,30.14,NW,322,12.0,12.0,82,0.00,,---,0.01,VWS V14.00,2013-01-13 12:51:00,
2013-01-13 06:52:00,25.6,20.6,30.14,NNW,333,4.0,12.0,81,0.00,,---,0.01,VWS V14.00,2013-01-13 12:52:00,
2013-01-13 06:53:00,25.6,20.9,30.14,NNW,327,11.0,11.0,82,0.00,,---,0.01,VWS V14.00,2013-01-13 12:53:00,
2013-01-13 06:54:00,25.6,20.9,30.14,NNW,333,8.0,11.0,82,0.00,,---,0.01,VWS V14.00,2013-01-13 12:54:00,
2013-01-13 06:55:00,25.6,20.6,30.14,NNW,333,5.0,12.0,81,0.00,,---,0.01,VWS V14.00,2013-01-13 12:55:00,
2013-01-13 06:56:00,25.6,20.9,30.14,NNW,333,9.0,9.0,82,0.00,,---,0.01,VWS V14.00,2013-01-13 12:56:00,
2013-01-13 06:57:00,25.4,20.4,30.14,NW,324,9.0,11.0,81,0.00,,---,0.01,VWS V14.00,2013-01-13 12:57:00,
2013-01-13 06:58:00,25.4,20.7,30.15,NNW,327,10.0,14.0,82,0.00,,---,0.01,VWS V14.00,2013-01-13 12:58:00,
2013-01-13 06:59:00,25.4,20.4,30.14,NW,323,11.0,12.0,81,0.00,,---,0.01,VWS V14.00,2013-01-13 12:59:00,
2013-01-13 07:00:00,25.4,20.7,30.14,NW,311,11.0,12.0,82,0.00,,---,0.01,VWS V14.00,2013-01-13 13:00:00,
2013-01-13 07:01:00,25.4,20.4,30.15,NNW,331,10.0,13.0,81,0.00,,---,0.01,VWS V14.00,2013-01-13 13:01:00,
2013-01-13 07:02:00,25.3,20.3,30.16,NNW,332,11.0,11.0,81,0.00,,---,0.01,VWS V14.00,2013-01-13 13:02:00,
2013-01-13 07:03:00,25.4,20.4,30.15,NNW,333,8.0,14.0,81,0.00,,---,0.01,VWS V14.00,2013-01-13 13:03:00,
2013-01-13 07:04:00,25.4,20.4,30.16,NNW,346,10.0,13.0,81,0.00,,---,0.01,VWS V14.00,2013-01-13 13:04:00,
2013-01-13 07:05:00,25.3,20.3,30.16,NNW,336,10.0,12.0,81,0.00,,---,0.01,VWS V14.00,2013-01-13 13:05:00,
2013-01-13 07:06:00,25.3,20.3,30.16,NNW,328,10.0,14.0,81,0.00,,---,0.01,VWS V14.00,2013-01-13 13:06:00,
2013-01-13 07:07:00,25.3,20.3,30.16,NNW,342,12.0,15.0,81,0.00,,---,0.01,VWS V14.00,2013-01-13 13:07:00,
2013-01-13 07:08:00,25.3,20.3,30.16,NNW,327,8.0,11.0,81,0.00,,---,0.01,VWS V14.00,2013-01-13 13:08:00,
2013-01-13 07:09:00,25.3,20.3,30.16,NNW,347,14.0,16.0,81,0.00,,---,0.01,VWS V14.00,2013-01-13 13:09:00,
2013-01-13 07:10:00,25.3,20.0,30.16,NNW,338,10.0,15.0,80,0.00,,---,0.01,VWS V14.00,2013-01-13 13:10:00,
2013-01-13 07:11:00,25.3,20.3,30.16,NNW,333,7.0,10.0,81,0.00,,---,0.01,VWS V14.00,2013-01-13 13:11:00,
2013-01-13 07:12:00,25.3,20.0,30.16,NNW,339,10.0,16.0,80,0.00,,---,0.01,VWS V14.00,2013-01-13 13:12:00,
2013-01-13 07:13:00,25.3,20.3,30.16,NNW,340,15.0,16.0,81,0.00,,---,0.01,VWS V14.00,2013-01-13 13:13:00,
2013-01-13 07:14:00,25.3,20.3,30.16,NNW,333,10.0,15.0,81,0.00,,---,0.01,VWS V14.00,2013-01-13 13:14:00,
2013-01-13 07:15:00,25.3,20.0,30.16,NNW,340,12.0,16.0,80,0.00,,---,0.01,VWS V14.00,2013-01-13 13:15:00,
2013-01-13 07:16:00,25.3,20.0,30.16,NW,325,12.0,12.0,80,0.00,,---,0.01,VWS V14.00,2013-01-13 13:16:00,
2013-01-13 07:17:00,25.1,19.8,30.17,NNW,327,8.0,11.0,80,0.00,,---,0.01,VWS V14.00,2013-01-13 13:17:00,
2013-01-13 07:18:00,25.1,19.8,30.16,NW,321,8.0,14.0,80,0.00,,---,0.01,VWS V14.00,2013-01-13 13:18:00,
2013-01-13 07:19:00,25.1,19.8,30.17,NNW,338,9.0,11.0,80,0.00,,---,0.01,VWS V14.00,2013-01-13 13:19:00,
2013-01-13 07:20:00,25.1,19.8,30.17,NNW,339,12.0,12.0,80,0.00,,---,0.01,VWS V14.00,2013-01-13 13:20:00,
2013-01-13 07:21:00,25.1,19.8,30.17,NW,319,6.0,14.0,80,0.00,,---,0.01,VWS V14.00,2013-01-13 13:21:00,
2013-01-13 07:22:00,25.1,19.8,30.17,NNW,338,7.0,13.0,80,0.00,,---,0.01,VWS V14.00,2013-01-13 13:22:00,
2013-01-13 07:23:00,25.3,20.0,30.17,NNW,330,7.0,13.0,80,0.00,,---,0.01,VWS V14.00,2013-01-13 13:23:00,
2013-01-13 07:24:00,25.1,19.8,30.17,NNW,338,13.0,13.0,80,0.00,,---,0.01,VWS V14.00,2013-01-13 13:24:00,
2013-01-13 07:25:00,25.1,19.8,30.17,NNW,338,6.0,13.0,80,0.00,,---,0.01,VWS V14.00,2013-01-13 13:25:00,
2013-01-13 07:26:00,25.1,19.8,30.17,NNW,330,6.0,13.0,80,0.00,,---,0.01,VWS V14.00,2013-01-13 13:26:00,
2013-01-13 07:27:00,25.1,19.8,30.16,NNW,327,11.0,12.0,80,0.00,,---,0.01,VWS V14.00,2013-01-13 13:27:00,
2013-01-13 07:28:00,25.1,19.8,30.16,NNW,338,5.0,12.0,80,0.00,,---,0.01,VWS V14.00,2013-01-13 13:28:00,
2013-01-13 07:29:00,25.1,19.8,30.16,NNW,327,9.0,13.0,80,0.00,,---,0.01,VWS V14.00,2013-01-13 13:29:00,
2013-01-13 07:30:00,25.1,19.8,30.16,NNW,331,11.0,12.0,80,0.00,,---,0.01,VWS V14.00,2013-01-13 13:30:00,
2013-01-13 07:31:00,25.1,19.8,30.16,North,355,4.0,13.0,80,0.00,,---,0.01,VWS V14.00,2013-01-13 13:31:00,
2013-01-13 07:32:00,25.1,19.5,30.15,NNW,341,8.0,10.0,79,0.00,,---,0.01,VWS V14.00,2013-01-13 13:32:00,
2013-01-13 07:33:00,25.1,19.8,30.15,NNW,345,10.0,13.0,80,0.00,,---,0.01,VWS V14.00,2013-01-13 13:33:00,
2013-01-13 07:34:00,25.1,19.5,30.15,NNW,340,4.0,10.0,79,0.00,,---,0.01,VWS V14.00,2013-01-13 13:34:00,
2013-01-13 07:35:00,25.1,19.5,30.15,NNW,341,6.0,10.0,79,0.00,,---,0.01,VWS V14.00,2013-01-13 13:35:00,
2013-01-13 07:36:00,25.1,19.5,30.15,NNW,342,5.0,10.0,79,0.00,,---,0.01,VWS V14.00,2013-01-13 13:36:00,
2013-01-13 07:37:00,25.1,19.8,30.15,NNW,338,6.0,8.0,80,0.00,,---,0.01,VWS V14.00,2013-01-13 13:37:00,
2013-01-13 07:38:00,25.1,19.8,30.16,NNW,340,3.0,9.0,80,0.00,,---,0.01,VWS V14.00,2013-01-13 13:38:00,
2013-01-13 07:39:00,25.1,19.8,30.15,NNW,338,4.0,10.0,80,0.00,,---,0.01,VWS V14.00,2013-01-13 13:39:00,
2013-01-13 07:40:00,25.1,19.8,30.15,NW,323,11.0,11.0,80,0.00,,---,0.01,VWS V14.00,2013-01-13 13:40:00,
2013-01-13 07:41:00,25.1,19.8,30.15,NW,324,9.0,14.0,80,0.00,,---,0.01,VWS V14.00,2013-01-13 13:41:00,
2013-01-13 07:42:00,25.3,20.0,30.16,NNW,339,6.0,7.0,80,0.00,,---,0.01,VWS V14.00,2013-01-13 13:42:00,
2013-01-13 07:43:00,25.3,20.0,30.15,NNW,344,5.0,12.0,80,0.00,,---,0.01,VWS V14.00,2013-01-13 13:43:00,
2013-01-13 07:44:00,25.3,20.3,30.16,NNW,338,6.0,12.0,81,0.00,,---,0.01,VWS V14.00,2013-01-13 13:44:00,
2013-01-13 07:45:00,25.3,20.0,30.16,NNW,340,4.0,7.0,80,0.00,,---,0.01,VWS V14.00,2013-01-13 13:45:00,
2013-01-13 07:46:00,25.3,20.0,30.16,NW,307,8.0,11.0,80,0.00,,---,0.01,VWS V14.00,2013-01-13 13:46:00,
2013-01-13 07:47:00,25.3,20.0,30.17,NW,321,6.0,13.0,80,0.00,,---,0.01,VWS V14.00,2013-01-13 13:47:00,
2013-01-13 07:48:00,25.3,20.0,30.17,NW,316,10.0,11.0,80,0.00,,---,0.01,VWS V14.00,2013-01-13 13:48:00,
2013-01-13 07:49:00,25.3,20.0,30.17,NW,324,13.0,13.0,80,0.00,,---,0.01,VWS V14.00,2013-01-13 13:49:00,
2013-01-13 07:50:00,25.3,20.0,30.17,NW,321,6.0,13.0,80,0.00,,---,0.01,VWS V14.00,2013-01-13 13:50:00,
2013-01-13 07:51:00,25.3,20.0,30.17,NNW,330,6.0,14.0,80,0.00,,---,0.01,VWS V14.00,2013-01-13 13:51:00,
2013-01-13 07:52:00,25.3,20.0,30.17,NNW,336,11.0,12.0,80,0.00,,---,0.01,VWS V14.00,2013-01-13 13:52:00,
2013-01-13 07:53:00,25.3,20.0,30.17,NNW,341,6.0,13.0,80,0.00,,---,0.01,VWS V14.00,2013-01-13 13:53:00,
2013-01-13 07:54:00,25.3,20.0,30.17,NNW,336,9.0,10.0,80,0.00,,---,0.01,VWS V14.00,2013-01-13 13:54:00,
2013-01-13 07:55:00,25.3,20.0,30.17,NNW,342,15.0,15.0,80,0.00,,---,0.01,VWS V14.00,2013-01-13 13:55:00,
2013-01-13 07:56:00,25.3,20.3,30.17,NNW,343,10.0,15.0,81,0.00,,---,0.01,VWS V14.00,2013-01-13 13:56:00,
2013-01-13 07:57:00,25.3,20.0,30.19,NNW,327,10.0,13.0,80,0.00,,---,0.01,VWS V14.00,2013-01-13 13:57:00,
2013-01-13 07:58:00,25.3,20.3,30.18,NW,314,10.0,11.0,81,0.00,,---,0.01,VWS V14.00,2013-01-13 13:58:00,
2013-01-13 07:59:00,25.3,20.0,30.19,NNW,327,13.0,14.0,80,0.00,,---,0.01,VWS V14.00,2013-01-13 13:59:00,
2013-01-13 08:00:00,25.3,20.0,30.19,NW,316,9.0,13.0,80,0.00,,---,0.01,VWS V14.00,2013-01-13 14:00:00,
2013-01-13 08:01:00,25.1,19.8,30.20,NW,319,7.0,12.0,80,0.00,,---,0.01,VWS V14.00,2013-01-13 14:01:00,
2013-01-13 08:02:00,25.1,19.8,30.20,NNW,329,6.0,12.0,80,0.00,,---,0.01,VWS V14.00,2013-01-13 14:02:00,
2013-01-13 08:03:00,25.1,19.8,30.20,NW,315,7.0,12.0,80,0.00,,---,0.01,VWS V14.00,2013-01-13 14:03:00,
2013-01-13 08:04:00,25.1,19.8,30.20,NNW,336,7.0,12.0,80,0.00,,---,0.01,VWS V14.00,2013-01-13 14:04:00,
2013-01-13 08:05:00,25.1,20.1,30.21,NW,321,13.0,13.0,81,0.00,,---,0.01,VWS V14.00,2013-01-13 14:05:00,
2013-01-13 08:06:00,25.1,19.8,30.22,NW,321,10.0,14.0,80,0.00,,---,0.01,VWS V14.00,2013-01-13 14:06:00,
2013-01-13 08:07:00,25.0,19.7,30.22,NW,316,9.0,11.0,80,0.00,,---,0.01,VWS V14.00,2013-01-13 14:07:00,
2013-01-13 08:08:00,25.0,19.7,30.22,NW,315,8.0,8.0,80,0.00,,---,0.01,VWS V14.00,2013-01-13 14:08:00,
2013-01-13 08:09:00,25.0,19.7,30.22,NW,317,9.0,11.0,80,0.00,,---,0.01,VWS V14.00,2013-01-13 14:09:00,
2013-01-13 08:10:00,25.0,19.7,30.23,NW,317,9.0,12.0,80,0.00,,---,0.01,VWS V14.00,2013-01-13 14:10:00,
2013-01-13 08:11:00,24.8,19.5,30.23,NW,315,3.0,10.0,80,0.00,,---,0.01,VWS V14.00,2013-01-13 14:11:00,
2013-01-13 08:12:00,24.8,19.5,30.25,NW,309,6.0,7.0,80,0.00,,---,0.01,VWS V14.00,2013-01-13 14:12:00,
2013-01-13 08:13:00,24.8,19.5,30.24,NW,306,4.0,10.0,80,0.00,,---,0.01,VWS V14.00,2013-01-13 14:13:00,
2013-01-13 08:14:00,24.8,19.5,30.25,NW,309,5.0,10.0,80,0.00,,---,0.01,VWS V14.00,2013-01-13 14:14:00,
2013-01-13 08:15:00,24.8,19.5,30.25,NW,309,4.0,7.0,80,0.00,,---,0.01,VWS V14.00,2013-01-13 14:15:00,
2013-01-13 08:16:00,24.8,19.5,30.25,NW,308,6.0,7.0,80,0.00,,---,0.01,VWS V14.00,2013-01-13 14:16:00,
2013-01-13 08:17:00,24.8,19.2,30.23,NW,320,7.0,7.0,79,0.00,,---,0.01,VWS V14.00,2013-01-13 14:17:00,
2013-01-13 08:18:00,24.8,19.5,30.24,NW,309,5.0,9.0,80,0.00,,---,0.01,VWS V14.00,2013-01-13 14:18:00,
2013-01-13 08:19:00,24.8,20.4,30.23,NW,317,6.0,8.0,83,0.00,,---,0.01,VWS V14.00,2013-01-13 14:19:00,
2013-01-13 08:20:00,24.8,19.5,30.22,NNW,332,9.0,10.0,80,0.00,,---,0.01,VWS V14.00,2013-01-13 14:20:00,
2013-01-13 08:21:00,24.8,19.5,30.22,NNW,331,11.0,11.0,80,0.00,,---,0.01,VWS V14.00,2013-01-13 14:21:00,
2013-01-13 08:22:00,24.7,19.1,30.20,NNW,337,9.0,14.0,79,0.00,,---,0.01,VWS V14.00,2013-01-13 14:22:00,
2013-01-13 08:23:00,24.8,19.2,30.21,NNW,343,11.0,17.0,79,0.00,,---,0.01,VWS V14.00,2013-01-13 14:23:00,
2013-01-13 08:24:00,24.7,19.1,30.20,NNW,343,14.0,14.0,79,0.00,,---,0.01,VWS V14.00,2013-01-13 14:24:00,
2013-01-13 08:25:00,24.7,19.1,30.20,NNW,340,10.0,14.0,79,0.00,,---,0.01,VWS V14.00,2013-01-13 14:25:00,
2013-01-13 08:26:00,24.7,19.4,30.20,NNW,339,12.0,12.0,80,0.00,,---,0.01,VWS V14.00,2013-01-13 14:26:00,
2013-01-13 08:27:00,24.7,19.7,30.22,NNW,327,5.0,10.0,81,0.00,,---,0.01,VWS V14.00,2013-01-13 14:27:00,
2013-01-13 08:28:00,24.7,19.4,30.21,NNW,334,6.0,13.0,80,0.00,,---,0.01,VWS V14.00,2013-01-13 14:28:00,
2013-01-13 08:29:00,24.7,19.4,30.22,NNW,327,9.0,9.0,80,0.00,,---,0.01,VWS V14.00,2013-01-13 14:29:00,
2013-01-13 08:30:00,24.8,19.8,30.22,NNW,329,6.0,10.0,81,0.00,,---,0.01,VWS V14.00,2013-01-13 14:30:00,
2013-01-13 08:31:00,24.8,19.8,30.22,NW,313,12.0,12.0,81,0.00,,---,0.01,VWS V14.00,2013-01-13 14:31:00,
2013-01-13 08:32:00,24.7,19.4,30.23,NW,314,12.0,12.0,80,0.00,,---,0.01,VWS V14.00,2013-01-13 14:32:00,
2013-01-13 08:33:00,24.7,19.4,30.23,NW,315,12.0,12.0,80,0.00,,---,0.01,VWS V14.00,2013-01-13 14:33:00,
2013-01-13 08:34:00,24.7,19.4,30.23,NW,313,11.0,12.0,80,0.00,,---,0.01,VWS V14.00,2013-01-13 14:34:00,
2013-01-13 08:35:00,24.7,19.4,30.22,NW,322,10.0,12.0,80,0.00,,---,0.01,VWS V14.00,2013-01-13 14:35:00,
2013-01-13 08:36:00,24.7,19.4,30.22,NNW,327,12.0,14.0,80,0.00,,---,0.01,VWS V14.00,2013-01-13 14:36:00,
2013-01-13 08:37:00,24.5,18.9,30.22,NW,321,11.0,12.0,79,0.00,,---,0.01,VWS V14.00,2013-01-13 14:37:00,
2013-01-13 08:38:00,24.7,19.4,30.22,NW,317,10.0,12.0,80,0.00,,---,0.01,VWS V14.00,2013-01-13 14:38:00,
2013-01-13 08:39:00,24.7,19.1,30.22,NW,321,11.0,12.0,79,0.00,,---,0.01,VWS V14.00,2013-01-13 14:39:00,
2013-01-13 08:40:00,24.5,18.9,30.22,NW,319,10.0,12.0,79,0.00,,---,0.01,VWS V14.00,2013-01-13 14:40:00,
2013-01-13 08:41:00,24.5,18.9,30.22,NW,317,13.0,13.0,79,0.00,,---,0.01,VWS V14.00,2013-01-13 14:41:00,
2013-01-13 08:42:00,24.5,19.2,30.21,NW,317,9.0,12.0,80,0.00,,---,0.01,VWS V14.00,2013-01-13 14:42:00,
2013-01-13 08:43:00,24.5,19.2,30.21,NW,318,12.0,13.0,80,0.00,,---,0.01,VWS V14.00,2013-01-13 14:43:00,
2013-01-13 08:44:00,24.5,19.2,30.21,NW,317,11.0,13.0,80,0.00,,---,0.01,VWS V14.00,2013-01-13 14:44:00,
2013-01-13 08:45:00,24.5,19.2,30.21,NW,317,6.0,12.0,80,0.00,,---,0.01,VWS V14.00,2013-01-13 14:45:00,
2013-01-13 08:46:00,24.5,18.9,30.20,NNW,332,12.0,14.0,79,0.00,,---,0.01,VWS V14.00,2013-01-13 14:46:00,
2013-01-13 08:47:00,24.5,19.2,30.20,NW,318,8.0,11.0,80,0.00,,---,0.01,VWS V14.00,2013-01-13 14:47:00,
2013-01-13 08:48:00,24.4,19.1,30.20,NW,318,9.0,12.0,80,0.00,,---,0.01,VWS V14.00,2013-01-13 14:48:00,
2013-01-13 08:49:00,24.4,19.1,30.20,NW,319,7.0,11.0,80,0.00,,---,0.01,VWS V14.00,2013-01-13 14:49:00,
2013-01-13 08:50:00,24.5,19.5,30.20,NW,320,6.0,11.0,81,0.00,,---,0.01,VWS V14.00,2013-01-13 14:50:00,
2013-01-13 08:51:00,24.5,19.5,30.22,NNW,338,12.0,14.0,81,0.00,,---,0.01,VWS V14.00,2013-01-13 14:51:00,
2013-01-13 08:52:00,24.4,19.1,30.24,NW,319,9.0,10.0,80,0.00,,---,0.01,VWS V14.00,2013-01-13 14:52:00,
2013-01-13 08:53:00,24.4,19.1,30.23,NNW,334,10.0,10.0,80,0.00,,---,0.01,VWS V14.00,2013-01-13 14:53:00,
2013-01-13 08:54:00,24.4,19.1,30.24,NW,325,9.0,10.0,80,0.00,,---,0.01,VWS V14.00,2013-01-13 14:54:00,
2013-01-13 08:55:00,24.4,19.1,30.24,NW,325,6.0,11.0,80,0.00,,---,0.01,VWS V14.00,2013-01-13 14:55:00,
2013-01-13 08:56:00,24.4,19.1,30.24,NW,324,9.0,11.0,80,0.00,,---,0.01,VWS V14.00,2013-01-13 14:56:00,
2013-01-13 08:57:00,24.4,19.1,30.25,NW,319,4.0,6.0,80,0.00,,---,0.01,VWS V14.00,2013-01-13 14:57:00,
2013-01-13 08:58:00,24.4,19.1,30.25,NNW,332,11.0,14.0,80,0.00,,---,0.01,VWS V14.00,2013-01-13 14:58:00,
2013-01-13 08:59:00,24.4,19.1,30.25,NW,318,6.0,12.0,80,0.00,,---,0.01,VWS V14.00,2013-01-13 14:59:00,
2013-01-13 09:00:00,24.4,19.1,30.25,NW,319,6.0,7.0,80,0.00,,---,0.01,VWS V14.00,2013-01-13 15:00:00,
2013-01-13 09:01:00,24.4,19.1,30.25,NW,319,6.0,10.0,80,0.00,,---,0.01,VWS V14.00,2013-01-13 15:01:00,
2013-01-13 09:02:00,24.4,19.1,30.28,NW,315,9.0,9.0,80,0.00,,---,0.01,VWS V14.00,2013-01-13 15:02:00,
2013-01-13 09:03:00,24.4,19.1,30.27,NW,319,4.0,7.0,80,0.00,,---,0.01,VWS V14.00,2013-01-13 15:03:00,
2013-01-13 09:04:00,24.4,19.1,30.28,NW,319,6.0,6.0,80,0.00,,---,0.01,VWS V14.00,2013-01-13 15:04:00,
2013-01-13 09:05:00,24.4,19.1,30.28,NW,317,10.0,10.0,80,0.00,,---,0.01,VWS V14.00,2013-01-13 15:05:00,
2013-01-13 09:06:00,24.4,19.1,30.27,NW,317,10.0,12.0,80,0.00,,---,0.01,VWS V14.00,2013-01-13 15:06:00,
2013-01-13 09:07:00,24.5,19.2,30.26,NW,325,10.0,11.0,80,0.00,,---,0.01,VWS V14.00,2013-01-13 15:07:00,
2013-01-13 09:08:00,24.4,19.1,30.27,NW,326,9.0,11.0,80,0.00,,---,0.01,VWS V14.00,2013-01-13 15:08:00,
2013-01-13 09:09:00,24.5,19.2,30.26,NNW,327,7.0,11.0,80,0.00,,---,0.01,VWS V14.00,2013-01-13 15:09:00,
2013-01-13 09:10:00,24.5,19.2,30.26,NW,312,8.0,11.0,80,0.00,,---,0.01,VWS V14.00,2013-01-13 15:10:00,
2013-01-13 09:11:00,24.5,19.2,30.26,NW,311,9.0,11.0,80,0.00,,---,0.01,VWS V14.00,2013-01-13 15:11:00,
2013-01-13 09:12:00,24.5,19.2,30.27,NNW,328,6.0,8.0,80,0.00,,---,0.01,VWS V14.00,2013-01-13 15:12:00,
2013-01-13 09:13:00,24.5,19.2,30.27,NNW,329,4.0,9.0,80,0.00,,---,0.01,VWS V14.00,2013-01-13 15:13:00,
2013-01-13 09:14:00,24.5,19.2,30.27,NNW,329,8.0,9.0,80,0.00,,---,0.01,VWS V14.00,2013-01-13 15:14:00,
2013-01-13 09:15:00,24.7,19.7,30.27,NW,323,5.0,11.0,81,0.00,,---,0.01,VWS V14.00,2013-01-13 15:15:00,
2013-01-13 09:16:00,24.7,19.4,30.27,NW,319,10.0,11.0,80,0.00,,---,0.01,VWS V14.00,2013-01-13 15:16:00,
2013-01-13 09:17:00,24.7,19.4,30.25,NW,326,10.0,11.0,80,0.00,,---,0.01,VWS V14.00,2013-01-13 15:17:00,
2013-01-13 09:18:00,24.7,19.4,30.25,NW,319,12.0,12.0,80,0.00,,---,0.01,VWS V14.00,2013-01-13 15:18:00,
2013-01-13 09:19:00,24.7,19.4,30.25,NW,321,9.0,12.0,80,0.00,,---,0.01,VWS V14.00,2013-01-13 15:19:00,
2013-01-13 09:20:00,24.7,19.4,30.26,NNW,332,6.0,11.0,80,0.00,,---,0.01,VWS V14.00,2013-01-13 15:20:00,
2013-01-13 09:21:00,24.7,19.1,30.26,NNW,333,5.0,9.0,79,0.00,,---,0.01,VWS V14.00,2013-01-13 15:21:00,
2013-01-13 09:22:00,24.7,19.1,30.25,NW,319,7.0,10.0,79,0.00,,---,0.01,VWS V14.00,2013-01-13 15:22:00,
2013-01-13 09:23:00,24.7,19.4,30.25,NW,314,9.0,11.0,80,0.00,,---,0.01,VWS V14.00,2013-01-13 15:23:00,
2013-01-13 09:24:00,24.7,19.1,30.25,NW,318,10.0,10.0,79,0.00,,---,0.01,VWS V14.00,2013-01-13 15:24:00,
2013-01-13 09:25:00,24.5,18.9,30.25,NW,319,8.0,10.0,79,0.00,,---,0.01,VWS V14.00,2013-01-13 15:25:00,
2013-01-13 09:26:00,24.5,19.2,30.25,NNW,336,11.0,12.0,80,0.00,,---,0.01,VWS V14.00,2013-01-13 15:26:00,
2013-01-13 09:27:00,24.7,19.7,30.24,NW,324,12.0,12.0,81,0.00,,---,0.01,VWS V14.00,2013-01-13 15:27:00,
2013-01-13 09:28:00,24.5,19.2,30.24,NNW,340,10.0,13.0,80,0.00,,---,0.01,VWS V14.00,2013-01-13 15:28:00,
2013-01-13 09:29:00,24.5,19.5,30.24,NNW,329,7.0,11.0,81,0.00,,---,0.01,VWS V14.00,2013-01-13 15:29:00,
2013-01-13 09:30:00,24.7,19.7,30.24,NNW,328,12.0,12.0,81,0.00,,---,0.01,VWS V14.00,2013-01-13 15:30:00,
2013-01-13 09:31:00,24.5,19.2,30.24,NW,323,11.0,14.0,80,0.00,,---,0.01,VWS V14.00,2013-01-13 15:31:00,
2013-01-13 09:32:00,24.4,19.1,30.25,NNW,332,12.0,14.0,80,0.00,,---,0.01,VWS V14.00,2013-01-13 15:32:00,
2013-01-13 09:33:00,24.5,19.2,30.25,NW,313,13.0,13.0,80,0.00,,---,0.01,VWS V14.00,2013-01-13 15:33:00,
2013-01-13 09:34:00,24.4,19.1,30.25,NNW,334,14.0,15.0,80,0.00,,---,0.01,VWS V14.00,2013-01-13 15:34:00,
2013-01-13 09:35:00,24.4,19.1,30.25,NNW,332,10.0,14.0,80,0.00,,---,0.01,VWS V14.00,2013-01-13 15:35:00,
2013-01-13 09:36:00,24.2,19.2,30.25,NNW,328,11.0,11.0,81,0.00,,---,0.01,VWS V14.00,2013-01-13 15:36:00,
2013-01-13 09:37:00,24.2,19.2,30.24,NNW,338,13.0,13.0,81,0.00,,---,0.01,VWS V14.00,2013-01-13 15:37:00,
2013-01-13 09:38:00,24.2,18.9,30.24,NNW,339,9.0,14.0,80,0.00,,---,0.01,VWS V14.00,2013-01-13 15:38:00,
2013-01-13 09:39:00,24.2,18.9,30.24,NNW,342,12.0,13.0,80,0.00,,---,0.01,VWS V14.00,2013-01-13 15:39:00,
2013-01-13 09:40:00,24.2,19.2,30.24,NW,317,11.0,16.0,81,0.00,,---,0.01,VWS V14.00,2013-01-13 15:40:00,
2013-01-13 09:41:00,24.2,18.9,30.24,NNW,343,12.0,15.0,80,0.00,,---,0.01,VWS V14.00,2013-01-13 15:41:00,
2013-01-13 09:42:00,24.1,18.8,30.24,NW,318,12.0,13.0,80,0.00,,---,0.01,VWS V14.00,2013-01-13 15:42:00,
2013-01-13 09:43:00,24.2,19.5,30.25,NW,323,10.0,13.0,82,0.00,,---,0.01,VWS V14.00,2013-01-13 15:43:00,
2013-01-13 09:44:00,24.1,18.8,30.25,NW,323,11.0,14.0,80,0.00,,---,0.01,VWS V14.00,2013-01-13 15:44:00,
2013-01-13 09:45:00,24.1,18.8,30.24,NNW,329,12.0,13.0,80,0.00,,---,0.01,VWS V14.00,2013-01-13 15:45:00,
2013-01-13 09:46:00,24.1,18.8,30.25,NW,316,12.0,16.0,80,0.00,,---,0.01,VWS V14.00,2013-01-13 15:46:00,
2013-01-13 09:47:00,24.1,19.1,30.25,NW,320,13.0,14.0,81,0.00,,---,0.01,VWS V14.00,2013-01-13 15:47:00,
2013-01-13 09:48:00,24.1,19.1,30.25,NNW,328,10.0,11.0,81,0.00,,---,0.01,VWS V14.00,2013-01-13 15:48:00,
2013-01-13 09:49:00,24.1,19.1,30.25,NW,321,10.0,13.0,81,0.00,,---,0.01,VWS V14.00,2013-01-13 15:49:00,
2013-01-13 09:50:00,24.1,19.1,30.25,NW,315,12.0,14.0,81,0.00,,---,0.01,VWS V14.00,2013-01-13 15:50:00,
2013-01-13 09:51:00,24.2,19.2,30.25,NW,326,11.0,12.0,81,0.00,,---,0.01,VWS V14.00,2013-01-13 15:51:00,
2013-01-13 09:52:00,24.1,18.8,30.25,NNW,330,12.0,15.0,80,0.00,,---,0.01,VWS V14.00,2013-01-13 15:52:00,
2013-01-13 09:53:00,24.1,18.8,30.25,NNW,331,12.0,14.0,80,0.00,,---,0.01,VWS V14.00,2013-01-13 15:53:00,
2013-01-13 09:54:00,24.1,18.8,30.25,NW,313,7.0,13.0,80,0.00,,---,0.01,VWS V14.00,2013-01-13 15:54:00,
2013-01-13 09:55:00,24.1,18.8,30.25,NW,319,13.0,15.0,80,0.00,,---,0.01,VWS V14.00,2013-01-13 15:55:00,
2013-01-13 09:56:00,24.1,18.8,30.25,NW,323,13.0,14.0,80,0.00,,---,0.01,VWS V14.00,2013-01-13 15:56:00,
2013-01-13 09:57:00,23.9,18.6,30.26,NW,309,7.0,8.0,80,0.00,,---,0.01,VWS V14.00,2013-01-13 15:57:00,
2013-01-13 09:58:00,23.9,18.6,30.26,NW,317,10.0,13.0,80,0.00,,---,0.01,VWS V14.00,2013-01-13 15:58:00,
2013-01-13 09:59:00,23.9,18.9,30.26,NW,309,6.0,12.0,81,0.00,,---,0.01,VWS V14.00,2013-01-13 15:59:00,
2013-01-13 10:00:00,23.9,18.6,30.26,NW,320,13.0,13.0,80,0.00,,---,0.01,VWS V14.00,2013-01-13 16:00:00,
2013-01-13 10:01:00,23.9,18.6,30.27,NW,317,9.0,13.0,80,0.00,,---,0.01,VWS V14.00,2013-01-13 16:01:00,
2013-01-13 10:02:00,23.9,18.9,30.27,NW,319,11.0,13.0,81,0.00,,---,0.01,VWS V14.00,2013-01-13 16:02:00,
2013-01-13 10:03:00,23.9,18.6,30.27,NW,312,13.0,13.0,80,0.00,,---,0.01,VWS V14.00,2013-01-13 16:03:00,
2013-01-13 10:04:00,23.9,18.6,30.27,NW,318,9.0,13.0,80,0.00,,---,0.01,VWS V14.00,2013-01-13 16:04:00,
2013-01-13 10:05:00,23.9,18.9,30.26,NNW,340,15.0,15.0,81,0.00,,---,0.01,VWS V14.00,2013-01-13 16:05:00,
2013-01-13 10:06:00,23.9,18.6,30.26,North,349,12.0,15.0,80,0.00,,---,0.01,VWS V14.00,2013-01-13 16:06:00,
2013-01-13 10:07:00,23.8,18.5,30.26,NNW,330,13.0,15.0,80,0.00,,---,0.01,VWS V14.00,2013-01-13 16:07:00,
2013-01-13 10:08:00,23.9,18.6,30.26,NNW,327,13.0,14.0,80,0.00,,---,0.01,VWS V14.00,2013-01-13 16:08:00,
2013-01-13 10:09:00,23.8,18.5,30.26,NW,316,14.0,16.0,80,0.00,,---,0.01,VWS V14.00,2013-01-13 16:09:00,
2013-01-13 10:10:00,23.8,18.5,30.26,NNW,331,13.0,15.0,80,0.00,,---,0.01,VWS V14.00,2013-01-13 16:10:00,
2013-01-13 10:11:00,23.8,18.5,30.26,NW,319,12.0,13.0,80,0.00,,---,0.01,VWS V14.00,2013-01-13 16:11:00,
2013-01-13 10:12:00,23.8,18.5,30.26,NW,323,9.0,11.0,80,0.00,,---,0.01,VWS V14.00,2013-01-13 16:12:00,
2013-01-13 10:13:00,23.8,18.5,30.26,NNW,329,4.0,14.0,80,0.00,,---,0.01,VWS V14.00,2013-01-13 16:13:00,
2013-01-13 10:14:00,23.8,18.5,30.26,NW,324,7.0,11.0,80,0.00,,---,0.01,VWS V14.00,2013-01-13 16:14:00,
2013-01-13 10:15:00,23.8,18.8,30.26,WNW,302,10.0,13.0,81,0.00,,---,0.01,VWS V14.00,2013-01-13 16:15:00,
2013-01-13 10:16:00,23.8,18.5,30.26,NW,312,9.0,11.0,80,0.00,,---,0.01,VWS V14.00,2013-01-13 16:16:00,
2013-01-13 10:17:00,23.9,18.9,30.26,NNW,333,13.0,13.0,81,0.00,,---,0.01,VWS V14.00,2013-01-13 16:17:00,
2013-01-13 10:18:00,23.8,18.5,30.26,NW,317,3.0,10.0,80,0.00,,---,0.01,VWS V14.00,2013-01-13 16:18:00,
2013-01-13 10:19:00,23.8,18.8,30.26,NW,325,8.0,10.0,81,0.00,,---,0.01,VWS V14.00,2013-01-13 16:19:00,
2013-01-13 10:20:00,23.9,18.9,30.27,NNW,339,11.0,13.0,81,0.00,,---,0.01,VWS V14.00,2013-01-13 16:20:00,
2013-01-13 10:21:00,23.8,18.5,30.27,NNW,338,11.0,12.0,80,0.00,,---,0.01,VWS V14.00,2013-01-13 16:21:00,
2013-01-13 10:22:00,23.8,18.5,30.27,NW,324,6.0,11.0,80,0.00,,---,0.01,VWS V14.00,2013-01-13 16:22:00,
2013-01-13 10:23:00,23.8,18.5,30.27,NW,323,9.0,11.0,80,0.00,,---,0.01,VWS V14.00,2013-01-13 16:23:00,
2013-01-13 10:24:00,23.8,18.5,30.27,NW,323,11.0,13.0,80,0.00,,---,0.01,VWS V14.00,2013-01-13 16:24:00,
2013-01-13 10:25:00,23.8,18.5,30.28,NW,326,9.0,11.0,80,0.00,,---,0.01,VWS V14.00,2013-01-13 16:25:00,
2013-01-13 10:26:00,23.9,18.6,30.28,NW,321,12.0,12.0,80,0.00,,---,0.01,VWS V14.00,2013-01-13 16:26:00,
2013-01-13 10:27:00,23.9,18.4,30.28,NNW,346,6.0,9.0,79,0.00,,---,0.01,VWS V14.00,2013-01-13 16:27:00,
2013-01-13 10:28:00,23.9,18.6,30.28,NW,325,9.0,10.0,80,0.00,,---,0.01,VWS V14.00,2013-01-13 16:28:00,
2013-01-13 10:29:00,23.9,18.4,30.28,North,355,5.0,10.0,79,0.00,,---,0.01,VWS V14.00,2013-01-13 16:29:00,
2013-01-13 10:30:00,23.9,18.6,30.28,NNW,346,2.0,9.0,80,0.00,,---,0.01,VWS V14.00,2013-01-13 16:30:00,
2013-01-13 10:31:00,23.9,18.6,30.27,NNW,346,2.0,3.0,80,0.00,,---,0.01,VWS V14.00,2013-01-13 16:31:00,
2013-01-13 10:32:00,23.9,18.4,30.27,NNW,334,3.0,7.0,79,0.00,,---,0.01,VWS V14.00,2013-01-13 16:32:00,
2013-01-13 10:33:00,24.1,18.8,30.27,NNW,337,10.0,10.0,80,0.00,,---,0.01,VWS V14.00,2013-01-13 16:33:00,
2013-01-13 10:34:00,23.9,18.6,30.27,NNW,334,7.0,11.0,80,0.00,,---,0.01,VWS V14.00,2013-01-13 16:34:00,
2013-01-13 10:35:00,24.1,18.8,30.27,NNW,334,6.0,7.0,80,0.00,,---,0.01,VWS V14.00,2013-01-13 16:35:00,
2013-01-13 10:36:00,24.1,18.8,30.27,NNW,336,7.0,8.0,80,0.00,,---,0.01,VWS V14.00,2013-01-13 16:36:00,
2013-01-13 10:37:00,24.1,18.8,30.27,NNW,328,10.0,10.0,80,0.00,,---,0.01,VWS V14.00,2013-01-13 16:37:00,
2013-01-13 10:38:00,24.1,18.5,30.27,NNW,346,3.0,7.0,79,0.00,,---,0.01,VWS V14.00,2013-01-13 16:38:00,
2013-01-13 10:39:00,24.1,18.8,30.27,NNW,332,7.0,7.0,80,0.00,,---,0.01,VWS V14.00,2013-01-13 16:39:00,
2013-01-13 10:40:00,24.1,18.8,30.27,NNW,329,11.0,11.0,80,0.00,,---,0.01,VWS V14.00,2013-01-13 16:40:00,
2013-01-13 10:41:00,24.1,18.8,30.27,NNW,329,10.0,12.0,80,0.00,,---,0.01,VWS V14.00,2013-01-13 16:41:00,
2013-01-13 10:42:00,24.1,18.8,30.26,NNW,342,6.0,7.0,80,0.00,,---,0.01,VWS V14.00,2013-01-13 16:42:00,
2013-01-13 10:43:00,24.1,18.8,30.26,NNW,345,5.0,11.0,80,0.00,,---,0.01,VWS V14.00,2013-01-13 16:43:00,
2013-01-13 10:44:00,24.1,18.8,30.26,NNW,346,7.0,10.0,80,0.00,,---,0.01,VWS V14.00,2013-01-13 16:44:00,
2013-01-13 10:45:00,24.2,18.9,30.26,NNW,335,10.0,11.0,80,0.00,,---,0.01,VWS V14.00,2013-01-13 16:45:00,
2013-01-13 10:46:00,24.2,18.9,30.27,NNW,333,10.0,11.0,80,0.00,,---,0.01,VWS V14.00,2013-01-13 16:46:00,
2013-01-13 10:47:00,24.2,18.9,30.27,NW,319,5.0,9.0,80,0.00,,---,0.01,VWS V14.00,2013-01-13 16:47:00,
2013-01-13 10:48:00,24.2,18.9,30.27,NNW,331,6.0,10.0,80,0.00,,---,0.01,VWS V14.00,2013-01-13 16:48:00,
2013-01-13 10:49:00,24.2,18.9,30.27,NW,320,7.0,9.0,80,0.00,,---,0.01,VWS V14.00,2013-01-13 16:49:00,
2013-01-13 10:50:00,24.4,19.4,30.27,NW,319,8.0,10.0,81,0.00,,---,0.01,VWS V14.00,2013-01-13 16:50:00,
2013-01-13 10:51:00,24.4,19.4,30.27,NW,313,12.0,12.0,81,0.00,,---,0.01,VWS V14.00,2013-01-13 16:51:00,
2013-01-13 10:52:00,24.2,18.9,30.27,NNW,330,9.0,9.0,80,0.00,,---,0.01,VWS V14.00,2013-01-13 16:52:00,
2013-01-13 10:53:00,24.2,18.9,30.27,WNW,302,7.0,12.0,80,0.00,,---,0.01,VWS V14.00,2013-01-13 16:53:00,
2013-01-13 10:54:00,24.2,18.9,30.27,NNW,331,8.0,12.0,80,0.00,,---,0.01,VWS V14.00,2013-01-13 16:54:00,
2013-01-13 10:55:00,24.2,18.9,30.27,NW,319,6.0,10.0,80,0.00,,---,0.01,VWS V14.00,2013-01-13 16:55:00,
2013-01-13 10:56:00,24.2,18.9,30.27,NW,323,11.0,12.0,80,0.00,,---,0.01,VWS V14.00,2013-01-13 16:56:00,
2013-01-13 10:57:00,24.2,18.9,30.27,NNW,329,9.0,10.0,80,0.00,,---,0.01,VWS V14.00,2013-01-13 16:57:00,
2013-01-13 10:58:00,24.2,18.9,30.27,NW,315,8.0,11.0,80,0.00,,---,0.01,VWS V14.00,2013-01-13 16:58:00,
2013-01-13 10:59:00,24.2,18.9,30.27,NNW,327,10.0,12.0,80,0.00,,---,0.01,VWS V14.00,2013-01-13 16:59:00,
2013-01-13 11:00:00,24.2,18.6,30.27,NW,324,9.0,10.0,79,0.00,,---,0.01,VWS V14.00,2013-01-13 17:00:00,
2013-01-13 11:01:00,24.1,18.5,30.27,NW,321,8.0,10.0,79,0.00,,---,0.01,VWS V14.00,2013-01-13 17:01:00,
2013-01-13 11:02:00,24.1,18.5,30.27,NW,318,6.0,9.0,79,0.00,,---,0.01,VWS V14.00,2013-01-13 17:02:00,
2013-01-13 11:03:00,24.1,18.5,30.27,NW,319,7.0,9.0,79,0.00,,---,0.01,VWS V14.00,2013-01-13 17:03:00,
2013-01-13 11:04:00,24.1,18.5,30.27,NW,318,9.0,10.0,79,0.00,,---,0.01,VWS V14.00,2013-01-13 17:04:00,
2013-01-13 11:05:00,24.1,18.5,30.27,NW,321,4.0,12.0,79,0.00,,---,0.01,VWS V14.00,2013-01-13 17:05:00,
2013-01-13 11:06:00,24.1,18.5,30.27,NW,321,7.0,10.0,79,0.00,,---,0.01,VWS V14.00,2013-01-13 17:06:00,
2013-01-13 11:07:00,24.2,18.6,30.27,NW,315,8.0,8.0,79,0.00,,---,0.01,VWS V14.00,2013-01-13 17:07:00,
2013-01-13 11:08:00,24.2,18.6,30.27,NW,321,5.0,9.0,79,0.00,,---,0.01,VWS V14.00,2013-01-13 17:08:00,
2013-01-13 11:09:00,24.2,18.6,30.27,NW,315,7.0,11.0,79,0.00,,---,0.01,VWS V14.00,2013-01-13 17:09:00,
2013-01-13 11:10:00,24.2,18.6,30.27,NW,315,6.0,9.0,79,0.00,,---,0.01,VWS V14.00,2013-01-13 17:10:00,
2013-01-13 11:11:00,24.4,18.8,30.27,NW,315,10.0,12.0,79,0.00,,---,0.01,VWS V14.00,2013-01-13 17:11:00,
2013-01-13 11:12:00,24.4,18.8,30.27,NNW,339,9.0,10.0,79,0.00,,---,0.01,VWS V14.00,2013-01-13 17:12:00,
2013-01-13 11:13:00,24.4,18.8,30.27,NNW,327,10.0,10.0,79,0.00,,---,0.01,VWS V14.00,2013-01-13 17:13:00,
2013-01-13 11:14:00,24.4,18.8,30.27,NNW,340,10.0,12.0,79,0.00,,---,0.01,VWS V14.00,2013-01-13 17:14:00,
2013-01-13 11:15:00,24.5,18.9,30.27,NNW,338,10.0,10.0,79,0.00,,---,0.01,VWS V14.00,2013-01-13 17:15:00,
2013-01-13 11:16:00,24.5,18.9,30.27,NNW,330,11.0,14.0,79,0.00,,---,0.01,VWS V14.00,2013-01-13 17:16:00,
2013-01-13 11:17:00,24.7,19.1,30.27,NW,314,11.0,11.0,79,0.00,,---,0.01,VWS V14.00,2013-01-13 17:17:00,
2013-01-13 11:18:00,24.5,18.9,30.27,NNW,330,8.0,13.0,79,0.00,,---,0.01,VWS V14.00,2013-01-13 17:18:00,
2013-01-13 11:19:00,24.7,19.1,30.27,NW,314,10.0,12.0,79,0.00,,---,0.01,VWS V14.00,2013-01-13 17:19:00,
2013-01-13 11:20:00,24.7,19.1,30.27,NNW,329,9.0,12.0,79,0.00,,---,0.01,VWS V14.00,2013-01-13 17:20:00,
2013-01-13 11:21:00,24.7,19.1,30.26,NNW,329,6.0,10.0,79,0.00,,---,0.01,VWS V14.00,2013-01-13 17:21:00,
2013-01-13 11:22:00,24.8,19.2,30.26,NNW,344,5.0,8.0,79,0.00,,---,0.01,VWS V14.00,2013-01-13 17:22:00,
2013-01-13 11:23:00,24.7,19.1,30.26,WNW,303,7.0,10.0,79,0.00,,---,0.01,VWS V14.00,2013-01-13 17:23:00,
2013-01-13 11:24:00,24.8,19.2,30.26,NNW,344,6.0,11.0,79,0.00,,---,0.01,VWS V14.00,2013-01-13 17:24:00,
2013-01-13 11:25:00,24.8,19.2,30.26,NNW,336,11.0,14.0,79,0.00,,---,0.01,VWS V14.00,2013-01-13 17:25:00,
2013-01-13 11:26:00,25.0,19.4,30.26,NW,325,9.0,13.0,79,0.00,,---,0.01,VWS V14.00,2013-01-13 17:26:00,
2013-01-13 11:27:00,25.0,19.1,30.26,NNW,329,11.0,13.0,78,0.00,,---,0.01,VWS V14.00,2013-01-13 17:27:00,
2013-01-13 11:28:00,25.0,19.1,30.26,NNW,331,8.0,10.0,78,0.00,,---,0.01,VWS V14.00,2013-01-13 17:28:00,
2013-01-13 11:29:00,25.0,19.1,30.26,NNW,337,13.0,13.0,78,0.00,,---,0.01,VWS V14.00,2013-01-13 17:29:00,
2013-01-13 11:30:00,25.0,19.1,30.26,NW,323,10.0,13.0,78,0.00,,---,0.01,VWS V14.00,2013-01-13 17:30:00,
2013-01-13 11:31:00,25.0,19.4,30.26,WNW,302,7.0,10.0,79,0.00,,---,0.01,VWS V14.00,2013-01-13 17:31:00,
2013-01-13 11:32:00,25.1,19.5,30.26,WNW,301,11.0,12.0,79,0.00,,---,0.01,VWS V14.00,2013-01-13 17:32:00,
2013-01-13 11:33:00,25.1,19.5,30.26,WNW,298,1.0,10.0,79,0.00,,---,0.01,VWS V14.00,2013-01-13 17:33:00,
2013-01-13 11:34:00,25.1,19.5,30.26,NW,304,10.0,11.0,79,0.00,,---,0.01,VWS V14.00,2013-01-13 17:34:00,
2013-01-13 11:35:00,25.1,19.5,30.27,WNW,300,6.0,12.0,79,0.00,,---,0.01,VWS V14.00,2013-01-13 17:35:00,
2013-01-13 11:36:00,25.1,19.2,30.27,NW,315,10.0,11.0,78,0.00,,---,0.01,VWS V14.00,2013-01-13 17:36:00,
2013-01-13 11:37:00,25.1,19.5,30.27,NW,326,10.0,12.0,79,0.00,,---,0.01,VWS V14.00,2013-01-13 17:37:00,
2013-01-13 11:38:00,25.1,19.5,30.26,NW,315,6.0,10.0,79,0.00,,---,0.01,VWS V14.00,2013-01-13 17:38:00,
2013-01-13 11:39:00,25.1,19.5,30.27,NNW,327,9.0,10.0,79,0.00,,---,0.01,VWS V14.00,2013-01-13 17:39:00,
2013-01-13 11:40:00,25.3,19.7,30.27,WNW,288,11.0,14.0,79,0.00,,---,0.01,VWS V14.00,2013-01-13 17:40:00,
2013-01-13 11:41:00,25.1,19.2,30.27,NW,305,9.0,14.0,78,0.00,,---,0.01,VWS V14.00,2013-01-13 17:41:00,
2013-01-13 11:42:00,25.0,19.1,30.27,NW,308,9.0,9.0,78,0.00,,---,0.01,VWS V14.00,2013-01-13 17:42:00,
2013-01-13 11:43:00,25.0,19.1,30.27,NW,313,7.0,11.0,78,0.00,,---,0.01,VWS V14.00,2013-01-13 17:43:00,
2013-01-13 11:44:00,25.0,19.1,30.27,NW,309,7.0,10.0,78,0.00,,---,0.01,VWS V14.00,2013-01-13 17:44:00,
2013-01-13 11:45:00,25.0,18.8,30.27,WNW,298,7.0,13.0,77,0.00,,---,0.01,VWS V14.00,2013-01-13 17:45:00,
2013-01-13 11:46:00,24.8,18.9,30.26,WNW,298,6.0,7.0,78,0.00,,---,0.01,VWS V14.00,2013-01-13 17:46:00,
2013-01-13 11:47:00,25.0,19.1,30.26,NW,313,4.0,5.0,78,0.00,,---,0.01,VWS V14.00,2013-01-13 17:47:00,
2013-01-13 11:48:00,25.0,19.1,30.26,NW,317,8.0,12.0,78,0.00,,---,0.01,VWS V14.00,2013-01-13 17:48:00,
2013-01-13 11:49:00,24.8,18.9,30.26,NW,313,5.0,9.0,78,0.00,,---,0.01,VWS V14.00,2013-01-13 17:49:00,
2013-01-13 11:50:00,25.0,19.1,30.26,NW,312,9.0,11.0,78,0.00,,---,0.01,VWS V14.00,2013-01-13 17:50:00,
2013-01-13 11:51:00,25.0,19.1,30.26,NW,313,9.0,11.0,78,0.00,,---,0.01,VWS V14.00,2013-01-13 17:51:00,
2013-01-13 11:52:00,25.0,19.1,30.27,NW,324,5.0,5.0,78,0.00,,---,0.01,VWS V14.00,2013-01-13 17:52:00,
2013-01-13 11:53:00,25.0,18.8,30.27,NNW,328,5.0,12.0,77,0.00,,---,0.01,VWS V14.00,2013-01-13 17:53:00,
2013-01-13 11:54:00,25.0,19.1,30.27,NW,324,4.0,11.0,78,0.00,,---,0.01,VWS V14.00,2013-01-13 17:54:00,
2013-01-13 11:55:00,25.0,19.1,30.27,NW,317,5.0,9.0,78,0.00,,---,0.01,VWS V14.00,2013-01-13 17:55:00,
2013-01-13 11:56:00,25.0,19.1,30.27,NW,317,6.0,7.0,78,0.00,,---,0.01,VWS V14.00,2013-01-13 17:56:00,
2013-01-13 11:57:00,25.1,19.2,30.26,NW,304,7.0,9.0,78,0.00,,---,0.01,VWS V14.00,2013-01-13 17:57:00,
2013-01-13 11:58:00,25.1,19.2,30.27,NW,306,6.0,11.0,78,0.00,,---,0.01,VWS V14.00,2013-01-13 17:58:00,
2013-01-13 11:59:00,25.1,19.2,30.26,NW,304,7.0,10.0,78,0.00,,---,0.01,VWS V14.00,2013-01-13 17:59:00,
2013-01-13 12:00:00,25.3,19.4,30.26,NW,317,7.0,11.0,78,0.00,,---,0.01,VWS V14.00,2013-01-13 18:00:00,
2013-01-13 12:01:00,25.3,19.4,30.26,NW,318,4.0,9.0,78,0.00,,---,0.01,VWS V14.00,2013-01-13 18:01:00,
2013-01-13 12:02:00,25.3,19.1,30.26,NW,313,6.0,7.0,77,0.00,,---,0.01,VWS V14.00,2013-01-13 18:02:00,
2013-01-13 12:03:00,25.3,19.4,30.26,NW,311,11.0,13.0,78,0.00,,---,0.01,VWS V14.00,2013-01-13 18:03:00,
2013-01-13 12:04:00,25.3,19.1,30.26,NW,311,5.0,11.0,77,0.00,,---,0.01,VWS V14.00,2013-01-13 18:04:00,
2013-01-13 12:05:00,25.3,19.1,30.26,NW,313,6.0,9.0,77,0.00,,---,0.01,VWS V14.00,2013-01-13 18:05:00,
2013-01-13 12:06:00,25.4,19.2,30.26,NW,315,4.0,9.0,77,0.00,,---,0.01,VWS V14.00,2013-01-13 18:06:00,
2013-01-13 12:07:00,25.4,19.2,30.26,NW,319,4.0,5.0,77,0.00,,---,0.01,VWS V14.00,2013-01-13 18:07:00,
2013-01-13 12:08:00,25.4,19.5,30.26,NW,318,5.0,9.0,78,0.00,,---,0.01,VWS V14.00,2013-01-13 18:08:00,
2013-01-13 12:09:00,25.4,19.2,30.26,NW,319,4.0,9.0,77,0.00,,---,0.01,VWS V14.00,2013-01-13 18:09:00,
2013-01-13 12:10:00,25.4,19.2,30.26,NW,317,5.0,6.0,77,0.00,,---,0.01,VWS V14.00,2013-01-13 18:10:00,
2013-01-13 12:11:00,25.6,19.7,30.26,NW,311,7.0,10.0,78,0.00,,---,0.01,VWS V14.00,2013-01-13 18:11:00,
2013-01-13 12:12:00,25.6,19.4,30.26,NW,312,9.0,9.0,77,0.00,,---,0.01,VWS V14.00,2013-01-13 18:12:00,
2013-01-13 12:13:00,25.6,19.4,30.26,NW,311,1.0,7.0,77,0.00,,---,0.01,VWS V14.00,2013-01-13 18:13:00,
2013-01-13 12:14:00,25.6,19.4,30.25,NW,311,7.0,11.0,77,0.00,,---,0.01,VWS V14.00,2013-01-13 18:14:00,
2013-01-13 12:15:00,25.6,19.7,30.26,NNW,335,7.0,11.0,78,0.00,,---,0.01,VWS V14.00,2013-01-13 18:15:00,
2013-01-13 12:16:00,25.6,19.4,30.25,NW,317,10.0,11.0,77,0.00,,---,0.01,VWS V14.00,2013-01-13 18:16:00,
2013-01-13 12:17:00,25.7,19.5,30.26,WNW,300,8.0,11.0,77,0.00,,---,0.01,VWS V14.00,2013-01-13 18:17:00,
2013-01-13 12:18:00,25.7,19.5,30.26,NW,320,9.0,12.0,77,0.00,,---,0.01,VWS V14.00,2013-01-13 18:18:00,
2013-01-13 12:19:00,25.7,19.5,30.26,WNW,299,9.0,13.0,77,0.00,,---,0.01,VWS V14.00,2013-01-13 18:19:00,
2013-01-13 12:20:00,25.6,19.4,30.26,WNW,300,6.0,11.0,77,0.00,,---,0.01,VWS V14.00,2013-01-13 18:20:00,
2013-01-13 12:21:00,25.6,19.1,30.25,WNW,299,2.0,6.0,76,0.00,,---,0.01,VWS V14.00,2013-01-13 18:21:00,
2013-01-13 12:22:00,25.8,19.6,30.25,NW,310,12.0,12.0,77,0.00,,---,0.01,VWS V14.00,2013-01-13 18:22:00,
2013-01-13 12:23:00,25.7,19.5,30.25,NW,317,9.0,10.0,77,0.00,,---,0.01,VWS V14.00,2013-01-13 18:23:00,
2013-01-13 12:24:00,25.8,19.6,30.25,NW,309,12.0,15.0,77,0.00,,---,0.01,VWS V14.00,2013-01-13 18:24:00,
2013-01-13 12:25:00,25.8,19.6,30.25,NW,323,13.0,13.0,77,0.00,,---,0.01,VWS V14.00,2013-01-13 18:25:00,
2013-01-13 12:26:00,25.8,19.3,30.25,NW,319,8.0,13.0,76,0.00,,---,0.01,VWS V14.00,2013-01-13 18:26:00,
2013-01-13 12:27:00,25.8,19.3,30.25,NW,311,17.0,17.0,76,0.00,,---,0.01,VWS V14.00,2013-01-13 18:27:00,
2013-01-13 12:28:00,25.8,19.3,30.25,NNW,330,15.0,15.0,76,0.00,,---,0.01,VWS V14.00,2013-01-13 18:28:00,
2013-01-13 12:29:00,25.8,19.3,30.25,NW,313,13.0,15.0,76,0.00,,---,0.01,VWS V14.00,2013-01-13 18:29:00,
2013-01-13 12:30:00,25.8,19.3,30.25,NNW,333,13.0,17.0,76,0.00,,---,0.01,VWS V14.00,2013-01-13 18:30:00,
2013-01-13 12:31:00,25.8,19.0,30.26,NNW,331,13.0,14.0,75,0.00,,---,0.01,VWS V14.00,2013-01-13 18:31:00,
2013-01-13 12:32:00,25.8,19.3,30.26,NNW,339,9.0,12.0,76,0.00,,---,0.01,VWS V14.00,2013-01-13 18:32:00,
2013-01-13 12:33:00,25.7,18.9,30.26,NNW,340,6.0,10.0,75,0.00,,---,0.01,VWS V14.00,2013-01-13 18:33:00,
2013-01-13 12:34:00,25.8,19.3,30.26,NNW,336,11.0,11.0,76,0.00,,---,0.01,VWS V14.00,2013-01-13 18:34:00,
2013-01-13 12:35:00,25.8,19.3,30.26,NNW,341,9.0,12.0,76,0.00,,---,0.01,VWS V14.00,2013-01-13 18:35:00,
2013-01-13 12:36:00,25.8,19.3,30.26,NNW,336,9.0,10.0,76,0.00,,---,0.01,VWS V14.00,2013-01-13 18:36:00,
2013-01-13 12:37:00,26.0,19.5,30.26,NNW,328,12.0,15.0,76,0.00,,---,0.01,VWS V14.00,2013-01-13 18:37:00,
2013-01-13 12:38:00,26.0,19.5,30.26,NNW,333,10.0,12.0,76,0.00,,---,0.01,VWS V14.00,2013-01-13 18:38:00,
2013-01-13 12:39:00,26.0,19.5,30.26,NNW,328,15.0,15.0,76,0.00,,---,0.01,VWS V14.00,2013-01-13 18:39:00,
2013-01-13 12:40:00,26.0,19.2,30.26,NW,322,9.0,15.0,75,0.00,,---,0.01,VWS V14.00,2013-01-13 18:40:00,
2013-01-13 12:41:00,26.0,19.2,30.26,WNW,302,12.0,15.0,75,0.00,,---,0.01,VWS V14.00,2013-01-13 18:41:00,
2013-01-13 12:42:00,26.0,18.9,30.26,NW,325,6.0,6.0,74,0.00,,---,0.01,VWS V14.00,2013-01-13 18:42:00,
2013-01-13 12:43:00,26.0,19.2,30.27,NW,324,7.0,11.0,75,0.00,,---,0.01,VWS V14.00,2013-01-13 18:43:00,
2013-01-13 12:44:00,26.0,18.9,30.26,NW,325,5.0,10.0,74,0.00,,---,0.01,VWS V14.00,2013-01-13 18:44:00,
2013-01-13 12:45:00,26.0,18.9,30.26,NW,319,9.0,11.0,74,0.00,,---,0.01,VWS V14.00,2013-01-13 18:45:00,
2013-01-13 12:46:00,26.1,19.3,30.27,NNW,335,9.0,11.0,75,0.00,,---,0.01,VWS V14.00,2013-01-13 18:46:00,
2013-01-13 12:47:00,26.1,19.3,30.27,NNW,337,17.0,17.0,75,0.00,,---,0.01,VWS V14.00,2013-01-13 18:47:00,
2013-01-13 12:48:00,26.1,19.3,30.27,NW,318,5.0,9.0,75,0.00,,---,0.01,VWS V14.00,2013-01-13 18:48:00,
2013-01-13 12:49:00,26.1,19.3,30.27,NW,321,13.0,14.0,75,0.00,,---,0.01,VWS V14.00,2013-01-13 18:49:00,
2013-01-13 12:50:00,26.3,19.5,30.27,WNW,293,11.0,18.0,75,0.00,,---,0.01,VWS V14.00,2013-01-13 18:50:00,
2013-01-13 12:51:00,26.1,19.0,30.27,NW,321,13.0,14.0,74,0.00,,---,0.01,VWS V14.00,2013-01-13 18:51:00,
2013-01-13 12:52:00,26.1,19.0,30.27,NW,324,10.0,14.0,74,0.00,,---,0.01,VWS V14.00,2013-01-13 18:52:00,
2013-01-13 12:53:00,26.1,19.0,30.27,NNW,333,10.0,14.0,74,0.00,,---,0.01,VWS V14.00,2013-01-13 18:53:00,
2013-01-13 12:54:00,26.1,19.3,30.27,NNW,338,14.0,15.0,75,0.00,,---,0.01,VWS V14.00,2013-01-13 18:54:00,
2013-01-13 12:55:00,26.1,19.3,30.27,NNW,336,10.0,14.0,75,0.00,,---,0.01,VWS V14.00,2013-01-13 18:55:00,
2013-01-13 12:56:00,26.0,18.9,30.27,NW,326,13.0,14.0,74,0.00,,---,0.01,VWS V14.00,2013-01-13 18:56:00,
2013-01-13 12:57:00,25.8,18.7,30.27,NW,315,9.0,11.0,74,0.00,,---,0.01,VWS V14.00,2013-01-13 18:57:00,
2013-01-13 12:58:00,26.0,18.9,30.27,NW,320,11.0,13.0,74,0.00,,---,0.01,VWS V14.00,2013-01-13 18:58:00,
2013-01-13 12:59:00,25.8,18.7,30.27,NW,315,10.0,13.0,74,0.00,,---,0.01,VWS V14.00,2013-01-13 18:59:00,
2013-01-13 13:00:00,25.8,18.7,30.27,NNW,330,13.0,14.0,74,0.00,,---,0.01,VWS V14.00,2013-01-13 19:00:00,
2013-01-13 13:01:00,25.8,18.7,30.28,NNW,338,15.0,17.0,74,0.00,,---,0.01,VWS V14.00,2013-01-13 19:01:00,
2013-01-13 13:02:00,25.7,18.9,30.28,NW,313,14.0,16.0,75,0.00,,---,0.01,VWS V14.00,2013-01-13 19:02:00,
2013-01-13 13:03:00,25.7,18.9,30.28,NNW,339,12.0,13.0,75,0.00,,---,0.01,VWS V14.00,2013-01-13 19:03:00,
2013-01-13 13:04:00,25.7,18.9,30.28,WNW,296,13.0,13.0,75,0.00,,---,0.01,VWS V14.00,2013-01-13 19:04:00,
2013-01-13 13:05:00,25.6,18.5,30.28,NW,312,11.0,16.0,74,0.00,,---,0.01,VWS V14.00,2013-01-13 19:05:00,
2013-01-13 13:06:00,25.6,18.5,30.28,NW,317,10.0,11.0,74,0.00,,---,0.01,VWS V14.00,2013-01-13 19:06:00,
2013-01-13 13:07:00,25.4,18.3,30.28,NW,324,4.0,6.0,74,0.00,,---,0.01,VWS V14.00,2013-01-13 19:07:00,
2013-01-13 13:08:00,25.4,18.3,30.28,NNW,327,13.0,14.0,74,0.00,,---,0.01,VWS V14.00,2013-01-13 19:08:00,
2013-01-13 13:09:00,25.4,18.3,30.28,NW,325,4.0,13.0,74,0.00,,---,0.01,VWS V14.00,2013-01-13 19:09:00,
2013-01-13 13:10:00,25.4,18.6,30.28,NW,316,7.0,14.0,75,0.00,,---,0.01,VWS V14.00,2013-01-13 19:10:00,
2013-01-13 13:11:00,25.4,18.6,30.28,WNW,299,4.0,15.0,75,0.00,,---,0.01,VWS V14.00,2013-01-13 19:11:00,
2013-01-13 13:12:00,25.6,18.8,30.28,NW,310,13.0,13.0,75,0.00,,---,0.01,VWS V14.00,2013-01-13 19:12:00,
2013-01-13 13:13:00,25.4,18.3,30.28,WNW,300,5.0,12.0,74,0.00,,---,0.01,VWS V14.00,2013-01-13 19:13:00,
2013-01-13 13:14:00,25.6,18.8,30.28,NW,310,12.0,12.0,75,0.00,,---,0.01,VWS V14.00,2013-01-13 19:14:00,
2013-01-13 13:15:00,25.6,18.8,30.28,WNW,302,11.0,13.0,75,0.00,,---,0.01,VWS V14.00,2013-01-13 19:15:00,
2013-01-13 13:16:00,25.7,18.6,30.28,NW,318,4.0,11.0,74,0.00,,---,0.01,VWS V14.00,2013-01-13 19:16:00,
2013-01-13 13:17:00,25.7,18.9,30.28,NNW,337,12.0,12.0,75,0.00,,---,0.01,VWS V14.00,2013-01-13 19:17:00,
2013-01-13 13:18:00,25.7,18.3,30.28,NW,310,11.0,13.0,73,0.00,,---,0.01,VWS V14.00,2013-01-13 19:18:00,
2013-01-13 13:19:00,25.7,18.9,30.28,NNW,336,11.0,16.0,75,0.00,,---,0.01,VWS V14.00,2013-01-13 19:19:00,
2013-01-13 13:20:00,25.7,18.3,30.28,NNW,346,15.0,18.0,73,0.00,,---,0.01,VWS V14.00,2013-01-13 19:20:00,
2013-01-13 13:21:00,25.6,17.8,30.28,NNW,344,12.0,16.0,72,0.00,,---,0.01,VWS V14.00,2013-01-13 19:21:00,
2013-01-13 13:22:00,25.4,18.3,30.28,NNW,340,12.0,12.0,74,0.00,,---,0.01,VWS V14.00,2013-01-13 19:22:00,
2013-01-13 13:23:00,25.4,17.6,30.28,NNW,347,10.0,13.0,72,0.00,,---,0.01,VWS V14.00,2013-01-13 19:23:00,
2013-01-13 13:24:00,25.4,18.0,30.28,NNW,340,12.0,14.0,73,0.00,,---,0.01,VWS V14.00,2013-01-13 19:24:00,
2013-01-13 13:25:00,25.4,18.0,30.28,NNW,338,9.0,14.0,73,0.00,,---,0.01,VWS V14.00,2013-01-13 19:25:00,
2013-01-13 13:26:00,25.4,18.0,30.28,NNW,334,6.0,11.0,73,0.00,,---,0.01,VWS V14.00,2013-01-13 19:26:00,
2013-01-13 13:27:00,25.6,18.8,30.28,NW,316,7.0,11.0,75,0.00,,---,0.01,VWS V14.00,2013-01-13 19:27:00,
2013-01-13 13:28:00,25.6,18.5,30.28,NW,310,6.0,12.0,74,0.00,,---,0.01,VWS V14.00,2013-01-13 19:28:00,
2013-01-13 13:29:00,25.6,18.8,30.28,NW,315,11.0,12.0,75,0.00,,---,0.01,VWS V14.00,2013-01-13 19:29:00,
2013-01-13 13:30:00,25.7,18.6,30.28,NW,322,5.0,12.0,74,0.00,,---,0.01,VWS V14.00,2013-01-13 19:30:00,
2013-01-13 13:31:00,25.7,18.3,30.27,NW,319,14.0,14.0,73,0.00,,---,0.01,VWS V14.00,2013-01-13 19:31:00,
2013-01-13 13:32:00,25.7,18.3,30.28,NW,321,5.0,9.0,73,0.00,,---,0.01,VWS V14.00,2013-01-13 19:32:00,
2013-01-13 13:33:00,25.7,18.3,30.28,WNW,298,9.0,15.0,73,0.00,,---,0.01,VWS V14.00,2013-01-13 19:33:00,
2013-01-13 13:34:00,25.7,18.3,30.28,NW,321,9.0,11.0,73,0.00,,---,0.01,VWS V14.00,2013-01-13 19:34:00,
2013-01-13 13:35:00,25.7,18.3,30.28,NW,321,9.0,9.0,73,0.00,,---,0.01,VWS V14.00,2013-01-13 19:35:00,
2013-01-13 13:36:00,25.7,18.3,30.28,NW,306,11.0,11.0,73,0.00,,---,0.01,VWS V14.00,2013-01-13 19:36:00,
2013-01-13 13:37:00,25.8,18.7,30.27,NNW,330,7.0,7.0,74,0.00,,---,0.01,VWS V14.00,2013-01-13 19:37:00,
2013-01-13 13:38:00,25.8,18.7,30.28,NW,320,12.0,15.0,74,0.00,,---,0.01,VWS V14.00,2013-01-13 19:38:00,
2013-01-13 13:39:00,25.8,18.7,30.27,NNW,330,7.0,13.0,74,0.00,,---,0.01,VWS V14.00,2013-01-13 19:39:00,
2013-01-13 13:40:00,26.0,18.9,30.27,NNW,332,13.0,17.0,74,0.00,,---,0.01,VWS V14.00,2013-01-13 19:40:00,
2013-01-13 13:41:00,26.0,18.9,30.28,NW,326,14.0,15.0,74,0.00,,---,0.01,VWS V14.00,2013-01-13 19:41:00,
2013-01-13 13:42:00,26.0,18.2,30.28,NW,320,10.0,14.0,72,0.00,,---,0.01,VWS V14.00,2013-01-13 19:42:00,
2013-01-13 13:43:00,26.0,18.5,30.27,NW,323,11.0,14.0,73,0.00,,---,0.01,VWS V14.00,2013-01-13 19:43:00,
2013-01-13 13:44:00,26.0,18.2,30.28,NW,321,14.0,16.0,72,0.00,,---,0.01,VWS V14.00,2013-01-13 19:44:00,
2013-01-13 13:45:00,26.0,18.2,30.28,NW,310,11.0,14.0,72,0.00,,---,0.01,VWS V14.00,2013-01-13 19:45:00,
2013-01-13 13:46:00,26.0,18.5,30.28,NW,307,9.0,12.0,73,0.00,,---,0.01,VWS V14.00,2013-01-13 19:46:00,
2013-01-13 13:47:00,25.8,18.4,30.28,WNW,302,10.0,13.0,73,0.00,,---,0.01,VWS V14.00,2013-01-13 19:47:00,
2013-01-13 13:48:00,26.0,18.5,30.28,NW,315,7.0,13.0,73,0.00,,---,0.01,VWS V14.00,2013-01-13 19:48:00,
2013-01-13 13:49:00,25.8,18.4,30.28,WNW,296,13.0,14.0,73,0.00,,---,0.01,VWS V14.00,2013-01-13 19:49:00,
2013-01-13 13:50:00,26.0,18.9,30.28,NNW,331,13.0,13.0,74,0.00,,---,0.01,VWS V14.00,2013-01-13 19:50:00,
2013-01-13 13:51:00,26.0,18.9,30.28,NW,313,10.0,14.0,74,0.00,,---,0.01,VWS V14.00,2013-01-13 19:51:00,
2013-01-13 13:52:00,25.8,18.4,30.28,WNW,292,11.0,14.0,73,0.00,,---,0.01,VWS V14.00,2013-01-13 19:52:00,
2013-01-13 13:53:00,25.8,18.4,30.28,NW,317,13.0,13.0,73,0.00,,---,0.01,VWS V14.00,2013-01-13 19:53:00,
2013-01-13 13:54:00,25.8,18.4,30.28,NW,308,14.0,14.0,73,0.00,,---,0.01,VWS V14.00,2013-01-13 19:54:00,
2013-01-13 13:55:00,25.8,18.4,30.28,WNW,296,3.0,14.0,73,0.00,,---,0.01,VWS V14.00,2013-01-13 19:55:00,
2013-01-13 13:56:00,25.7,18.3,30.28,NW,306,2.0,9.0,73,0.00,,---,0.01,VWS V14.00,2013-01-13 19:56:00,
2013-01-13 13:57:00,25.7,18.3,30.29,North,355,12.0,14.0,73,0.00,,---,0.01,VWS V14.00,2013-01-13 19:57:00,
2013-01-13 13:58:00,25.7,18.6,30.28,NNW,335,7.0,11.0,74,0.00,,---,0.01,VWS V14.00,2013-01-13 19:58:00,
2013-01-13 13:59:00,25.7,18.3,30.28,North,355,14.0,15.0,73,0.00,,---,0.01,VWS V14.00,2013-01-13 19:59:00,
2013-01-13 14:00:00,25.7,18.3,30.29,North,350,8.0,16.0,73,0.00,,---,0.01,VWS V14.00,2013-01-13 20:00:00,
2013-01-13 14:01:00,25.7,18.3,30.29,NW,323,11.0,12.0,73,0.00,,---,0.01,VWS V14.00,2013-01-13 20:01:00,
2013-01-13 14:02:00,25.8,19.0,30.29,NW,323,2.0,2.0,75,0.00,,---,0.01,VWS V14.00,2013-01-13 20:02:00,
2013-01-13 14:03:00,25.7,18.3,30.29,NW,322,5.0,7.0,73,0.00,,---,0.01,VWS V14.00,2013-01-13 20:03:00,
2013-01-13 14:04:00,25.8,19.0,30.29,NW,323,2.0,7.0,75,0.00,,---,0.01,VWS V14.00,2013-01-13 20:04:00,
2013-01-13 14:05:00,26.0,18.9,30.29,NW,313,12.0,14.0,74,0.00,,---,0.01,VWS V14.00,2013-01-13 20:05:00,
2013-01-13 14:06:00,26.0,18.5,30.29,NW,305,10.0,12.0,73,0.00,,---,0.01,VWS V14.00,2013-01-13 20:06:00,
2013-01-13 14:07:00,26.0,18.5,30.29,NNW,333,13.0,13.0,73,0.00,,---,0.01,VWS V14.00,2013-01-13 20:07:00,
2013-01-13 14:08:00,26.0,18.5,30.29,NW,313,6.0,13.0,73,0.00,,---,0.01,VWS V14.00,2013-01-13 20:08:00,
2013-01-13 14:09:00,26.0,18.5,30.29,NNW,338,10.0,14.0,73,0.00,,---,0.01,VWS V14.00,2013-01-13 20:09:00,
2013-01-13 14:10:00,26.0,18.2,30.29,NNW,328,9.0,15.0,72,0.00,,---,0.01,VWS V14.00,2013-01-13 20:10:00,
2013-01-13 14:11:00,26.0,18.2,30.29,NW,311,10.0,14.0,72,0.00,,---,0.01,VWS V14.00,2013-01-13 20:11:00,
2013-01-13 14:12:00,25.8,17.7,30.29,WNW,303,10.0,10.0,71,0.00,,---,0.01,VWS V14.00,2013-01-13 20:12:00,
2013-01-13 14:13:00,25.8,17.7,30.29,NW,305,9.0,13.0,71,0.00,,---,0.01,VWS V14.00,2013-01-13 20:13:00,
2013-01-13 14:14:00,25.8,17.7,30.29,WNW,302,9.0,10.0,71,0.00,,---,0.01,VWS V14.00,2013-01-13 20:14:00,
2013-01-13 14:15:00,25.7,17.6,30.29,NNW,339,11.0,14.0,71,0.00,,---,0.01,VWS V14.00,2013-01-13 20:15:00,
2013-01-13 14:16:00,25.7,17.6,30.29,WNW,293,13.0,13.0,71,0.00,,---,0.01,VWS V14.00,2013-01-13 20:16:00,
2013-01-13 14:17:00,26.0,18.5,30.29,NW,311,11.0,11.0,73,0.00,,---,0.01,VWS V14.00,2013-01-13 20:17:00,
2013-01-13 14:18:00,25.8,18.0,30.29,NNW,330,7.0,12.0,72,0.00,,---,0.01,VWS V14.00,2013-01-13 20:18:00,
2013-01-13 14:19:00,26.0,18.5,30.29,NW,311,10.0,13.0,73,0.00,,---,0.01,VWS V14.00,2013-01-13 20:19:00,
2013-01-13 14:20:00,26.0,18.9,30.29,NW,321,10.0,16.0,74,0.00,,---,0.01,VWS V14.00,2013-01-13 20:20:00,
2013-01-13 14:21:00,25.8,17.7,30.29,NNW,328,9.0,11.0,71,0.00,,---,0.01,VWS V14.00,2013-01-13 20:21:00,
2013-01-13 14:22:00,25.8,17.7,30.29,NNW,337,11.0,12.0,71,0.00,,---,0.01,VWS V14.00,2013-01-13 20:22:00,
2013-01-13 14:23:00,25.8,17.7,30.29,NW,315,14.0,16.0,71,0.00,,---,0.01,VWS V14.00,2013-01-13 20:23:00,
2013-01-13 14:24:00,25.8,17.7,30.29,NW,321,11.0,14.0,71,0.00,,---,0.01,VWS V14.00,2013-01-13 20:24:00,
2013-01-13 14:25:00,25.8,17.7,30.29,NW,325,10.0,14.0,71,0.00,,---,0.01,VWS V14.00,2013-01-13 20:25:00,
2013-01-13 14:26:00,25.8,17.7,30.29,NNW,339,14.0,14.0,71,0.00,,---,0.01,VWS V14.00,2013-01-13 20:26:00,
2013-01-13 14:27:00,25.8,17.7,30.30,NW,320,7.0,7.0,71,0.00,,---,0.01,VWS V14.00,2013-01-13 20:27:00,
2013-01-13 14:28:00,25.8,17.7,30.30,NW,325,11.0,12.0,71,0.00,,---,0.01,VWS V14.00,2013-01-13 20:28:00,
2013-01-13 14:29:00,25.8,17.7,30.30,NW,319,7.0,13.0,71,0.00,,---,0.01,VWS V14.00,2013-01-13 20:29:00,
2013-01-13 14:30:00,25.8,17.7,30.30,NW,319,5.0,10.0,71,0.00,,---,0.01,VWS V14.00,2013-01-13 20:30:00,
2013-01-13 14:31:00,26.0,18.2,30.30,NNW,340,9.0,12.0,72,0.00,,---,0.01,VWS V14.00,2013-01-13 20:31:00,
2013-01-13 14:32:00,26.1,18.0,30.30,NW,318,12.0,12.0,71,0.00,,---,0.01,VWS V14.00,2013-01-13 20:32:00,
2013-01-13 14:33:00,26.0,18.2,30.30,NW,308,11.0,12.0,72,0.00,,---,0.01,VWS V14.00,2013-01-13 20:33:00,
2013-01-13 14:34:00,26.1,18.3,30.30,NW,319,9.0,11.0,72,0.00,,---,0.01,VWS V14.00,2013-01-13 20:34:00,
2013-01-13 14:35:00,26.1,18.3,30.30,NW,312,13.0,14.0,72,0.00,,---,0.01,VWS V14.00,2013-01-13 20:35:00,
2013-01-13 14:36:00,26.1,18.0,30.30,NW,311,10.0,13.0,71,0.00,,---,0.01,VWS V14.00,2013-01-13 20:36:00,
2013-01-13 14:37:00,26.0,17.9,30.30,NW,320,12.0,12.0,71,0.00,,---,0.01,VWS V14.00,2013-01-13 20:37:00,
2013-01-13 14:38:00,26.0,17.9,30.30,NW,315,11.0,14.0,71,0.00,,---,0.01,VWS V14.00,2013-01-13 20:38:00,
2013-01-13 14:39:00,26.0,17.9,30.30,NW,319,10.0,14.0,71,0.00,,---,0.01,VWS V14.00,2013-01-13 20:39:00,
2013-01-13 14:40:00,26.0,17.9,30.30,NW,318,9.0,13.0,71,0.00,,---,0.01,VWS V14.00,2013-01-13 20:40:00,
2013-01-13 14:41:00,26.0,17.9,30.30,NW,319,10.0,13.0,71,0.00,,---,0.01,VWS V14.00,2013-01-13 20:41:00,
2013-01-13 14:42:00,26.1,18.0,30.30,WNW,300,9.0,10.0,71,0.00,,---,0.01,VWS V14.00,2013-01-13 20:42:00,
2013-01-13 14:43:00,26.1,18.0,30.30,NW,304,12.0,13.0,71,0.00,,---,0.01,VWS V14.00,2013-01-13 20:43:00,
2013-01-13 14:44:00,26.1,18.0,30.30,WNW,302,10.0,12.0,71,0.00,,---,0.01,VWS V14.00,2013-01-13 20:44:00,
2013-01-13 14:45:00,26.1,17.7,30.30,NW,317,12.0,13.0,70,0.00,,---,0.01,VWS V14.00,2013-01-13 20:45:00,
2013-01-13 14:46:00,26.1,18.0,30.30,NW,314,13.0,13.0,71,0.00,,---,0.01,VWS V14.00,2013-01-13 20:46:00,
2013-01-13 14:47:00,26.1,17.3,30.30,NNW,327,10.0,10.0,69,0.00,,---,0.01,VWS V14.00,2013-01-13 20:47:00,
2013-01-13 14:48:00,26.1,17.7,30.31,WNW,300,15.0,15.0,70,0.00,,---,0.01,VWS V14.00,2013-01-13 20:48:00,
2013-01-13 14:49:00,26.1,17.3,30.30,NNW,337,10.0,15.0,69,0.00,,---,0.01,VWS V14.00,2013-01-13 20:49:00,
2013-01-13 14:50:00,26.1,18.0,30.31,NNW,327,6.0,12.0,71,0.00,,---,0.01,VWS V14.00,2013-01-13 20:50:00,
2013-01-13 14:51:00,26.3,18.2,30.31,NNW,339,7.0,11.0,71,0.00,,---,0.01,VWS V14.00,2013-01-13 20:51:00,
2013-01-13 14:52:00,26.4,18.6,30.31,NNW,340,10.0,11.0,72,0.00,,---,0.01,VWS V14.00,2013-01-13 20:52:00,
2013-01-13 14:53:00,26.3,18.2,30.31,North,350,4.0,16.0,71,0.00,,---,0.01,VWS V14.00,2013-01-13 20:53:00,
2013-01-13 14:54:00,26.4,18.6,30.31,NNW,333,11.0,11.0,72,0.00,,---,0.01,VWS V14.00,2013-01-13 20:54:00,
2013-01-13 14:55:00,26.4,18.6,30.31,NNW,333,7.0,11.0,72,0.00,,---,0.01,VWS V14.00,2013-01-13 20:55:00,
2013-01-13 14:56:00,26.6,18.8,30.31,NNW,334,12.0,12.0,72,0.00,,---,0.01,VWS V14.00,2013-01-13 20:56:00,
2013-01-13 14:57:00,26.4,18.3,30.31,NW,316,10.0,11.0,71,0.00,,---,0.01,VWS V14.00,2013-01-13 20:57:00,
2013-01-13 14:58:00,26.4,18.0,30.31,NW,320,9.0,10.0,70,0.00,,---,0.01,VWS V14.00,2013-01-13 20:58:00,
2013-01-13 14:59:00,26.4,18.3,30.31,NW,317,6.0,10.0,71,0.00,,---,0.01,VWS V14.00,2013-01-13 20:59:00,
2013-01-13 15:00:00,26.4,18.3,30.31,NW,316,8.0,11.0,71,0.00,,---,0.01,VWS V14.00,2013-01-13 21:00:00,
2013-01-13 15:01:00,26.4,18.3,30.31,NW,317,6.0,11.0,71,0.00,,---,0.01,VWS V14.00,2013-01-13 21:01:00,
2013-01-13 15:02:00,26.3,17.9,30.31,NW,306,7.0,9.0,70,0.00,,---,0.01,VWS V14.00,2013-01-13 21:02:00,
2013-01-13 15:03:00,26.3,17.9,30.31,NW,305,7.0,10.0,70,0.00,,---,0.01,VWS V14.00,2013-01-13 21:03:00,
2013-01-13 15:04:00,26.3,17.9,30.31,NW,306,9.0,12.0,70,0.00,,---,0.01,VWS V14.00,2013-01-13 21:04:00,
2013-01-13 15:05:00,26.3,17.9,30.31,NW,306,11.0,11.0,70,0.00,,---,0.01,VWS V14.00,2013-01-13 21:05:00,
2013-01-13 15:06:00,26.3,17.9,30.31,NW,304,5.0,11.0,70,0.00,,---,0.01,VWS V14.00,2013-01-13 21:06:00,
2013-01-13 15:07:00,26.4,18.3,30.31,NNW,343,2.0,6.0,71,0.00,,---,0.01,VWS V14.00,2013-01-13 21:07:00,
2013-01-13 15:08:00,26.4,18.3,30.31,NNW,337,7.0,10.0,71,0.00,,---,0.01,VWS V14.00,2013-01-13 21:08:00,
2013-01-13 15:09:00,26.4,18.3,30.31,NNW,343,6.0,9.0,71,0.00,,---,0.01,VWS V14.00,2013-01-13 21:09:00,
2013-01-13 15:10:00,26.4,18.3,30.31,NNW,344,10.0,11.0,71,0.00,,---,0.01,VWS V14.00,2013-01-13 21:10:00,
2013-01-13 15:11:00,26.4,18.3,30.31,NNW,340,8.0,10.0,71,0.00,,---,0.01,VWS V14.00,2013-01-13 21:11:00,
2013-01-13 15:12:00,26.4,18.6,30.31,NNW,337,6.0,7.0,72,0.00,,---,0.01,VWS V14.00,2013-01-13 21:12:00,
2013-01-13 15:13:00,26.4,18.3,30.31,NNW,336,6.0,11.0,71,0.00,,---,0.01,VWS V14.00,2013-01-13 21:13:00,
2013-01-13 15:14:00,26.4,18.6,30.31,NNW,337,5.0,9.0,72,0.00,,---,0.01,VWS V14.00,2013-01-13 21:14:00,
2013-01-13 15:15:00,26.4,18.0,30.31,NNW,331,8.0,12.0,70,0.00,,---,0.01,VWS V14.00,2013-01-13 21:15:00,
2013-01-13 15:16:00,26.4,18.3,30.31,NNW,331,6.0,8.0,71,0.00,,---,0.01,VWS V14.00,2013-01-13 21:16:00,
2013-01-13 15:17:00,26.3,18.2,30.31,NNW,331,4.0,5.0,71,0.00,,---,0.01,VWS V14.00,2013-01-13 21:17:00,
2013-01-13 15:18:00,26.3,18.2,30.31,NNW,331,4.0,7.0,71,0.00,,---,0.01,VWS V14.00,2013-01-13 21:18:00,
2013-01-13 15:19:00,26.3,18.2,30.31,NNW,331,5.0,9.0,71,0.00,,---,0.01,VWS V14.00,2013-01-13 21:19:00,
2013-01-13 15:20:00,26.3,17.9,30.31,NNW,331,5.0,5.0,70,0.00,,---,0.01,VWS V14.00,2013-01-13 21:20:00,
2013-01-13 15:21:00,26.3,18.2,30.31,NNW,331,6.0,10.0,71,0.00,,---,0.01,VWS V14.00,2013-01-13 21:21:00,
2013-01-13 15:22:00,26.4,18.6,30.32,NW,325,5.0,5.0,72,0.00,,---,0.01,VWS V14.00,2013-01-13 21:22:00,
2013-01-13 15:23:00,26.3,18.5,30.32,NW,325,10.0,10.0,72,0.00,,---,0.01,VWS V14.00,2013-01-13 21:23:00,
2013-01-13 15:24:00,26.4,18.6,30.32,NW,325,4.0,12.0,72,0.00,,---,0.01,VWS V14.00,2013-01-13 21:24:00,
2013-01-13 15:25:00,26.4,18.3,30.32,NNW,333,10.0,12.0,71,0.00,,---,0.01,VWS V14.00,2013-01-13 21:25:00,
2013-01-13 15:26:00,26.4,18.3,30.32,NNW,340,13.0,13.0,71,0.00,,---,0.01,VWS V14.00,2013-01-13 21:26:00,
2013-01-13 15:27:00,26.4,18.3,30.32,North,355,8.0,10.0,71,0.00,,---,0.01,VWS V14.00,2013-01-13 21:27:00,
2013-01-13 15:28:00,26.4,18.3,30.32,NNW,343,9.0,10.0,71,0.00,,---,0.01,VWS V14.00,2013-01-13 21:28:00,
2013-01-13 15:29:00,26.4,18.3,30.32,North,355,10.0,15.0,71,0.00,,---,0.01,VWS V14.00,2013-01-13 21:29:00,
2013-01-13 15:30:00,26.4,18.0,30.32,NNW,329,13.0,13.0,70,0.00,,---,0.01,VWS V14.00,2013-01-13 21:30:00,
2013-01-13 15:31:00,26.4,18.0,30.32,NNW,332,11.0,13.0,70,0.00,,---,0.01,VWS V14.00,2013-01-13 21:31:00,
2013-01-13 15:32:00,26.4,17.6,30.32,NNW,329,4.0,5.0,69,0.00,,---,0.01,VWS V14.00,2013-01-13 21:32:00,
2013-01-13 15:33:00,26.4,17.6,30.32,NNW,330,5.0,11.0,69,0.00,,---,0.01,VWS V14.00,2013-01-13 21:33:00,
2013-01-13 15:34:00,26.4,17.6,30.32,NNW,329,5.0,9.0,69,0.00,,---,0.01,VWS V14.00,2013-01-13 21:34:00,
2013-01-13 15:35:00,26.4,18.3,30.32,NW,326,6.0,9.0,71,0.00,,---,0.01,VWS V14.00,2013-01-13 21:35:00,
2013-01-13 15:36:00,26.4,18.3,30.32,NW,325,6.0,10.0,71,0.00,,---,0.01,VWS V14.00,2013-01-13 21:36:00,
2013-01-13 15:37:00,26.4,18.0,30.32,NW,315,11.0,11.0,70,0.00,,---,0.01,VWS V14.00,2013-01-13 21:37:00,
2013-01-13 15:38:00,26.4,18.0,30.32,NW,318,7.0,12.0,70,0.00,,---,0.01,VWS V14.00,2013-01-13 21:38:00,
2013-01-13 15:39:00,26.4,17.6,30.32,NW,318,11.0,11.0,69,0.00,,---,0.01,VWS V14.00,2013-01-13 21:39:00,
2013-01-13 15:40:00,26.4,18.0,30.32,NW,316,9.0,11.0,70,0.00,,---,0.01,VWS V14.00,2013-01-13 21:40:00,
2013-01-13 15:41:00,26.4,18.0,30.32,NNW,332,9.0,11.0,70,0.00,,---,0.01,VWS V14.00,2013-01-13 21:41:00,
2013-01-13 15:42:00,26.4,18.0,30.32,NNW,331,4.0,8.0,70,0.00,,---,0.01,VWS V14.00,2013-01-13 21:42:00,
2013-01-13 15:43:00,26.4,18.0,30.32,NNW,334,9.0,10.0,70,0.00,,---,0.01,VWS V14.00,2013-01-13 21:43:00,
2013-01-13 15:44:00,26.4,18.0,30.32,NNW,331,8.0,12.0,70,0.00,,---,0.01,VWS V14.00,2013-01-13 21:44:00,
2013-01-13 15:45:00,26.4,18.3,30.32,NNW,329,8.0,9.0,71,0.00,,---,0.01,VWS V14.00,2013-01-13 21:45:00,
2013-01-13 15:46:00,26.6,18.5,30.32,NW,321,8.0,12.0,71,0.00,,---,0.01,VWS V14.00,2013-01-13 21:46:00,
2013-01-13 15:47:00,26.6,18.1,30.32,NNW,343,10.0,10.0,70,0.00,,---,0.01,VWS V14.00,2013-01-13 21:47:00,
2013-01-13 15:48:00,26.6,18.1,30.32,NW,321,7.0,12.0,70,0.00,,---,0.01,VWS V14.00,2013-01-13 21:48:00,
2013-01-13 15:49:00,26.6,18.1,30.32,NNW,343,9.0,15.0,70,0.00,,---,0.01,VWS V14.00,2013-01-13 21:49:00,
2013-01-13 15:50:00,26.6,18.1,30.32,NNW,333,9.0,11.0,70,0.00,,---,0.01,VWS V14.00,2013-01-13 21:50:00,
2013-01-13 15:51:00,26.7,18.6,30.32,NNW,329,7.0,11.0,71,0.00,,---,0.01,VWS V14.00,2013-01-13 21:51:00,
2013-01-13 15:52:00,26.6,18.1,30.32,NNW,327,8.0,9.0,70,0.00,,---,0.01,VWS V14.00,2013-01-13 21:52:00,
2013-01-13 15:53:00,26.6,18.1,30.32,NNW,340,9.0,13.0,70,0.00,,---,0.01,VWS V14.00,2013-01-13 21:53:00,
2013-01-13 15:54:00,26.6,18.1,30.32,NNW,327,9.0,10.0,70,0.00,,---,0.01,VWS V14.00,2013-01-13 21:54:00,
2013-01-13 15:55:00,26.6,18.1,30.32,NW,325,9.0,10.0,70,0.00,,---,0.01,VWS V14.00,2013-01-13 21:55:00,
2013-01-13 15:56:00,26.6,17.8,30.32,NW,325,6.0,10.0,69,0.00,,---,0.01,VWS V14.00,2013-01-13 21:56:00,
2013-01-13 15:57:00,26.6,17.8,30.32,NNW,327,8.0,9.0,69,0.00,,---,0.01,VWS V14.00,2013-01-13 21:57:00,
2013-01-13 15:58:00,26.6,18.1,30.32,NW,326,11.0,12.0,70,0.00,,---,0.01,VWS V14.00,2013-01-13 21:58:00,
2013-01-13 15:59:00,26.6,17.8,30.32,NNW,327,6.0,11.0,69,0.00,,---,0.01,VWS V14.00,2013-01-13 21:59:00,
2013-01-13 16:00:00,26.6,17.8,30.32,NW,326,5.0,9.0,69,0.00,,---,0.01,VWS V14.00,2013-01-13 22:00:00,
2013-01-13 16:01:00,26.4,17.6,30.33,NW,316,10.0,10.0,69,0.00,,---,0.01,VWS V14.00,2013-01-13 22:01:00,
2013-01-13 16:02:00,26.4,18.0,30.33,NNW,327,5.0,7.0,70,0.00,,---,0.01,VWS V14.00,2013-01-13 22:02:00,
2013-01-13 16:03:00,26.4,18.0,30.33,NNW,329,5.0,12.0,70,0.00,,---,0.01,VWS V14.00,2013-01-13 22:03:00,
2013-01-13 16:04:00,26.4,18.0,30.33,NNW,327,6.0,8.0,70,0.00,,---,0.01,VWS V14.00,2013-01-13 22:04:00,
2013-01-13 16:05:00,26.4,18.0,30.33,NNW,333,9.0,11.0,70,0.00,,---,0.01,VWS V14.00,2013-01-13 22:05:00,
2013-01-13 16:06:00,26.6,18.1,30.33,NW,313,11.0,14.0,70,0.00,,---,0.01,VWS V14.00,2013-01-13 22:06:00,
2013-01-13 16:07:00,26.6,18.1,30.32,NW,319,7.0,7.0,70,0.00,,---,0.01,VWS V14.00,2013-01-13 22:07:00,
2013-01-13 16:08:00,26.6,18.1,30.32,NW,321,8.0,10.0,70,0.00,,---,0.01,VWS V14.00,2013-01-13 22:08:00,
2013-01-13 16:09:00,26.6,18.1,30.32,NW,319,6.0,11.0,70,0.00,,---,0.01,VWS V14.00,2013-01-13 22:09:00,
2013-01-13 16:10:00,26.6,18.1,30.32,NW,317,9.0,11.0,70,0.00,,---,0.01,VWS V14.00,2013-01-13 22:10:00,
2013-01-13 16:11:00,26.6,18.1,30.32,NNW,327,5.0,11.0,70,0.00,,---,0.01,VWS V14.00,2013-01-13 22:11:00,
2013-01-13 16:12:00,26.7,18.2,30.32,NW,319,10.0,11.0,70,0.00,,---,0.01,VWS V14.00,2013-01-13 22:12:00,
2013-01-13 16:13:00,26.7,18.2,30.32,NW,321,13.0,13.0,70,0.00,,---,0.01,VWS V14.00,2013-01-13 22:13:00,
2013-01-13 16:14:00,26.7,18.2,30.32,NW,319,11.0,13.0,70,0.00,,---,0.01,VWS V14.00,2013-01-13 22:14:00,
2013-01-13 16:15:00,26.7,17.9,30.32,NW,315,8.0,11.0,69,0.00,,---,0.01,VWS V14.00,2013-01-13 22:15:00,
2013-01-13 16:16:00,26.7,17.9,30.32,NW,315,6.0,10.0,69,0.00,,---,0.01,VWS V14.00,2013-01-13 22:16:00,
2013-01-13 16:17:00,26.6,17.8,30.32,NW,311,6.0,7.0,69,0.00,,---,0.01,VWS V14.00,2013-01-13 22:17:00,
2013-01-13 16:18:00,26.7,17.9,30.32,NW,312,10.0,13.0,69,0.00,,---,0.01,VWS V14.00,2013-01-13 22:18:00,
2013-01-13 16:19:00,26.6,17.8,30.32,NW,311,6.0,11.0,69,0.00,,---,0.01,VWS V14.00,2013-01-13 22:19:00,
2013-01-13 16:20:00,26.6,17.8,30.32,NW,312,10.0,12.0,69,0.00,,---,0.01,VWS V14.00,2013-01-13 22:20:00,
2013-01-13 16:21:00,26.6,17.8,30.32,NW,320,11.0,12.0,69,0.00,,---,0.01,VWS V14.00,2013-01-13 22:21:00,
2013-01-13 16:22:00,26.6,17.8,30.32,NW,321,9.0,10.0,69,0.00,,---,0.01,VWS V14.00,2013-01-13 22:22:00,
2013-01-13 16:23:00,26.6,17.8,30.32,NW,322,12.0,12.0,69,0.00,,---,0.01,VWS V14.00,2013-01-13 22:23:00,
2013-01-13 16:24:00,26.6,17.8,30.32,NW,320,10.0,12.0,69,0.00,,---,0.01,VWS V14.00,2013-01-13 22:24:00,
2013-01-13 16:25:00,26.4,17.6,30.32,NW,320,5.0,10.0,69,0.00,,---,0.01,VWS V14.00,2013-01-13 22:25:00,
2013-01-13 16:26:00,26.4,17.6,30.33,NW,315,8.0,10.0,69,0.00,,---,0.01,VWS V14.00,2013-01-13 22:26:00,
2013-01-13 16:27:00,26.3,17.5,30.33,NW,313,5.0,9.0,69,0.00,,---,0.01,VWS V14.00,2013-01-13 22:27:00,
2013-01-13 16:28:00,26.4,17.6,30.33,NW,312,6.0,10.0,69,0.00,,---,0.01,VWS V14.00,2013-01-13 22:28:00,
2013-01-13 16:29:00,26.3,17.5,30.33,NW,313,9.0,11.0,69,0.00,,---,0.01,VWS V14.00,2013-01-13 22:29:00,
2013-01-13 16:30:00,26.3,17.5,30.33,NW,313,5.0,9.0,69,0.00,,---,0.01,VWS V14.00,2013-01-13 22:30:00,
2013-01-13 16:31:00,26.4,18.0,30.32,NW,306,10.0,11.0,70,0.00,,---,0.01,VWS V14.00,2013-01-13 22:31:00,
2013-01-13 16:32:00,26.4,18.0,30.32,NW,309,10.0,10.0,70,0.00,,---,0.01,VWS V14.00,2013-01-13 22:32:00,
2013-01-13 16:33:00,26.3,17.5,30.32,NW,308,7.0,7.0,69,0.00,,---,0.01,VWS V14.00,2013-01-13 22:33:00,
2013-01-13 16:34:00,26.4,18.0,30.32,NW,309,10.0,10.0,70,0.00,,---,0.01,VWS V14.00,2013-01-13 22:34:00,
2013-01-13 16:35:00,26.4,18.0,30.32,NW,304,11.0,11.0,70,0.00,,---,0.01,VWS V14.00,2013-01-13 22:35:00,
2013-01-13 16:36:00,26.4,17.6,30.33,NW,316,10.0,12.0,69,0.00,,---,0.01,VWS V14.00,2013-01-13 22:36:00,
2013-01-13 16:37:00,26.4,17.6,30.33,NW,313,4.0,6.0,69,0.00,,---,0.01,VWS V14.00,2013-01-13 22:37:00,
2013-01-13 16:38:00,26.4,17.6,30.33,NW,315,8.0,9.0,69,0.00,,---,0.01,VWS V14.00,2013-01-13 22:38:00,
2013-01-13 16:39:00,26.4,17.6,30.33,NW,313,5.0,9.0,69,0.00,,---,0.01,VWS V14.00,2013-01-13 22:39:00,
2013-01-13 16:40:00,26.4,17.6,30.33,NW,313,5.0,9.0,69,0.00,,---,0.01,VWS V14.00,2013-01-13 22:40:00,
2013-01-13 16:41:00,26.4,18.0,30.33,NW,313,7.0,7.0,70,0.00,,---,0.01,VWS V14.00,2013-01-13 22:41:00,
2013-01-13 16:42:00,26.6,18.1,30.32,NW,313,5.0,6.0,70,0.00,,---,0.01,VWS V14.00,2013-01-13 22:42:00,
2013-01-13 16:43:00,26.6,18.1,30.32,NW,313,7.0,9.0,70,0.00,,---,0.01,VWS V14.00,2013-01-13 22:43:00,
2013-01-13 16:44:00,26.6,18.1,30.32,NW,313,6.0,10.0,70,0.00,,---,0.01,VWS V14.00,2013-01-13 22:44:00,
2013-01-13 16:45:00,26.6,17.8,30.32,NW,313,2.0,6.0,69,0.00,,---,0.01,VWS V14.00,2013-01-13 22:45:00,
2013-01-13 16:46:00,26.6,18.1,30.32,NW,313,4.0,5.0,70,0.00,,---,0.01,VWS V14.00,2013-01-13 22:46:00,
2013-01-13 16:47:00,26.7,18.6,30.32,NW,313,6.0,6.0,71,0.00,,---,0.01,VWS V14.00,2013-01-13 22:47:00,
2013-01-13 16:48:00,26.6,18.1,30.32,NW,313,5.0,5.0,70,0.00,,---,0.01,VWS V14.00,2013-01-13 22:48:00,
2013-01-13 16:49:00,26.6,18.5,30.32,NW,313,4.0,7.0,71,0.00,,---,0.01,VWS V14.00,2013-01-13 22:49:00,
2013-01-13 16:50:00,26.7,18.6,30.32,NW,313,6.0,8.0,71,0.00,,---,0.01,VWS V14.00,2013-01-13 22:50:00,
2013-01-13 16:51:00,26.7,18.2,30.32,NW,313,4.0,10.0,70,0.00,,---,0.01,VWS V14.00,2013-01-13 22:51:00,
2013-01-13 16:52:00,26.7,18.2,30.32,NNW,330,8.0,9.0,70,0.00,,---,0.01,VWS V14.00,2013-01-13 22:52:00,
2013-01-13 16:53:00,26.7,17.9,30.32,NNW,332,7.0,12.0,69,0.00,,---,0.01,VWS V14.00,2013-01-13 22:53:00,
2013-01-13 16:54:00,26.7,18.2,30.32,NNW,330,9.0,13.0,70,0.00,,---,0.01,VWS V14.00,2013-01-13 22:54:00,
2013-01-13 16:55:00,26.6,18.1,30.32,NNW,331,9.0,12.0,70,0.00,,---,0.01,VWS V14.00,2013-01-13 22:55:00,
2013-01-13 16:56:00,26.6,17.8,30.32,NNW,331,9.0,11.0,69,0.00,,---,0.01,VWS V14.00,2013-01-13 22:56:00,
2013-01-13 16:57:00,26.6,18.1,30.32,NNW,328,6.0,6.0,70,0.00,,---,0.01,VWS V14.00,2013-01-13 22:57:00,
2013-01-13 16:58:00,26.6,18.1,30.32,NNW,338,6.0,9.0,70,0.00,,---,0.01,VWS V14.00,2013-01-13 22:58:00,
2013-01-13 16:59:00,26.6,18.1,30.32,NNW,329,6.0,9.0,70,0.00,,---,0.01,VWS V14.00,2013-01-13 22:59:00,
2013-01-13 17:00:00,26.6,18.1,30.32,NNW,328,5.0,10.0,70,0.00,,---,0.01,VWS V14.00,2013-01-13 23:00:00,
2013-01-13 17:01:00,26.6,18.1,30.33,NNW,327,8.0,9.0,70,0.00,,---,0.01,VWS V14.00,2013-01-13 23:01:00,
2013-01-13 17:02:00,26.4,17.6,30.33,NNW,330,6.0,6.0,69,0.00,,---,0.01,VWS V14.00,2013-01-13 23:02:00,
2013-01-13 17:03:00,26.4,18.0,30.33,NNW,327,7.0,10.0,70,0.00,,---,0.01,VWS V14.00,2013-01-13 23:03:00,
2013-01-13 17:04:00,26.4,17.6,30.33,NNW,330,6.0,9.0,69,0.00,,---,0.01,VWS V14.00,2013-01-13 23:04:00,
2013-01-13 17:05:00,26.4,18.0,30.33,NNW,330,5.0,7.0,70,0.00,,---,0.01,VWS V14.00,2013-01-13 23:05:00,
2013-01-13 17:06:00,26.4,18.0,30.33,NNW,330,4.0,7.0,70,0.00,,---,0.01,VWS V14.00,2013-01-13 23:06:00,
2013-01-13 17:07:00,26.4,18.0,30.33,NNW,331,7.0,7.0,70,0.00,,---,0.01,VWS V14.00,2013-01-13 23:07:00,
2013-01-13 17:08:00,26.4,18.0,30.33,NNW,331,7.0,10.0,70,0.00,,---,0.01,VWS V14.00,2013-01-13 23:08:00,
2013-01-13 17:09:00,26.4,18.0,30.33,NNW,331,7.0,7.0,70,0.00,,---,0.01,VWS V14.00,2013-01-13 23:09:00,
2013-01-13 17:10:00,26.4,18.0,30.33,NNW,331,6.0,7.0,70,0.00,,---,0.01,VWS V14.00,2013-01-13 23:10:00,
2013-01-13 17:11:00,26.4,18.0,30.33,NNW,331,5.0,8.0,70,0.00,,---,0.01,VWS V14.00,2013-01-13 23:11:00,
2013-01-13 17:12:00,26.4,18.3,30.33,NNW,331,7.0,7.0,71,0.00,,---,0.01,VWS V14.00,2013-01-13 23:12:00,
2013-01-13 17:13:00,26.4,18.3,30.33,NNW,331,7.0,7.0,71,0.00,,---,0.01,VWS V14.00,2013-01-13 23:13:00,
2013-01-13 17:14:00,26.4,18.3,30.33,NNW,331,5.0,7.0,71,0.00,,---,0.01,VWS V14.00,2013-01-13 23:14:00,
2013-01-13 17:15:00,26.3,18.2,30.33,NNW,331,8.0,10.0,71,0.00,,---,0.01,VWS V14.00,2013-01-13 23:15:00,
2013-01-13 17:16:00,26.3,18.2,30.33,NNW,331,6.0,8.0,71,0.00,,---,0.01,VWS V14.00,2013-01-13 23:16:00,
2013-01-13 17:17:00,26.3,18.2,30.33,NNW,331,4.0,4.0,71,0.00,,---,0.01,VWS V14.00,2013-01-13 23:17:00,
2013-01-13 17:18:00,26.3,18.2,30.33,NNW,331,5.0,10.0,71,0.00,,---,0.01,VWS V14.00,2013-01-13 23:18:00,
2013-01-13 17:19:00,26.3,18.2,30.33,NNW,331,4.0,7.0,71,0.00,,---,0.01,VWS V14.00,2013-01-13 23:19:00,
2013-01-13 17:20:00,26.3,18.2,30.33,NNW,331,7.0,7.0,71,0.00,,---,0.01,VWS V14.00,2013-01-13 23:20:00,
2013-01-13 17:21:00,26.3,18.2,30.33,NNW,331,7.0,10.0,71,0.00,,---,0.01,VWS V14.00,2013-01-13 23:21:00,
2013-01-13 17:22:00,26.3,18.2,30.33,NNW,331,5.0,6.0,71,0.00,,---,0.01,VWS V14.00,2013-01-13 23:22:00,
2013-01-13 17:23:00,26.3,18.2,30.33,NNW,331,4.0,9.0,71,0.00,,---,0.01,VWS V14.00,2013-01-13 23:23:00,
2013-01-13 17:24:00,26.3,18.2,30.33,NNW,331,6.0,10.0,71,0.00,,---,0.01,VWS V14.00,2013-01-13 23:24:00,
2013-01-13 17:25:00,26.3,18.2,30.33,NNW,331,5.0,7.0,71,0.00,,---,0.01,VWS V14.00,2013-01-13 23:25:00,
2013-01-13 17:26:00,26.3,18.2,30.33,NNW,330,3.0,6.0,71,0.00,,---,0.01,VWS V14.00,2013-01-13 23:26:00,
2013-01-13 17:27:00,26.3,18.5,30.33,NNW,330,7.0,7.0,72,0.00,,---,0.01,VWS V14.00,2013-01-13 23:27:00,
2013-01-13 17:28:00,26.3,18.2,30.33,NNW,331,4.0,6.0,71,0.00,,---,0.01,VWS V14.00,2013-01-13 23:28:00,
2013-01-13 17:29:00,26.3,18.5,30.33,NNW,330,6.0,7.0,72,0.00,,---,0.01,VWS V14.00,2013-01-13 23:29:00,
2013-01-13 17:30:00,26.3,18.5,30.33,NNW,331,9.0,10.0,72,0.00,,---,0.01,VWS V14.00,2013-01-13 23:30:00,
2013-01-13 17:31:00,26.3,18.2,30.33,NNW,331,3.0,11.0,71,0.00,,---,0.01,VWS V14.00,2013-01-13 23:31:00,
2013-01-13 17:32:00,26.1,18.3,30.33,NNW,329,7.0,7.0,72,0.00,,---,0.01,VWS V14.00,2013-01-13 23:32:00,
2013-01-13 17:33:00,26.3,18.5,30.33,NNW,331,5.0,8.0,72,0.00,,---,0.01,VWS V14.00,2013-01-13 23:33:00,
2013-01-13 17:34:00,26.1,18.3,30.33,NNW,330,5.0,9.0,72,0.00,,---,0.01,VWS V14.00,2013-01-13 23:34:00,
2013-01-13 17:35:00,26.1,18.0,30.33,NNW,329,6.0,9.0,71,0.00,,---,0.01,VWS V14.00,2013-01-13 23:35:00,
2013-01-13 17:36:00,26.1,18.0,30.33,NNW,329,5.0,9.0,71,0.00,,---,0.01,VWS V14.00,2013-01-13 23:36:00,
2013-01-13 17:37:00,26.1,18.3,30.33,NNW,329,4.0,5.0,72,0.00,,---,0.01,VWS V14.00,2013-01-13 23:37:00,
2013-01-13 17:38:00,26.1,18.3,30.33,NNW,329,5.0,6.0,72,0.00,,---,0.01,VWS V14.00,2013-01-13 23:38:00,
2013-01-13 17:39:00,26.1,18.3,30.33,NNW,329,5.0,7.0,72,0.00,,---,0.01,VWS V14.00,2013-01-13 23:39:00,
2013-01-13 17:40:00,26.1,18.3,30.33,NNW,329,6.0,7.0,72,0.00,,---,0.01,VWS V14.00,2013-01-13 23:40:00,
2013-01-13 17:41:00,26.1,18.3,30.33,NNW,329,2.0,6.0,72,0.00,,---,0.01,VWS V14.00,2013-01-13 23:41:00,
2013-01-13 17:42:00,26.0,18.2,30.33,NNW,329,3.0,3.0,72,0.00,,---,0.01,VWS V14.00,2013-01-13 23:42:00,
2013-01-13 17:43:00,26.0,18.2,30.33,NNW,329,2.0,4.0,72,0.00,,---,0.01,VWS V14.00,2013-01-13 23:43:00,
2013-01-13 17:44:00,26.1,18.3,30.33,NNW,329,1.0,5.0,72,0.00,,---,0.01,VWS V14.00,2013-01-13 23:44:00,
2013-01-13 17:45:00,26.0,18.2,30.33,NNW,329,2.0,4.0,72,0.00,,---,0.01,VWS V14.00,2013-01-13 23:45:00,
2013-01-13 17:46:00,26.0,18.2,30.33,NNW,329,4.0,4.0,72,0.00,,---,0.01,VWS V14.00,2013-01-13 23:46:00,
2013-01-13 17:47:00,26.0,18.2,30.33,NNW,329,5.0,5.0,72,0.00,,---,0.01,VWS V14.00,2013-01-13 23:47:00,
2013-01-13 17:48:00,26.0,18.2,30.33,NNW,329,4.0,5.0,72,0.00,,---,0.01,VWS V14.00,2013-01-13 23:48:00,
2013-01-13 17:49:00,26.0,18.2,30.33,NNW,329,3.0,6.0,72,0.00,,---,0.01,VWS V14.00,2013-01-13 23:49:00,
2013-01-13 17:50:00,26.0,18.2,30.33,NNW,329,7.0,7.0,72,0.00,,---,0.01,VWS V14.00,2013-01-13 23:50:00,
2013-01-13 17:51:00,26.0,18.2,30.33,NNW,329,2.0,7.0,72,0.00,,---,0.01,VWS V14.00,2013-01-13 23:51:00,
2013-01-13 17:52:00,26.0,18.2,30.34,NNW,329,4.0,4.0,72,0.00,,---,0.01,VWS V14.00,2013-01-13 23:52:00,
2013-01-13 17:53:00,26.0,18.2,30.34,NNW,329,4.0,4.0,72,0.00,,---,0.01,VWS V14.00,2013-01-13 23:53:00,
2013-01-13 17:54:00,26.0,18.2,30.34,NNW,329,3.0,6.0,72,0.00,,---,0.01,VWS V14.00,2013-01-13 23:54:00,
2013-01-13 17:55:00,26.0,18.2,30.34,NNW,329,1.0,5.0,72,0.00,,---,0.01,VWS V14.00,2013-01-13 23:55:00,
2013-01-13 17:56:00,26.0,18.2,30.34,NNW,329,3.0,4.0,72,0.00,,---,0.01,VWS V14.00,2013-01-13 23:56:00,
2013-01-13 17:57:00,25.8,18.4,30.34,NNW,329,5.0,5.0,73,0.00,,---,0.01,VWS V14.00,2013-01-13 23:57:00,
2013-01-13 17:58:00,25.8,18.0,30.34,NNW,329,1.0,4.0,72,0.00,,---,0.01,VWS V14.00,2013-01-13 23:58:00,
2013-01-13 17:59:00,25.8,18.0,30.34,NNW,329,3.0,4.0,72,0.00,,---,0.01,VWS V14.00,2013-01-13 23:59:00,
2013-01-13 18:00:00,25.8,18.4,30.34,NNW,329,4.0,5.0,73,0.00,,---,0.01,VWS V14.00,2013-01-14 00:00:00,
2013-01-13 18:01:00,25.8,18.4,30.34,NNW,329,4.0,6.0,73,0.00,,---,0.01,VWS V14.00,2013-01-14 00:01:00,
2013-01-13 18:02:00,25.8,18.4,30.34,NNW,329,3.0,4.0,73,0.00,,---,0.01,VWS V14.00,2013-01-14 00:02:00,
2013-01-13 18:03:00,25.8,18.4,30.34,NNW,329,3.0,5.0,73,0.00,,---,0.01,VWS V14.00,2013-01-14 00:03:00,
2013-01-13 18:04:00,25.8,18.4,30.34,NNW,329,2.0,4.0,73,0.00,,---,0.01,VWS V14.00,2013-01-14 00:04:00,
2013-01-13 18:05:00,25.8,18.4,30.34,NNW,329,4.0,5.0,73,0.00,,---,0.01,VWS V14.00,2013-01-14 00:05:00,
2013-01-13 18:06:00,25.8,18.7,30.34,NNW,329,2.0,4.0,74,0.00,,---,0.01,VWS V14.00,2013-01-14 00:06:00,
2013-01-13 18:07:00,25.8,18.7,30.35,NNW,329,3.0,3.0,74,0.00,,---,0.01,VWS V14.00,2013-01-14 00:07:00,
2013-01-13 18:08:00,25.8,18.7,30.35,NNW,329,0.0,2.0,74,0.00,,---,0.01,VWS V14.00,2013-01-14 00:08:00,
2013-01-13 18:09:00,25.8,18.7,30.35,NNW,329,3.0,3.0,74,0.00,,---,0.01,VWS V14.00,2013-01-14 00:09:00,
2013-01-13 18:10:00,25.8,18.7,30.35,NNW,329,1.0,4.0,74,0.00,,---,0.01,VWS V14.00,2013-01-14 00:10:00,
2013-01-13 18:11:00,25.8,18.4,30.35,NNW,329,1.0,3.0,73,0.00,,---,0.01,VWS V14.00,2013-01-14 00:11:00,
2013-01-13 18:12:00,25.8,18.7,30.34,NNW,329,3.0,3.0,74,0.00,,---,0.01,VWS V14.00,2013-01-14 00:12:00,
2013-01-13 18:13:00,25.8,18.7,30.34,NNW,329,2.0,3.0,74,0.00,,---,0.01,VWS V14.00,2013-01-14 00:13:00,
2013-01-13 18:14:00,25.8,18.7,30.34,NNW,329,1.0,2.0,74,0.00,,---,0.01,VWS V14.00,2013-01-14 00:14:00,
2013-01-13 18:15:00,25.8,18.4,30.34,NNW,329,1.0,3.0,73,0.00,,---,0.01,VWS V14.00,2013-01-14 00:15:00,
2013-01-13 18:16:00,25.7,18.3,30.34,NNW,329,2.0,2.0,73,0.00,,---,0.01,VWS V14.00,2013-01-14 00:16:00,
2013-01-13 18:17:00,25.7,18.6,30.34,NNW,329,1.0,2.0,74,0.00,,---,0.01,VWS V14.00,2013-01-14 00:17:00,
2013-01-13 18:18:00,25.7,18.6,30.34,NNW,329,0.0,1.0,74,0.00,,---,0.01,VWS V14.00,2013-01-14 00:18:00,
2013-01-13 18:19:00,25.7,18.6,30.34,NNW,329,0.0,0.0,74,0.00,,---,0.01,VWS V14.00,2013-01-14 00:19:00,
2013-01-13 18:20:00,25.6,18.5,30.34,NNW,329,2.0,2.0,74,0.00,,---,0.01,VWS V14.00,2013-01-14 00:20:00,
2013-01-13 18:21:00,25.6,18.5,30.34,NNW,329,0.0,2.0,74,0.00,,---,0.01,VWS V14.00,2013-01-14 00:21:00,
2013-01-13 18:22:00,25.4,18.3,30.34,NNW,329,0.0,0.0,74,0.00,,---,0.01,VWS V14.00,2013-01-14 00:22:00,
2013-01-13 18:23:00,25.6,18.5,30.34,NNW,329,1.0,3.0,74,0.00,,---,0.01,VWS V14.00,2013-01-14 00:23:00,
2013-01-13 18:24:00,25.4,18.3,30.34,NNW,329,0.0,2.0,74,0.00,,---,0.01,VWS V14.00,2013-01-14 00:24:00,
2013-01-13 18:25:00,25.4,18.3,30.34,NNW,329,0.0,0.0,74,0.00,,---,0.01,VWS V14.00,2013-01-14 00:25:00,
2013-01-13 18:26:00,25.4,18.3,30.34,NNW,329,0.0,0.0,74,0.00,,---,0.01,VWS V14.00,2013-01-14 00:26:00,
2013-01-13 18:27:00,25.4,18.3,30.34,NNW,329,2.0,2.0,74,0.00,,---,0.01,VWS V14.00,2013-01-14 00:27:00,
2013-01-13 18:28:00,25.4,18.3,30.34,NNW,329,0.0,1.0,74,0.00,,---,0.01,VWS V14.00,2013-01-14 00:28:00,
2013-01-13 18:29:00,25.4,18.3,30.34,NNW,329,2.0,3.0,74,0.00,,---,0.01,VWS V14.00,2013-01-14 00:29:00,
2013-01-13 18:30:00,25.4,18.3,30.34,NNW,329,1.0,2.0,74,0.00,,---,0.01,VWS V14.00,2013-01-14 00:30:00,
2013-01-13 18:31:00,25.4,18.3,30.34,NNW,329,2.0,2.0,74,0.00,,---,0.01,VWS V14.00,2013-01-14 00:31:00,
2013-01-13 18:32:00,25.3,18.2,30.34,NNW,329,2.0,2.0,74,0.00,,---,0.01,VWS V14.00,2013-01-14 00:32:00,
2013-01-13 18:33:00,25.3,18.2,30.34,NNW,329,2.0,3.0,74,0.00,,---,0.01,VWS V14.00,2013-01-14 00:33:00,
2013-01-13 18:34:00,25.3,18.2,30.34,NNW,329,2.0,4.0,74,0.00,,---,0.01,VWS V14.00,2013-01-14 00:34:00,
2013-01-13 18:35:00,25.3,18.5,30.34,NNW,329,2.0,3.0,75,0.00,,---,0.01,VWS V14.00,2013-01-14 00:35:00,
2013-01-13 18:36:00,25.3,18.2,30.34,NNW,329,1.0,3.0,74,0.00,,---,0.01,VWS V14.00,2013-01-14 00:36:00,
2013-01-13 18:37:00,25.1,18.0,30.34,NNW,329,0.0,0.0,74,0.00,,---,0.01,VWS V14.00,2013-01-14 00:37:00,
2013-01-13 18:38:00,25.3,18.2,30.34,NNW,329,0.0,2.0,74,0.00,,---,0.01,VWS V14.00,2013-01-14 00:38:00,
2013-01-13 18:39:00,25.1,18.0,30.34,NNW,329,0.0,0.0,74,0.00,,---,0.01,VWS V14.00,2013-01-14 00:39:00,
2013-01-13 18:40:00,25.1,18.0,30.34,NNW,329,0.0,0.0,74,0.00,,---,0.01,VWS V14.00,2013-01-14 00:40:00,
2013-01-13 18:41:00,25.1,18.0,30.34,NNW,329,2.0,2.0,74,0.00,,---,0.01,VWS V14.00,2013-01-14 00:41:00,
2013-01-13 18:42:00,25.0,17.9,30.35,NNW,329,0.0,0.0,74,0.00,,---,0.01,VWS V14.00,2013-01-14 00:42:00,
2013-01-13 18:43:00,25.1,18.3,30.34,NNW,329,1.0,2.0,75,0.00,,---,0.01,VWS V14.00,2013-01-14 00:43:00,
2013-01-13 18:44:00,25.0,17.9,30.35,NNW,329,0.0,2.0,74,0.00,,---,0.01,VWS V14.00,2013-01-14 00:44:00,
2013-01-13 18:45:00,25.0,17.9,30.35,NNW,329,0.0,0.0,74,0.00,,---,0.01,VWS V14.00,2013-01-14 00:45:00,
2013-01-13 18:46:00,25.0,17.9,30.35,NNW,329,0.0,0.0,74,0.00,,---,0.01,VWS V14.00,2013-01-14 00:46:00,
2013-01-13 18:47:00,24.8,18.0,30.35,NNW,329,0.0,0.0,75,0.00,,---,0.01,VWS V14.00,2013-01-14 00:47:00,
2013-01-13 18:48:00,25.0,18.2,30.35,NNW,329,0.0,0.0,75,0.00,,---,0.01,VWS V14.00,2013-01-14 00:48:00,
2013-01-13 18:49:00,25.0,18.2,30.35,NNW,329,0.0,0.0,75,0.00,,---,0.01,VWS V14.00,2013-01-14 00:49:00,
2013-01-13 18:50:00,24.8,18.0,30.35,NNW,329,0.0,0.0,75,0.00,,---,0.01,VWS V14.00,2013-01-14 00:50:00,
2013-01-13 18:51:00,24.8,18.0,30.35,NNW,329,0.0,1.0,75,0.00,,---,0.01,VWS V14.00,2013-01-14 00:51:00,
2013-01-13 18:52:00,24.8,17.7,30.35,NNW,329,0.0,0.0,74,0.00,,---,0.01,VWS V14.00,2013-01-14 00:52:00,
2013-01-13 18:53:00,24.8,17.7,30.35,NNW,329,0.0,0.0,74,0.00,,---,0.01,VWS V14.00,2013-01-14 00:53:00,
2013-01-13 18:54:00,24.8,17.7,30.35,NNW,329,0.0,0.0,74,0.00,,---,0.01,VWS V14.00,2013-01-14 00:54:00,
2013-01-13 18:55:00,24.8,18.0,30.35,NNW,329,0.0,2.0,75,0.00,,---,0.01,VWS V14.00,2013-01-14 00:55:00,
2013-01-13 18:56:00,24.8,18.0,30.35,NNW,329,1.0,1.0,75,0.00,,---,0.01,VWS V14.00,2013-01-14 00:56:00,
2013-01-13 18:57:00,24.7,17.9,30.36,NNW,329,0.0,0.0,75,0.00,,---,0.01,VWS V14.00,2013-01-14 00:57:00,
2013-01-13 18:58:00,24.7,17.9,30.35,NNW,329,0.0,0.0,75,0.00,,---,0.01,VWS V14.00,2013-01-14 00:58:00,
2013-01-13 18:59:00,24.7,17.9,30.36,NNW,329,0.0,0.0,75,0.00,,---,0.01,VWS V14.00,2013-01-14 00:59:00,
2013-01-13 19:00:00,24.7,17.9,30.36,NNW,329,0.0,0.0,75,0.00,,---,0.01,VWS V14.00,2013-01-14 01:00:00,
2013-01-13 19:01:00,24.7,17.9,30.36,NNW,329,0.0,0.0,75,0.00,,---,0.01,VWS V14.00,2013-01-14 01:01:00,
2013-01-13 19:02:00,24.7,17.9,30.36,NNW,329,0.0,0.0,75,0.00,,---,0.01,VWS V14.00,2013-01-14 01:02:00,
2013-01-13 19:03:00,24.7,17.9,30.36,NNW,329,0.0,0.0,75,0.00,,---,0.01,VWS V14.00,2013-01-14 01:03:00,
2013-01-13 19:04:00,24.7,17.9,30.36,NNW,329,0.0,0.0,75,0.00,,---,0.01,VWS V14.00,2013-01-14 01:04:00,
2013-01-13 19:05:00,24.7,17.9,30.36,NNW,329,0.0,0.0,75,0.00,,---,0.01,VWS V14.00,2013-01-14 01:05:00,
2013-01-13 19:06:00,24.7,17.9,30.36,NNW,329,1.0,2.0,75,0.00,,---,0.01,VWS V14.00,2013-01-14 01:06:00,
2013-01-13 19:07:00,24.5,17.7,30.36,NNW,329,0.0,0.0,75,0.00,,---,0.01,VWS V14.00,2013-01-14 01:07:00,
2013-01-13 19:08:00,24.5,17.7,30.36,NNW,329,1.0,2.0,75,0.00,,---,0.01,VWS V14.00,2013-01-14 01:08:00,
2013-01-13 19:09:00,24.5,17.7,30.36,NNW,329,0.0,1.0,75,0.00,,---,0.01,VWS V14.00,2013-01-14 01:09:00,
2013-01-13 19:10:00,24.5,17.7,30.36,NNW,329,0.0,0.0,75,0.00,,---,0.01,VWS V14.00,2013-01-14 01:10:00,
2013-01-13 19:11:00,24.5,17.7,30.36,NNW,329,0.0,0.0,75,0.00,,---,0.01,VWS V14.00,2013-01-14 01:11:00,
2013-01-13 19:12:00,24.4,17.6,30.36,NNW,329,0.0,0.0,75,0.00,,---,0.01,VWS V14.00,2013-01-14 01:12:00,
2013-01-13 19:13:00,24.4,17.6,30.36,NNW,329,0.0,1.0,75,0.00,,---,0.01,VWS V14.00,2013-01-14 01:13:00,
2013-01-13 19:14:00,24.4,17.6,30.36,NNW,329,0.0,0.0,75,0.00,,---,0.01,VWS V14.00,2013-01-14 01:14:00,
2013-01-13 19:15:00,24.4,17.6,30.36,NNW,329,0.0,0.0,75,0.00,,---,0.01,VWS V14.00,2013-01-14 01:15:00,
2013-01-13 19:16:00,24.4,17.6,30.36,NNW,329,2.0,2.0,75,0.00,,---,0.01,VWS V14.00,2013-01-14 01:16:00,
2013-01-13 19:17:00,24.2,17.4,30.36,NNW,329,2.0,3.0,75,0.00,,---,0.01,VWS V14.00,2013-01-14 01:17:00,
2013-01-13 19:18:00,24.2,17.4,30.36,NNW,329,1.0,2.0,75,0.00,,---,0.01,VWS V14.00,2013-01-14 01:18:00,
2013-01-13 19:19:00,24.2,17.4,30.36,NNW,329,2.0,3.0,75,0.00,,---,0.01,VWS V14.00,2013-01-14 01:19:00,
2013-01-13 19:20:00,24.2,17.4,30.36,NNW,329,1.0,3.0,75,0.00,,---,0.01,VWS V14.00,2013-01-14 01:20:00,
2013-01-13 19:21:00,24.2,17.4,30.36,NNW,329,2.0,2.0,75,0.00,,---,0.01,VWS V14.00,2013-01-14 01:21:00,
2013-01-13 19:22:00,24.1,17.3,30.36,NNW,329,0.0,1.0,75,0.00,,---,0.01,VWS V14.00,2013-01-14 01:22:00,
2013-01-13 19:23:00,24.1,17.3,30.36,NNW,329,0.0,0.0,75,0.00,,---,0.01,VWS V14.00,2013-01-14 01:23:00,
2013-01-13 19:24:00,24.1,17.3,30.36,NNW,329,1.0,2.0,75,0.00,,---,0.01,VWS V14.00,2013-01-14 01:24:00,
2013-01-13 19:25:00,24.1,17.3,30.36,NNW,329,0.0,1.0,75,0.00,,---,0.01,VWS V14.00,2013-01-14 01:25:00,
2013-01-13 19:26:00,24.1,17.3,30.36,NNW,329,1.0,1.0,75,0.00,,---,0.01,VWS V14.00,2013-01-14 01:26:00,
2013-01-13 19:27:00,24.1,17.6,30.36,NNW,329,0.0,0.0,76,0.00,,---,0.01,VWS V14.00,2013-01-14 01:27:00,
2013-01-13 19:28:00,24.1,17.6,30.36,NNW,329,2.0,3.0,76,0.00,,---,0.01,VWS V14.00,2013-01-14 01:28:00,
2013-01-13 19:29:00,24.1,17.6,30.36,NNW,329,0.0,3.0,76,0.00,,---,0.01,VWS V14.00,2013-01-14 01:29:00,
2013-01-13 19:30:00,24.1,17.6,30.36,NNW,329,1.0,2.0,76,0.00,,---,0.01,VWS V14.00,2013-01-14 01:30:00,
2013-01-13 19:31:00,24.1,17.6,30.36,NNW,329,0.0,2.0,76,0.00,,---,0.01,VWS V14.00,2013-01-14 01:31:00,
2013-01-13 19:32:00,23.9,17.5,30.36,NNW,329,2.0,2.0,76,0.00,,---,0.01,VWS V14.00,2013-01-14 01:32:00,
2013-01-13 19:33:00,24.1,17.6,30.36,NNW,329,0.0,2.0,76,0.00,,---,0.01,VWS V14.00,2013-01-14 01:33:00,
2013-01-13 19:34:00,23.9,17.5,30.36,NNW,329,2.0,2.0,76,0.00,,---,0.01,VWS V14.00,2013-01-14 01:34:00,
2013-01-13 19:35:00,23.9,17.5,30.36,NNW,329,2.0,3.0,76,0.00,,---,0.01,VWS V14.00,2013-01-14 01:35:00,
2013-01-13 19:36:00,23.9,17.5,30.36,NNW,329,2.0,3.0,76,0.00,,---,0.01,VWS V14.00,2013-01-14 01:36:00,
2013-01-13 19:37:00,23.8,17.4,30.36,NNW,329,0.0,0.0,76,0.00,,---,0.01,VWS V14.00,2013-01-14 01:37:00,
2013-01-13 19:38:00,23.9,17.1,30.37,NNW,329,1.0,2.0,75,0.00,,---,0.01,VWS V14.00,2013-01-14 01:38:00,
2013-01-13 19:39:00,23.8,17.4,30.36,NNW,329,0.0,2.0,76,0.00,,---,0.01,VWS V14.00,2013-01-14 01:39:00,
2013-01-13 19:40:00,23.8,17.4,30.36,NNW,329,0.0,0.0,76,0.00,,---,0.01,VWS V14.00,2013-01-14 01:40:00,
2013-01-13 19:41:00,23.8,17.4,30.37,NNW,329,0.0,0.0,76,0.00,,---,0.01,VWS V14.00,2013-01-14 01:41:00,
2013-01-13 19:42:00,23.6,17.2,30.37,NNW,329,1.0,2.0,76,0.00,,---,0.01,VWS V14.00,2013-01-14 01:42:00,
2013-01-13 19:43:00,23.8,17.4,30.37,NNW,329,0.0,0.0,76,0.00,,---,0.01,VWS V14.00,2013-01-14 01:43:00,
2013-01-13 19:44:00,23.6,17.2,30.37,NNW,329,2.0,2.0,76,0.00,,---,0.01,VWS V14.00,2013-01-14 01:44:00,
2013-01-13 19:45:00,23.6,17.2,30.37,NNW,329,2.0,2.0,76,0.00,,---,0.01,VWS V14.00,2013-01-14 01:45:00,
2013-01-13 19:46:00,23.6,17.2,30.37,NNW,329,0.0,3.0,76,0.00,,---,0.01,VWS V14.00,2013-01-14 01:46:00,
2013-01-13 19:47:00,23.6,17.2,30.37,NNW,329,0.0,0.0,76,0.00,,---,0.01,VWS V14.00,2013-01-14 01:47:00,
2013-01-13 19:48:00,23.6,17.2,30.37,NNW,329,2.0,2.0,76,0.00,,---,0.01,VWS V14.00,2013-01-14 01:48:00,
2013-01-13 19:49:00,23.6,17.2,30.37,NNW,329,0.0,2.0,76,0.00,,---,0.01,VWS V14.00,2013-01-14 01:49:00,
2013-01-13 19:50:00,23.6,17.2,30.37,NNW,329,0.0,0.0,76,0.00,,---,0.01,VWS V14.00,2013-01-14 01:50:00,
2013-01-13 19:51:00,23.6,17.2,30.37,NNW,329,0.0,0.0,76,0.00,,---,0.01,VWS V14.00,2013-01-14 01:51:00,
2013-01-13 19:52:00,23.6,17.5,30.37,NNW,329,0.0,0.0,77,0.00,,---,0.01,VWS V14.00,2013-01-14 01:52:00,
2013-01-13 19:53:00,23.6,17.5,30.37,NNW,329,2.0,3.0,77,0.00,,---,0.01,VWS V14.00,2013-01-14 01:53:00,
2013-01-13 19:54:00,23.6,17.5,30.37,NNW,329,0.0,2.0,77,0.00,,---,0.01,VWS V14.00,2013-01-14 01:54:00,
2013-01-13 19:55:00,23.6,17.2,30.37,NNW,329,0.0,0.0,76,0.00,,---,0.01,VWS V14.00,2013-01-14 01:55:00,
2013-01-13 19:56:00,23.6,17.5,30.37,NNW,329,2.0,2.0,77,0.00,,---,0.01,VWS V14.00,2013-01-14 01:56:00,
2013-01-13 19:57:00,23.5,17.4,30.36,NNW,329,2.0,2.0,77,0.00,,---,0.01,VWS V14.00,2013-01-14 01:57:00,
2013-01-13 19:58:00,23.5,17.4,30.36,NNW,329,2.0,3.0,77,0.00,,---,0.01,VWS V14.00,2013-01-14 01:58:00,
2013-01-13 19:59:00,23.5,17.4,30.36,NNW,329,2.0,4.0,77,0.00,,---,0.01,VWS V14.00,2013-01-14 01:59:00,
2013-01-13 20:00:00,23.5,17.1,30.36,NNW,329,0.0,4.0,76,0.00,,---,0.01,VWS V14.00,2013-01-14 02:00:00,
2013-01-13 20:01:00,23.5,17.4,30.36,NNW,329,2.0,3.0,77,0.00,,---,0.01,VWS V14.00,2013-01-14 02:01:00,
2013-01-13 20:02:00,23.5,17.4,30.36,NNW,329,2.0,2.0,77,0.00,,---,0.01,VWS V14.00,2013-01-14 02:02:00,
2013-01-13 20:03:00,23.5,17.4,30.36,NNW,329,0.0,2.0,77,0.00,,---,0.01,VWS V14.00,2013-01-14 02:03:00,
2013-01-13 20:04:00,23.5,17.4,30.36,NNW,329,2.0,4.0,77,0.00,,---,0.01,VWS V14.00,2013-01-14 02:04:00,
2013-01-13 20:05:00,23.5,17.4,30.36,NNW,329,3.0,4.0,77,0.00,,---,0.01,VWS V14.00,2013-01-14 02:05:00,
2013-01-13 20:06:00,23.5,17.4,30.36,NNW,329,4.0,6.0,77,0.00,,---,0.01,VWS V14.00,2013-01-14 02:06:00,
2013-01-13 20:07:00,23.3,17.2,30.37,NNW,329,3.0,4.0,77,0.00,,---,0.01,VWS V14.00,2013-01-14 02:07:00,
2013-01-13 20:08:00,23.3,17.2,30.37,NNW,329,0.0,5.0,77,0.00,,---,0.01,VWS V14.00,2013-01-14 02:08:00,
2013-01-13 20:09:00,23.3,17.2,30.37,NNW,329,4.0,5.0,77,0.00,,---,0.01,VWS V14.00,2013-01-14 02:09:00,
2013-01-13 20:10:00,23.3,17.2,30.37,NNW,329,2.0,4.0,77,0.00,,---,0.01,VWS V14.00,2013-01-14 02:10:00,
2013-01-13 20:11:00,23.3,17.2,30.37,NNW,329,4.0,4.0,77,0.00,,---,0.01,VWS V14.00,2013-01-14 02:11:00,
2013-01-13 20:12:00,23.2,17.4,30.37,NNW,329,1.0,2.0,78,0.00,,---,0.01,VWS V14.00,2013-01-14 02:12:00,
2013-01-13 20:13:00,23.2,17.1,30.37,NNW,329,0.0,3.0,77,0.00,,---,0.01,VWS V14.00,2013-01-14 02:13:00,
2013-01-13 20:14:00,23.2,17.1,30.37,NNW,329,2.0,3.0,77,0.00,,---,0.01,VWS V14.00,2013-01-14 02:14:00,
2013-01-13 20:15:00,23.2,17.4,30.37,NNW,329,5.0,5.0,78,0.00,,---,0.01,VWS V14.00,2013-01-14 02:15:00,
2013-01-13 20:16:00,23.2,17.4,30.37,NNW,329,3.0,5.0,78,0.00,,---,0.01,VWS V14.00,2013-01-14 02:16:00,
2013-01-13 20:17:00,23.2,17.4,30.37,NNW,329,4.0,4.0,78,0.00,,---,0.01,VWS V14.00,2013-01-14 02:17:00,
2013-01-13 20:18:00,23.2,17.4,30.37,NNW,329,3.0,4.0,78,0.00,,---,0.01,VWS V14.00,2013-01-14 02:18:00,
2013-01-13 20:19:00,23.2,17.4,30.37,NNW,329,3.0,5.0,78,0.00,,---,0.01,VWS V14.00,2013-01-14 02:19:00,
2013-01-13 20:20:00,23.2,17.4,30.37,NNW,329,2.0,4.0,78,0.00,,---,0.01,VWS V14.00,2013-01-14 02:20:00,
2013-01-13 20:21:00,23.2,17.4,30.37,NNW,329,3.0,4.0,78,0.00,,---,0.01,VWS V14.00,2013-01-14 02:21:00,
2013-01-13 20:22:00,23.2,17.7,30.37,NNW,329,3.0,3.0,79,0.00,,---,0.01,VWS V14.00,2013-01-14 02:22:00,
2013-01-13 20:23:00,23.2,17.4,30.37,NNW,329,3.0,3.0,78,0.00,,---,0.01,VWS V14.00,2013-01-14 02:23:00,
2013-01-13 20:24:00,23.2,17.7,30.37,NNW,329,1.0,3.0,79,0.00,,---,0.01,VWS V14.00,2013-01-14 02:24:00,
2013-01-13 20:25:00,23.2,17.7,30.37,NNW,329,2.0,3.0,79,0.00,,---,0.01,VWS V14.00,2013-01-14 02:25:00,
2013-01-13 20:26:00,23.2,17.7,30.37,NNW,329,3.0,4.0,79,0.00,,---,0.01,VWS V14.00,2013-01-14 02:26:00,
2013-01-13 20:27:00,23.0,17.2,30.37,NNW,329,0.0,0.0,78,0.00,,---,0.01,VWS V14.00,2013-01-14 02:27:00,
2013-01-13 20:28:00,23.2,17.4,30.37,NNW,329,0.0,3.0,78,0.00,,---,0.01,VWS V14.00,2013-01-14 02:28:00,
2013-01-13 20:29:00,23.0,17.2,30.37,NNW,329,0.0,0.0,78,0.00,,---,0.01,VWS V14.00,2013-01-14 02:29:00,
2013-01-13 20:30:00,23.0,17.2,30.37,NNW,329,1.0,3.0,78,0.00,,---,0.01,VWS V14.00,2013-01-14 02:30:00,
2013-01-13 20:31:00,23.0,17.2,30.37,NNW,329,2.0,4.0,78,0.00,,---,0.01,VWS V14.00,2013-01-14 02:31:00,
2013-01-13 20:32:00,23.0,17.2,30.38,NNW,329,2.0,2.0,78,0.00,,---,0.01,VWS V14.00,2013-01-14 02:32:00,
2013-01-13 20:33:00,23.0,17.2,30.38,NNW,329,2.0,3.0,78,0.00,,---,0.01,VWS V14.00,2013-01-14 02:33:00,
2013-01-13 20:34:00,23.0,17.2,30.38,NNW,329,2.0,4.0,78,0.00,,---,0.01,VWS V14.00,2013-01-14 02:34:00,
2013-01-13 20:35:00,23.0,17.5,30.38,NNW,329,3.0,3.0,79,0.00,,---,0.01,VWS V14.00,2013-01-14 02:35:00,
2013-01-13 20:36:00,22.9,17.4,30.38,NNW,329,2.0,5.0,79,0.00,,---,0.01,VWS V14.00,2013-01-14 02:36:00,
2013-01-13 20:37:00,22.9,17.1,30.38,NNW,329,3.0,5.0,78,0.00,,---,0.01,VWS V14.00,2013-01-14 02:37:00,
2013-01-13 20:38:00,22.9,17.1,30.38,NNW,329,5.0,5.0,78,0.00,,---,0.01,VWS V14.00,2013-01-14 02:38:00,
2013-01-13 20:39:00,22.9,17.1,30.38,NNW,329,5.0,6.0,78,0.00,,---,0.01,VWS V14.00,2013-01-14 02:39:00,
2013-01-13 20:40:00,22.9,17.1,30.38,NNW,329,4.0,5.0,78,0.00,,---,0.01,VWS V14.00,2013-01-14 02:40:00,
2013-01-13 20:41:00,22.7,16.9,30.38,NNW,329,4.0,5.0,78,0.00,,---,0.01,VWS V14.00,2013-01-14 02:41:00,
2013-01-13 20:42:00,22.7,17.2,30.38,NNW,329,1.0,2.0,79,0.00,,---,0.01,VWS V14.00,2013-01-14 02:42:00,
2013-01-13 20:43:00,22.7,16.9,30.38,NNW,329,2.0,5.0,78,0.00,,---,0.01,VWS V14.00,2013-01-14 02:43:00,
2013-01-13 20:44:00,22.7,17.2,30.38,NNW,329,0.0,3.0,79,0.00,,---,0.01,VWS V14.00,2013-01-14 02:44:00,
2013-01-13 20:45:00,22.7,17.2,30.38,NNW,329,0.0,2.0,79,0.00,,---,0.01,VWS V14.00,2013-01-14 02:45:00,
2013-01-13 20:46:00,22.7,17.2,30.38,NNW,329,2.0,3.0,79,0.00,,---,0.01,VWS V14.00,2013-01-14 02:46:00,
2013-01-13 20:47:00,22.7,17.2,30.39,NNW,329,1.0,2.0,79,0.00,,---,0.01,VWS V14.00,2013-01-14 02:47:00,
2013-01-13 20:48:00,22.7,17.2,30.38,NNW,329,0.0,1.0,79,0.00,,---,0.01,VWS V14.00,2013-01-14 02:48:00,
2013-01-13 20:49:00,22.7,17.2,30.39,NNW,329,0.0,1.0,79,0.00,,---,0.01,VWS V14.00,2013-01-14 02:49:00,
2013-01-13 20:50:00,22.7,16.9,30.39,NNW,329,0.0,3.0,78,0.00,,---,0.01,VWS V14.00,2013-01-14 02:50:00,
2013-01-13 20:51:00,22.7,16.9,30.39,NNW,329,0.0,0.0,78,0.00,,---,0.01,VWS V14.00,2013-01-14 02:51:00,
2013-01-13 20:52:00,22.5,17.0,30.39,NNW,329,1.0,1.0,79,0.00,,---,0.01,VWS V14.00,2013-01-14 02:52:00,
2013-01-13 20:53:00,22.7,17.2,30.39,NNW,329,0.0,1.0,79,0.00,,---,0.01,VWS V14.00,2013-01-14 02:53:00,
2013-01-13 20:54:00,22.7,17.2,30.39,NNW,329,0.0,0.0,79,0.00,,---,0.01,VWS V14.00,2013-01-14 02:54:00,
2013-01-13 20:55:00,22.5,17.0,30.39,NNW,329,0.0,1.0,79,0.00,,---,0.01,VWS V14.00,2013-01-14 02:55:00,
2013-01-13 20:56:00,22.5,17.0,30.39,NNW,329,0.0,0.0,79,0.00,,---,0.01,VWS V14.00,2013-01-14 02:56:00,
2013-01-13 20:57:00,22.5,17.0,30.39,NNW,329,1.0,2.0,79,0.00,,---,0.01,VWS V14.00,2013-01-14 02:57:00,
2013-01-13 20:58:00,22.5,17.0,30.39,NNW,329,0.0,1.0,79,0.00,,---,0.01,VWS V14.00,2013-01-14 02:58:00,
2013-01-13 20:59:00,22.5,17.0,30.39,NNW,329,1.0,1.0,79,0.00,,---,0.01,VWS V14.00,2013-01-14 02:59:00,
2013-01-13 21:00:00,22.5,17.0,30.39,NNW,329,0.0,2.0,79,0.00,,---,0.01,VWS V14.00,2013-01-14 03:00:00,
2013-01-13 21:01:00,22.5,17.0,30.39,NNW,329,1.0,2.0,79,0.00,,---,0.01,VWS V14.00,2013-01-14 03:01:00,
2013-01-13 21:02:00,22.5,17.0,30.39,NNW,329,0.0,0.0,79,0.00,,---,0.01,VWS V14.00,2013-01-14 03:02:00,
2013-01-13 21:03:00,22.5,17.0,30.39,NNW,329,0.0,0.0,79,0.00,,---,0.01,VWS V14.00,2013-01-14 03:03:00,
2013-01-13 21:04:00,22.5,17.0,30.39,NNW,329,0.0,0.0,79,0.00,,---,0.01,VWS V14.00,2013-01-14 03:04:00,
2013-01-13 21:05:00,22.5,17.0,30.39,NNW,329,1.0,3.0,79,0.00,,---,0.01,VWS V14.00,2013-01-14 03:05:00,
2013-01-13 21:06:00,22.4,16.9,30.39,NNW,329,0.0,2.0,79,0.00,,---,0.01,VWS V14.00,2013-01-14 03:06:00,
2013-01-13 21:07:00,22.4,16.9,30.39,NNW,329,2.0,2.0,79,0.00,,---,0.01,VWS V14.00,2013-01-14 03:07:00,
2013-01-13 21:08:00,22.4,16.9,30.39,NNW,329,0.0,0.0,79,0.00,,---,0.01,VWS V14.00,2013-01-14 03:08:00,
2013-01-13 21:09:00,22.4,16.9,30.39,NNW,329,2.0,2.0,79,0.00,,---,0.01,VWS V14.00,2013-01-14 03:09:00,
2013-01-13 21:10:00,22.4,16.9,30.40,NNW,329,2.0,3.0,79,0.00,,---,0.01,VWS V14.00,2013-01-14 03:10:00,
2013-01-13 21:11:00,22.4,16.9,30.40,NNW,329,2.0,2.0,79,0.00,,---,0.01,VWS V14.00,2013-01-14 03:11:00,
2013-01-13 21:12:00,22.2,16.7,30.40,NNW,329,2.0,2.0,79,0.00,,---,0.01,VWS V14.00,2013-01-14 03:12:00,
2013-01-13 21:13:00,22.4,16.9,30.40,NNW,329,0.0,0.0,79,0.00,,---,0.01,VWS V14.00,2013-01-14 03:13:00,
2013-01-13 21:14:00,22.4,16.9,30.40,NNW,329,1.0,3.0,79,0.00,,---,0.01,VWS V14.00,2013-01-14 03:14:00,
2013-01-13 21:15:00,22.2,16.7,30.40,NNW,329,1.0,2.0,79,0.00,,---,0.01,VWS V14.00,2013-01-14 03:15:00,
2013-01-13 21:16:00,22.2,16.7,30.39,NNW,329,2.0,3.0,79,0.00,,---,0.01,VWS V14.00,2013-01-14 03:16:00,
2013-01-13 21:17:00,22.2,16.7,30.39,NNW,329,8.0,8.0,79,0.00,,---,0.01,VWS V14.00,2013-01-14 03:17:00,
2013-01-13 21:18:00,22.2,16.7,30.39,NNW,329,5.0,5.0,79,0.00,,---,0.01,VWS V14.00,2013-01-14 03:18:00,
2013-01-13 21:19:00,22.2,16.7,30.39,NNW,329,4.0,6.0,79,0.00,,---,0.01,VWS V14.00,2013-01-14 03:19:00,
2013-01-13 21:20:00,22.2,16.7,30.39,NNW,329,4.0,8.0,79,0.00,,---,0.01,VWS V14.00,2013-01-14 03:20:00,
2013-01-13 21:21:00,22.2,16.7,30.39,NNW,329,4.0,6.0,79,0.00,,---,0.01,VWS V14.00,2013-01-14 03:21:00,
2013-01-13 21:22:00,22.2,16.7,30.39,NNW,329,1.0,1.0,79,0.00,,---,0.01,VWS V14.00,2013-01-14 03:22:00,
2013-01-13 21:23:00,22.2,16.7,30.39,NNW,329,3.0,3.0,79,0.00,,---,0.01,VWS V14.00,2013-01-14 03:23:00,
2013-01-13 21:24:00,22.2,16.7,30.39,NNW,329,1.0,3.0,79,0.00,,---,0.01,VWS V14.00,2013-01-14 03:24:00,
2013-01-13 21:25:00,22.2,16.7,30.39,NNW,329,3.0,4.0,79,0.00,,---,0.01,VWS V14.00,2013-01-14 03:25:00,
2013-01-13 21:26:00,22.2,16.7,30.39,NNW,329,0.0,3.0,79,0.00,,---,0.01,VWS V14.00,2013-01-14 03:26:00,
2013-01-13 21:27:00,22.2,16.7,30.40,NNW,329,2.0,2.0,79,0.00,,---,0.01,VWS V14.00,2013-01-14 03:27:00,
2013-01-13 21:28:00,22.2,16.7,30.39,NNW,329,1.0,1.0,79,0.00,,---,0.01,VWS V14.00,2013-01-14 03:28:00,
2013-01-13 21:29:00,22.2,16.7,30.40,NNW,329,1.0,3.0,79,0.00,,---,0.01,VWS V14.00,2013-01-14 03:29:00,
2013-01-13 21:30:00,22.2,16.7,30.40,NNW,329,2.0,4.0,79,0.00,,---,0.01,VWS V14.00,2013-01-14 03:30:00,
2013-01-13 21:31:00,22.2,16.7,30.40,NNW,329,0.0,2.0,79,0.00,,---,0.01,VWS V14.00,2013-01-14 03:31:00,
2013-01-13 21:32:00,22.1,16.6,30.40,NNW,329,0.0,1.0,79,0.00,,---,0.01,VWS V14.00,2013-01-14 03:32:00,
2013-01-13 21:33:00,22.1,16.6,30.40,NNW,329,0.0,0.0,79,0.00,,---,0.01,VWS V14.00,2013-01-14 03:33:00,
2013-01-13 21:34:00,22.1,16.6,30.40,NNW,329,0.0,1.0,79,0.00,,---,0.01,VWS V14.00,2013-01-14 03:34:00,
2013-01-13 21:35:00,22.1,16.6,30.39,NNW,329,4.0,4.0,79,0.00,,---,0.01,VWS V14.00,2013-01-14 03:35:00,
2013-01-13 21:36:00,22.1,16.6,30.39,NNW,329,0.0,4.0,79,0.00,,---,0.01,VWS V14.00,2013-01-14 03:36:00,
2013-01-13 21:37:00,22.1,16.6,30.39,NNW,329,1.0,1.0,79,0.00,,---,0.01,VWS V14.00,2013-01-14 03:37:00,
2013-01-13 21:38:00,22.1,16.6,30.39,NNW,329,1.0,4.0,79,0.00,,---,0.01,VWS V14.00,2013-01-14 03:38:00,
2013-01-13 21:39:00,22.1,16.6,30.39,NNW,329,1.0,3.0,79,0.00,,---,0.01,VWS V14.00,2013-01-14 03:39:00,
2013-01-13 21:40:00,22.1,16.9,30.39,NNW,329,2.0,3.0,80,0.00,,---,0.01,VWS V14.00,2013-01-14 03:40:00,
2013-01-13 21:41:00,22.1,16.9,30.39,NNW,329,1.0,3.0,80,0.00,,---,0.01,VWS V14.00,2013-01-14 03:41:00,
2013-01-13 21:42:00,22.1,16.6,30.40,NNW,329,2.0,2.0,79,0.00,,---,0.01,VWS V14.00,2013-01-14 03:42:00,
2013-01-13 21:43:00,22.1,16.6,30.40,NNW,329,0.0,2.0,79,0.00,,---,0.01,VWS V14.00,2013-01-14 03:43:00,
2013-01-13 21:44:00,22.1,16.6,30.40,NNW,329,2.0,3.0,79,0.00,,---,0.01,VWS V14.00,2013-01-14 03:44:00,
2013-01-13 21:45:00,22.1,16.6,30.40,NNW,329,2.0,3.0,79,0.00,,---,0.01,VWS V14.00,2013-01-14 03:45:00,
2013-01-13 21:46:00,22.1,16.6,30.40,NNW,329,2.0,3.0,79,0.00,,---,0.01,VWS V14.00,2013-01-14 03:46:00,
2013-01-13 21:47:00,22.1,16.9,30.40,NNW,329,5.0,6.0,80,0.00,,---,0.01,VWS V14.00,2013-01-14 03:47:00,
2013-01-13 21:48:00,21.9,16.4,30.40,NNW,329,2.0,4.0,79,0.00,,---,0.01,VWS V14.00,2013-01-14 03:48:00,
2013-01-13 21:49:00,21.9,16.7,30.40,NNW,329,6.0,6.0,80,0.00,,---,0.01,VWS V14.00,2013-01-14 03:49:00,
2013-01-13 21:50:00,22.1,16.9,30.40,NNW,329,5.0,6.0,80,0.00,,---,0.01,VWS V14.00,2013-01-14 03:50:00,
2013-01-13 21:51:00,21.9,16.4,30.40,NNW,329,3.0,5.0,79,0.00,,---,0.01,VWS V14.00,2013-01-14 03:51:00,
2013-01-13 21:52:00,22.1,16.9,30.40,NNW,329,1.0,1.0,80,0.00,,---,0.01,VWS V14.00,2013-01-14 03:52:00,
2013-01-13 21:53:00,22.1,16.9,30.40,NNW,329,1.0,2.0,80,0.00,,---,0.01,VWS V14.00,2013-01-14 03:53:00,
2013-01-13 21:54:00,22.1,16.9,30.40,NNW,329,0.0,2.0,80,0.00,,---,0.01,VWS V14.00,2013-01-14 03:54:00,
2013-01-13 21:55:00,22.1,16.9,30.40,NNW,329,0.0,4.0,80,0.00,,---,0.01,VWS V14.00,2013-01-14 03:55:00,
2013-01-13 21:56:00,22.1,16.9,30.40,NNW,329,4.0,4.0,80,0.00,,---,0.01,VWS V14.00,2013-01-14 03:56:00,
2013-01-13 21:57:00,21.9,16.4,30.41,NNW,329,2.0,3.0,79,0.00,,---,0.01,VWS V14.00,2013-01-14 03:57:00,
2013-01-13 21:58:00,21.9,16.4,30.40,NNW,329,2.0,3.0,79,0.00,,---,0.01,VWS V14.00,2013-01-14 03:58:00,
2013-01-13 21:59:00,21.9,16.4,30.40,NNW,329,2.0,2.0,79,0.00,,---,0.01,VWS V14.00,2013-01-14 03:59:00,
2013-01-13 22:00:00,21.9,16.4,30.41,NNW,329,2.0,3.0,79,0.00,,---,0.01,VWS V14.00,2013-01-14 04:00:00,
2013-01-13 22:01:00,21.9,16.4,30.41,NNW,329,2.0,3.0,79,0.00,,---,0.01,VWS V14.00,2013-01-14 04:01:00,
2013-01-13 22:02:00,21.8,16.3,30.41,NNW,329,2.0,2.0,79,0.00,,---,0.01,VWS V14.00,2013-01-14 04:02:00,
2013-01-13 22:03:00,21.8,16.3,30.41,NNW,329,3.0,3.0,79,0.00,,---,0.01,VWS V14.00,2013-01-14 04:03:00,
2013-01-13 22:04:00,21.8,16.3,30.41,NNW,329,2.0,4.0,79,0.00,,---,0.01,VWS V14.00,2013-01-14 04:04:00,
2013-01-13 22:05:00,21.8,16.3,30.41,NNW,329,1.0,3.0,79,0.00,,---,0.01,VWS V14.00,2013-01-14 04:05:00,
2013-01-13 22:06:00,21.8,16.3,30.41,NNW,329,3.0,3.0,79,0.00,,---,0.01,VWS V14.00,2013-01-14 04:06:00,
2013-01-13 22:07:00,21.8,16.3,30.41,NNW,329,2.0,3.0,79,0.00,,---,0.01,VWS V14.00,2013-01-14 04:07:00,
2013-01-13 22:08:00,21.8,16.3,30.41,NNW,329,3.0,4.0,79,0.00,,---,0.01,VWS V14.00,2013-01-14 04:08:00,
2013-01-13 22:09:00,21.8,16.3,30.41,NNW,329,2.0,5.0,79,0.00,,---,0.01,VWS V14.00,2013-01-14 04:09:00,
2013-01-13 22:10:00,21.8,16.3,30.41,NNW,329,1.0,4.0,79,0.00,,---,0.01,VWS V14.00,2013-01-14 04:10:00,
2013-01-13 22:11:00,21.8,16.3,30.41,NNW,329,2.0,3.0,79,0.00,,---,0.01,VWS V14.00,2013-01-14 04:11:00,
2013-01-13 22:12:00,21.8,16.3,30.41,NNW,329,2.0,2.0,79,0.00,,---,0.01,VWS V14.00,2013-01-14 04:12:00,
2013-01-13 22:13:00,21.8,16.3,30.41,NNW,329,3.0,5.0,79,0.00,,---,0.01,VWS V14.00,2013-01-14 04:13:00,
2013-01-13 22:14:00,21.8,16.3,30.41,NNW,329,2.0,5.0,79,0.00,,---,0.01,VWS V14.00,2013-01-14 04:14:00,
2013-01-13 22:15:00,21.8,16.3,30.41,NNW,329,3.0,5.0,79,0.00,,---,0.01,VWS V14.00,2013-01-14 04:15:00,
2013-01-13 22:16:00,21.8,16.0,30.41,NNW,329,0.0,4.0,78,0.00,,---,0.01,VWS V14.00,2013-01-14 04:16:00,
2013-01-13 22:17:00,21.6,15.8,30.42,NNW,329,2.0,2.0,78,0.00,,---,0.01,VWS V14.00,2013-01-14 04:17:00,
2013-01-13 22:18:00,21.6,16.1,30.42,NNW,329,0.0,2.0,79,0.00,,---,0.01,VWS V14.00,2013-01-14 04:18:00,
2013-01-13 22:19:00,21.6,15.8,30.42,NNW,329,1.0,4.0,78,0.00,,---,0.01,VWS V14.00,2013-01-14 04:19:00,
2013-01-13 22:20:00,21.6,16.1,30.42,NNW,329,0.0,2.0,79,0.00,,---,0.01,VWS V14.00,2013-01-14 04:20:00,
2013-01-13 22:21:00,21.6,16.1,30.42,NNW,329,0.0,0.0,79,0.00,,---,0.01,VWS V14.00,2013-01-14 04:21:00,
2013-01-13 22:22:00,21.6,15.8,30.42,NNW,329,0.0,0.0,78,0.00,,---,0.01,VWS V14.00,2013-01-14 04:22:00,
2013-01-13 22:23:00,21.6,16.1,30.42,NNW,329,0.0,0.0,79,0.00,,---,0.01,VWS V14.00,2013-01-14 04:23:00,
2013-01-13 22:24:00,21.6,15.8,30.42,NNW,329,0.0,2.0,78,0.00,,---,0.01,VWS V14.00,2013-01-14 04:24:00,
2013-01-13 22:25:00,21.6,15.8,30.42,NNW,329,0.0,0.0,78,0.00,,---,0.01,VWS V14.00,2013-01-14 04:25:00,
2013-01-13 22:26:00,21.6,15.8,30.42,NNW,329,0.0,0.0,78,0.00,,---,0.01,VWS V14.00,2013-01-14 04:26:00,
2013-01-13 22:27:00,21.6,16.1,30.42,NNW,329,1.0,1.0,79,0.00,,---,0.01,VWS V14.00,2013-01-14 04:27:00,
2013-01-13 22:28:00,21.6,16.1,30.42,NNW,329,2.0,2.0,79,0.00,,---,0.01,VWS V14.00,2013-01-14 04:28:00,
2013-01-13 22:29:00,21.6,16.1,30.42,NNW,329,0.0,3.0,79,0.00,,---,0.01,VWS V14.00,2013-01-14 04:29:00,
2013-01-13 22:30:00,21.4,15.9,30.42,NNW,329,1.0,2.0,79,0.00,,---,0.01,VWS V14.00,2013-01-14 04:30:00,
2013-01-13 22:31:00,21.4,15.9,30.42,NNW,329,0.0,2.0,79,0.00,,---,0.01,VWS V14.00,2013-01-14 04:31:00,
2013-01-13 22:32:00,21.4,15.9,30.42,NNW,329,0.0,0.0,79,0.00,,---,0.01,VWS V14.00,2013-01-14 04:32:00,
2013-01-13 22:33:00,21.4,15.9,30.42,NNW,329,0.0,0.0,79,0.00,,---,0.01,VWS V14.00,2013-01-14 04:33:00,
2013-01-13 22:34:00,21.4,15.9,30.42,NNW,329,0.0,0.0,79,0.00,,---,0.01,VWS V14.00,2013-01-14 04:34:00,
2013-01-13 22:35:00,21.4,15.9,30.42,NNW,329,0.0,0.0,79,0.00,,---,0.01,VWS V14.00,2013-01-14 04:35:00,
2013-01-13 22:36:00,21.4,15.9,30.42,NNW,329,0.0,0.0,79,0.00,,---,0.01,VWS V14.00,2013-01-14 04:36:00,
2013-01-13 22:37:00,21.3,15.8,30.42,NNW,329,0.0,0.0,79,0.00,,---,0.01,VWS V14.00,2013-01-14 04:37:00,
2013-01-13 22:38:00,21.3,15.8,30.42,NNW,329,0.0,0.0,79,0.00,,---,0.01,VWS V14.00,2013-01-14 04:38:00,
2013-01-13 22:39:00,21.3,15.8,30.42,NNW,329,0.0,0.0,79,0.00,,---,0.01,VWS V14.00,2013-01-14 04:39:00,
2013-01-13 22:40:00,21.3,15.8,30.42,NNW,329,0.0,0.0,79,0.00,,---,0.01,VWS V14.00,2013-01-14 04:40:00,
2013-01-13 22:41:00,21.3,15.8,30.43,NNW,329,0.0,0.0,79,0.00,,---,0.01,VWS V14.00,2013-01-14 04:41:00,
2013-01-13 22:42:00,21.3,15.8,30.43,NNW,329,0.0,0.0,79,0.00,,---,0.01,VWS V14.00,2013-01-14 04:42:00,
2013-01-13 22:43:00,21.3,15.8,30.43,NNW,329,0.0,0.0,79,0.00,,---,0.01,VWS V14.00,2013-01-14 04:43:00,
2013-01-13 22:44:00,21.3,15.8,30.43,NNW,329,0.0,0.0,79,0.00,,---,0.01,VWS V14.00,2013-01-14 04:44:00,
2013-01-13 22:45:00,21.3,15.8,30.43,NNW,329,0.0,0.0,79,0.00,,---,0.01,VWS V14.00,2013-01-14 04:45:00,
2013-01-13 22:46:00,21.3,15.8,30.43,NNW,329,0.0,0.0,79,0.00,,---,0.01,VWS V14.00,2013-01-14 04:46:00,
2013-01-13 22:47:00,21.1,15.6,30.43,NNW,329,0.0,0.0,79,0.00,,---,0.01,VWS V14.00,2013-01-14 04:47:00,
2013-01-13 22:48:00,21.1,15.6,30.43,NNW,329,0.0,0.0,79,0.00,,---,0.01,VWS V14.00,2013-01-14 04:48:00,
2013-01-13 22:49:00,21.1,15.6,30.43,NNW,329,0.0,0.0,79,0.00,,---,0.01,VWS V14.00,2013-01-14 04:49:00,
2013-01-13 22:50:00,21.1,15.6,30.43,NNW,329,0.0,0.0,79,0.00,,---,0.01,VWS V14.00,2013-01-14 04:50:00,
2013-01-13 22:51:00,21.1,15.6,30.43,NNW,329,0.0,0.0,79,0.00,,---,0.01,VWS V14.00,2013-01-14 04:51:00,
2013-01-13 22:52:00,21.0,15.5,30.43,NNW,329,0.0,0.0,79,0.00,,---,0.01,VWS V14.00,2013-01-14 04:52:00,
2013-01-13 22:53:00,21.1,15.9,30.43,NNW,329,0.0,0.0,80,0.00,,---,0.01,VWS V14.00,2013-01-14 04:53:00,
2013-01-13 22:54:00,21.0,15.5,30.43,NNW,329,0.0,0.0,79,0.00,,---,0.01,VWS V14.00,2013-01-14 04:54:00,
2013-01-13 22:55:00,21.0,15.8,30.43,NNW,329,0.0,0.0,80,0.00,,---,0.01,VWS V14.00,2013-01-14 04:55:00,
2013-01-13 22:56:00,21.0,15.8,30.43,NNW,329,0.0,1.0,80,0.00,,---,0.01,VWS V14.00,2013-01-14 04:56:00,
2013-01-13 22:57:00,21.0,15.8,30.43,NNW,329,0.0,0.0,80,0.00,,---,0.01,VWS V14.00,2013-01-14 04:57:00,
2013-01-13 22:58:00,21.0,15.8,30.43,NNW,329,0.0,0.0,80,0.00,,---,0.01,VWS V14.00,2013-01-14 04:58:00,
2013-01-13 22:59:00,21.0,15.8,30.43,NNW,329,0.0,0.0,80,0.00,,---,0.01,VWS V14.00,2013-01-14 04:59:00,
2013-01-13 23:00:00,20.8,15.6,30.42,NNW,329,0.0,0.0,80,0.00,,---,0.01,VWS V14.00,2013-01-14 05:00:00,
2013-01-13 23:01:00,21.0,15.8,30.43,NNW,329,0.0,0.0,80,0.00,,---,0.01,VWS V14.00,2013-01-14 05:01:00,
2013-01-13 23:02:00,20.8,15.6,30.42,NNW,329,0.0,0.0,80,0.00,,---,0.01,VWS V14.00,2013-01-14 05:02:00,
2013-01-13 23:03:00,20.8,15.6,30.43,NNW,329,0.0,0.0,80,0.00,,---,0.01,VWS V14.00,2013-01-14 05:03:00,
2013-01-13 23:04:00,20.8,15.6,30.42,NNW,329,0.0,0.0,80,0.00,,---,0.01,VWS V14.00,2013-01-14 05:04:00,
2013-01-13 23:05:00,20.8,15.6,30.43,NNW,329,0.0,0.0,80,0.00,,---,0.01,VWS V14.00,2013-01-14 05:05:00,
2013-01-13 23:06:00,20.8,15.6,30.43,NNW,329,0.0,0.0,80,0.00,,---,0.01,VWS V14.00,2013-01-14 05:06:00,
2013-01-13 23:07:00,20.8,15.6,30.42,NNW,329,0.0,0.0,80,0.00,,---,0.01,VWS V14.00,2013-01-14 05:07:00,
2013-01-13 23:08:00,20.6,15.7,30.42,NNW,329,0.0,0.0,81,0.00,,---,0.01,VWS V14.00,2013-01-14 05:08:00,
2013-01-13 23:09:00,20.6,15.4,30.42,NNW,329,0.0,0.0,80,0.00,,---,0.01,VWS V14.00,2013-01-14 05:09:00,
2013-01-13 23:10:00,20.6,15.4,30.42,NNW,329,0.0,0.0,80,0.00,,---,0.01,VWS V14.00,2013-01-14 05:10:00,
2013-01-13 23:11:00,20.6,15.7,30.42,NNW,329,0.0,0.0,81,0.00,,---,0.01,VWS V14.00,2013-01-14 05:11:00,
2013-01-13 23:12:00,20.6,15.7,30.42,NNW,329,0.0,0.0,81,0.00,,---,0.01,VWS V14.00,2013-01-14 05:12:00,
2013-01-13 23:13:00,20.6,15.7,30.42,NNW,329,0.0,0.0,81,0.00,,---,0.01,VWS V14.00,2013-01-14 05:13:00,
2013-01-13 23:14:00,20.6,15.7,30.42,NNW,329,0.0,0.0,81,0.00,,---,0.01,VWS V14.00,2013-01-14 05:14:00,
2013-01-13 23:15:00,20.6,15.7,30.42,NNW,329,0.0,0.0,81,0.00,,---,0.01,VWS V14.00,2013-01-14 05:15:00,
2013-01-13 23:16:00,20.6,15.7,30.43,NNW,329,0.0,0.0,81,0.00,,---,0.01,VWS V14.00,2013-01-14 05:16:00,
2013-01-13 23:17:00,20.6,15.7,30.43,NNW,329,0.0,0.0,81,0.00,,---,0.01,VWS V14.00,2013-01-14 05:17:00,
2013-01-13 23:18:00,20.6,15.7,30.43,NNW,329,0.0,0.0,81,0.00,,---,0.01,VWS V14.00,2013-01-14 05:18:00,
2013-01-13 23:19:00,20.6,15.7,30.43,NNW,329,0.0,0.0,81,0.00,,---,0.01,VWS V14.00,2013-01-14 05:19:00,
2013-01-13 23:20:00,20.6,15.7,30.43,NNW,329,0.0,0.0,81,0.00,,---,0.01,VWS V14.00,2013-01-14 05:20:00,
2013-01-13 23:21:00,20.6,16.0,30.43,NNW,329,0.0,0.0,82,0.00,,---,0.01,VWS V14.00,2013-01-14 05:21:00,
2013-01-13 23:22:00,20.6,16.0,30.43,NNW,329,0.0,0.0,82,0.00,,---,0.01,VWS V14.00,2013-01-14 05:22:00,
2013-01-13 23:23:00,20.5,15.9,30.43,NNW,329,0.0,0.0,82,0.00,,---,0.01,VWS V14.00,2013-01-14 05:23:00,
2013-01-13 23:24:00,20.6,16.0,30.43,NNW,329,0.0,0.0,82,0.00,,---,0.01,VWS V14.00,2013-01-14 05:24:00,
2013-01-13 23:25:00,20.5,15.9,30.43,NNW,329,0.0,0.0,82,0.00,,---,0.01,VWS V14.00,2013-01-14 05:25:00,
2013-01-13 23:26:00,20.5,15.9,30.43,NNW,329,0.0,0.0,82,0.00,,---,0.01,VWS V14.00,2013-01-14 05:26:00,
2013-01-13 23:27:00,20.5,15.9,30.43,NNW,329,0.0,0.0,82,0.00,,---,0.01,VWS V14.00,2013-01-14 05:27:00,
2013-01-13 23:28:00,20.5,15.9,30.43,NNW,329,0.0,0.0,82,0.00,,---,0.01,VWS V14.00,2013-01-14 05:28:00,
2013-01-13 23:29:00,20.5,15.9,30.43,NNW,329,0.0,0.0,82,0.00,,---,0.01,VWS V14.00,2013-01-14 05:29:00,
2013-01-13 23:30:00,20.5,15.9,30.43,NNW,329,0.0,0.0,82,0.00,,---,0.01,VWS V14.00,2013-01-14 05:30:00,
2013-01-13 23:31:00,20.5,15.9,30.43,NNW,329,0.0,2.0,82,0.00,,---,0.01,VWS V14.00,2013-01-14 05:31:00,
2013-01-13 23:32:00,20.5,15.9,30.43,NNW,329,2.0,2.0,82,0.00,,---,0.01,VWS V14.00,2013-01-14 05:32:00,
2013-01-13 23:33:00,20.3,16.0,30.43,NNW,329,0.0,0.0,83,0.00,,---,0.01,VWS V14.00,2013-01-14 05:33:00,
2013-01-13 23:34:00,20.3,15.7,30.43,NNW,329,0.0,3.0,82,0.00,,---,0.01,VWS V14.00,2013-01-14 05:34:00,
2013-01-13 23:35:00,20.3,16.0,30.43,NNW,329,0.0,3.0,83,0.00,,---,0.01,VWS V14.00,2013-01-14 05:35:00,
2013-01-13 23:36:00,20.3,16.0,30.43,NNW,329,0.0,0.0,83,0.00,,---,0.01,VWS V14.00,2013-01-14 05:36:00,
2013-01-13 23:37:00,20.3,16.0,30.43,NNW,329,0.0,0.0,83,0.00,,---,0.01,VWS V14.00,2013-01-14 05:37:00,
2013-01-13 23:38:00,20.0,15.7,30.43,NNW,329,3.0,3.0,83,0.00,,---,0.01,VWS V14.00,2013-01-14 05:38:00,
2013-01-13 23:39:00,20.2,15.9,30.43,NNW,329,2.0,3.0,83,0.00,,---,0.01,VWS V14.00,2013-01-14 05:39:00,
2013-01-13 23:40:00,20.0,15.7,30.43,NNW,329,3.0,3.0,83,0.00,,---,0.01,VWS V14.00,2013-01-14 05:40:00,
2013-01-13 23:41:00,20.0,15.4,30.44,NNW,329,2.0,4.0,82,0.00,,---,0.01,VWS V14.00,2013-01-14 05:41:00,
2013-01-13 23:42:00,19.9,15.3,30.44,NNW,329,3.0,4.0,82,0.00,,---,0.01,VWS V14.00,2013-01-14 05:42:00,
2013-01-13 23:43:00,19.5,15.2,30.44,NNW,329,0.0,0.0,83,0.00,,---,0.01,VWS V14.00,2013-01-14 05:43:00,
2013-01-13 23:44:00,19.7,15.4,30.44,NNW,329,4.0,4.0,83,0.00,,---,0.01,VWS V14.00,2013-01-14 05:44:00,
2013-01-13 23:45:00,19.5,15.2,30.44,NNW,329,0.0,4.0,83,0.00,,---,0.01,VWS V14.00,2013-01-14 05:45:00,
2013-01-13 23:46:00,19.4,15.1,30.45,NNW,329,3.0,4.0,83,0.00,,---,0.01,VWS V14.00,2013-01-14 05:46:00,
2013-01-13 23:47:00,19.4,15.1,30.45,NNW,329,1.0,3.0,83,0.00,,---,0.01,VWS V14.00,2013-01-14 05:47:00,
2013-01-13 23:48:00,19.2,15.2,30.45,NNW,329,2.0,2.0,84,0.00,,---,0.01,VWS V14.00,2013-01-14 05:48:00,
2013-01-13 23:49:00,19.2,14.9,30.45,NNW,329,2.0,3.0,83,0.00,,---,0.01,VWS V14.00,2013-01-14 05:49:00,
2013-01-13 23:50:00,19.2,15.2,30.45,NNW,329,2.0,3.0,84,0.00,,---,0.01,VWS V14.00,2013-01-14 05:50:00,
2013-01-13 23:51:00,19.2,15.2,30.45,NNW,329,2.0,4.0,84,0.00,,---,0.01,VWS V14.00,2013-01-14 05:51:00,
2013-01-13 23:52:00,19.2,15.2,30.45,NNW,329,2.0,3.0,84,0.00,,---,0.01,VWS V14.00,2013-01-14 05:52:00,
2013-01-13 23:53:00,19.2,15.2,30.45,NNW,329,0.0,0.0,84,0.00,,---,0.01,VWS V14.00,2013-01-14 05:53:00,
2013-01-13 23:54:00,19.2,15.2,30.45,NNW,329,0.0,3.0,84,0.00,,---,0.01,VWS V14.00,2013-01-14 05:54:00,
2013-01-13 23:55:00,19.2,15.2,30.45,NNW,329,0.0,0.0,84,0.00,,---,0.01,VWS V14.00,2013-01-14 05:55:00,
2013-01-13 23:56:00,19.2,15.2,30.45,NNW,329,1.0,1.0,84,0.00,,---,0.01,VWS V14.00,2013-01-14 05:56:00,
2013-01-13 23:57:00,19.2,15.2,30.45,NNW,329,1.0,3.0,84,0.00,,---,0.01,VWS V14.00,2013-01-14 05:57:00,
2013-01-13 23:58:00,19.2,15.2,30.45,NNW,329,1.0,2.0,84,0.00,,---,0.00,VWS V14.00,2013-01-14 05:58:00,
2013-01-13 23:59:00,19.2,15.2,30.45,NNW,329,0.0,2.0,84,0.00,,---,0.01,VWS V14.00,2013-01-14 05:59:00,